Check out our new PWSWeather beta!
PWSweather.com
Personal Weather Stations
Station Observations
KNJSTAFF6
Village Harbor, Beach Haven West, Manahawkin, NJ 08050

Village Harbor, Beach Haven WestManahawkin, NJ 08050

Lat: 39.67889410559905, Lon: -74.24244902883606

Elevation: 15

Station Type: Oregon Scientific WMR88A

High Low Average
Temperature 36.0°F2.2°C 19.0°F-7.2°C 28.9°F-1.7°C
Dew Point 13.8°F-10.1°C -20.5°F-29.2°C -5.8°F-21.0°C
Winds 12.7 mph 20.4 kmh Calm Calm 5.0 mph WNW8.0 kmh WNW
Wind Gusts 19.9 mph32.0 kmh -- 10.0 mph16.1 kmh
Humidity 42% 11% 24%
Pressure 30.51 in1033.2 mb 30.07 in1018.3 mb -
Precipitation 0.00 in0.0 mm - -
Hour Temp Dew Point Humidity Winds Wind Gusts Pressure Precip Precip Rate Daily Precip Total
12:00 AM 34.5°F1.4°C 13.8°F-10.1°C 42% 8.6 mph NW13.8 kmh NW 15.4 mph24.8 kmh 30.07 in1018.3 mb 0.00 in0.0 mm 0.00 in0.0 mm 0.00 in0.0 mm
12:01 AM 34.5°F1.4°C 13.8°F-10.1°C 42% 8.4 mph NW13.5 kmh NW 15.4 mph24.8 kmh 30.07 in1018.3 mb 0.00 in0.0 mm 0.00 in0.0 mm 0.00 in0.0 mm
12:02 AM 34.5°F1.4°C 13.8°F-10.1°C 42% 7.5 mph NW12.1 kmh NW 15.4 mph24.8 kmh 30.07 in1018.3 mb 0.00 in0.0 mm 0.00 in0.0 mm 0.00 in0.0 mm
12:03 AM 34.5°F1.4°C 13.8°F-10.1°C 42% 7.2 mph NW11.6 kmh NW 15.4 mph24.8 kmh 30.07 in1018.3 mb 0.00 in0.0 mm 0.00 in0.0 mm 0.00 in0.0 mm
12:04 AM 34.5°F1.4°C 13.8°F-10.1°C 42% 7.9 mph NW12.7 kmh NW 15.4 mph24.8 kmh 30.07 in1018.3 mb 0.00 in0.0 mm 0.00 in0.0 mm 0.00 in0.0 mm
12:05 AM 34.5°F1.4°C 13.8°F-10.1°C 42% 7.5 mph WNW12.1 kmh WNW 11.2 mph18.0 kmh 30.07 in1018.3 mb 0.00 in0.0 mm 0.00 in0.0 mm 0.00 in0.0 mm
12:06 AM 34.5°F1.4°C 13.8°F-10.1°C 42% 7.7 mph WNW12.4 kmh WNW 11.2 mph18.0 kmh 30.07 in1018.3 mb 0.00 in0.0 mm 0.00 in0.0 mm 0.00 in0.0 mm
12:07 AM 34.5°F1.4°C 13.8°F-10.1°C 42% 8.0 mph WNW12.9 kmh WNW 11.2 mph18.0 kmh 30.07 in1018.3 mb 0.00 in0.0 mm 0.00 in0.0 mm 0.00 in0.0 mm
12:08 AM 34.5°F1.4°C 13.8°F-10.1°C 42% 7.8 mph WNW12.6 kmh WNW 11.2 mph18.0 kmh 30.07 in1018.3 mb 0.00 in0.0 mm 0.00 in0.0 mm 0.00 in0.0 mm
12:09 AM 34.3°F1.3°C 13.0°F-10.6°C 41% 7.7 mph WNW12.4 kmh WNW 10.5 mph16.9 kmh 30.07 in1018.3 mb 0.00 in0.0 mm 0.00 in0.0 mm 0.00 in0.0 mm
12:10 AM 34.3°F1.3°C 13.0°F-10.6°C 41% 8.1 mph WNW13.0 kmh WNW 11.0 mph17.7 kmh 30.07 in1018.3 mb 0.00 in0.0 mm 0.00 in0.0 mm 0.00 in0.0 mm
12:11 AM 34.5°F1.4°C 13.2°F-10.4°C 41% 8.5 mph W13.7 kmh W 11.0 mph17.7 kmh 30.07 in1018.3 mb 0.00 in0.0 mm 0.00 in0.0 mm 0.00 in0.0 mm
12:12 AM 34.5°F1.4°C 13.2°F-10.4°C 41% 9.2 mph W14.8 kmh W 14.8 mph23.8 kmh 30.07 in1018.3 mb 0.00 in0.0 mm 0.00 in0.0 mm 0.00 in0.0 mm
12:13 AM 34.7°F1.5°C 12.8°F-10.7°C 40% 9.6 mph W15.4 kmh W 14.8 mph23.8 kmh 30.07 in1018.3 mb 0.00 in0.0 mm 0.00 in0.0 mm 0.00 in0.0 mm
12:14 AM 34.5°F1.4°C 12.6°F-10.8°C 40% 9.3 mph WNW15.0 kmh WNW 14.8 mph23.8 kmh 30.09 in1019.0 mb 0.00 in0.0 mm 0.00 in0.0 mm 0.00 in0.0 mm
12:15 AM 34.5°F1.4°C 12.6°F-10.8°C 40% 9.3 mph WNW15.0 kmh WNW 14.8 mph23.8 kmh 30.09 in1019.0 mb 0.00 in0.0 mm 0.00 in0.0 mm 0.00 in0.0 mm
12:16 AM 34.5°F1.4°C 12.6°F-10.8°C 40% 9.4 mph WNW15.1 kmh WNW 14.8 mph23.8 kmh 30.09 in1019.0 mb 0.00 in0.0 mm 0.00 in0.0 mm 0.00 in0.0 mm
12:17 AM 34.5°F1.4°C 12.6°F-10.8°C 40% 8.9 mph WNW14.3 kmh WNW 14.8 mph23.8 kmh 30.09 in1019.0 mb 0.00 in0.0 mm 0.00 in0.0 mm 0.00 in0.0 mm
12:18 AM 34.3°F1.3°C 12.5°F-10.8°C 40% 8.5 mph WNW13.7 kmh WNW 14.8 mph23.8 kmh 30.09 in1019.0 mb 0.00 in0.0 mm 0.00 in0.0 mm 0.00 in0.0 mm
12:19 AM 34.3°F1.3°C 12.5°F-10.8°C 40% 8.4 mph WNW13.5 kmh WNW 14.8 mph23.8 kmh 30.09 in1019.0 mb 0.00 in0.0 mm 0.00 in0.0 mm 0.00 in0.0 mm
12:20 AM 34.3°F1.3°C 12.5°F-10.8°C 40% 8.2 mph WNW13.2 kmh WNW 14.8 mph23.8 kmh 30.09 in1019.0 mb 0.00 in0.0 mm 0.00 in0.0 mm 0.00 in0.0 mm
12:21 AM 34.2°F1.2°C 12.3°F-10.9°C 40% 7.5 mph NW12.1 kmh NW 14.8 mph23.8 kmh 30.09 in1019.0 mb 0.00 in0.0 mm 0.00 in0.0 mm 0.00 in0.0 mm
12:22 AM 34.2°F1.2°C 12.3°F-10.9°C 40% 6.9 mph NW11.1 kmh NW 14.8 mph23.8 kmh 30.09 in1019.0 mb 0.00 in0.0 mm 0.00 in0.0 mm 0.00 in0.0 mm
12:23 AM 34.2°F1.2°C 12.9°F-10.6°C 41% 6.7 mph NW10.8 kmh NW 11.0 mph17.7 kmh 30.09 in1019.0 mb 0.00 in0.0 mm 0.00 in0.0 mm 0.00 in0.0 mm
12:24 AM 34.2°F1.2°C 12.9°F-10.6°C 41% 6.5 mph NW10.5 kmh NW 11.0 mph17.7 kmh 30.09 in1019.0 mb 0.00 in0.0 mm 0.00 in0.0 mm 0.00 in0.0 mm
12:25 AM 34.2°F1.2°C 12.3°F-10.9°C 40% 6.7 mph WNW10.8 kmh WNW 11.0 mph17.7 kmh 30.09 in1019.0 mb 0.00 in0.0 mm 0.00 in0.0 mm 0.00 in0.0 mm
12:26 AM 34.2°F1.2°C 12.3°F-10.9°C 40% 7.1 mph W11.4 kmh W 15.2 mph24.5 kmh 30.09 in1019.0 mb 0.00 in0.0 mm 0.00 in0.0 mm 0.00 in0.0 mm
12:27 AM 34.3°F1.3°C 12.5°F-10.8°C 40% 7.3 mph W11.7 kmh W 15.2 mph24.5 kmh 30.09 in1019.0 mb 0.00 in0.0 mm 0.00 in0.0 mm 0.00 in0.0 mm
12:28 AM 34.0°F1.1°C 12.2°F-11.0°C 40% 7.5 mph W12.1 kmh W 15.2 mph24.5 kmh 30.09 in1019.0 mb 0.00 in0.0 mm 0.00 in0.0 mm 0.00 in0.0 mm
12:29 AM 34.0°F1.1°C 12.2°F-11.0°C 40% 7.5 mph W12.1 kmh W 15.2 mph24.5 kmh 30.09 in1019.0 mb 0.00 in0.0 mm 0.00 in0.0 mm 0.00 in0.0 mm
12:30 AM 34.0°F1.1°C 12.2°F-11.0°C 40% 7.6 mph W12.2 kmh W 15.2 mph24.5 kmh 30.09 in1019.0 mb 0.00 in0.0 mm 0.00 in0.0 mm 0.00 in0.0 mm
12:31 AM 34.0°F1.1°C 12.2°F-11.0°C 40% 7.9 mph W12.7 kmh W 15.2 mph24.5 kmh 30.09 in1019.0 mb 0.00 in0.0 mm 0.00 in0.0 mm 0.00 in0.0 mm
12:32 AM 34.0°F1.1°C 12.2°F-11.0°C 40% 8.1 mph W13.0 kmh W 15.2 mph24.5 kmh 30.09 in1019.0 mb 0.00 in0.0 mm 0.00 in0.0 mm 0.00 in0.0 mm
12:33 AM 34.0°F1.1°C 12.2°F-11.0°C 40% 8.0 mph W12.9 kmh W 15.2 mph24.5 kmh 30.09 in1019.0 mb 0.00 in0.0 mm 0.00 in0.0 mm 0.00 in0.0 mm
12:34 AM 34.0°F1.1°C 12.2°F-11.0°C 40% 8.1 mph W13.0 kmh W 15.2 mph24.5 kmh 30.09 in1019.0 mb 0.00 in0.0 mm 0.00 in0.0 mm 0.00 in0.0 mm
12:35 AM 34.0°F1.1°C 12.2°F-11.0°C 40% 8.1 mph WNW13.0 kmh WNW 15.2 mph24.5 kmh 30.09 in1019.0 mb 0.00 in0.0 mm 0.00 in0.0 mm 0.00 in0.0 mm
12:36 AM 33.8°F1.0°C 12.0°F-11.1°C 40% 7.6 mph WNW12.2 kmh WNW 15.2 mph24.5 kmh 30.09 in1019.0 mb 0.00 in0.0 mm 0.00 in0.0 mm 0.00 in0.0 mm
12:37 AM 33.8°F1.0°C 12.0°F-11.1°C 40% 7.2 mph NW11.6 kmh NW 10.3 mph16.6 kmh 30.09 in1019.0 mb 0.00 in0.0 mm 0.00 in0.0 mm 0.00 in0.0 mm
12:38 AM 33.8°F1.0°C 12.0°F-11.1°C 40% 7.3 mph NW11.7 kmh NW 10.3 mph16.6 kmh 30.09 in1019.0 mb 0.00 in0.0 mm 0.00 in0.0 mm 0.00 in0.0 mm
12:39 AM 33.8°F1.0°C 12.0°F-11.1°C 40% 7.2 mph NW11.6 kmh NW 10.3 mph16.6 kmh 30.09 in1019.0 mb 0.00 in0.0 mm 0.00 in0.0 mm 0.00 in0.0 mm
12:40 AM 33.8°F1.0°C 12.0°F-11.1°C 40% 6.9 mph NW11.1 kmh NW 10.3 mph16.6 kmh 30.09 in1019.0 mb 0.00 in0.0 mm 0.00 in0.0 mm 0.00 in0.0 mm
12:41 AM 33.8°F1.0°C 12.0°F-11.1°C 40% 6.6 mph NW10.6 kmh NW 9.2 mph14.8 kmh 30.09 in1019.0 mb 0.00 in0.0 mm 0.00 in0.0 mm 0.00 in0.0 mm
12:42 AM 33.6°F0.9°C 11.8°F-11.2°C 40% 6.1 mph NW9.8 kmh NW 8.5 mph13.7 kmh 30.09 in1019.0 mb 0.00 in0.0 mm 0.00 in0.0 mm 0.00 in0.0 mm
12:43 AM 33.6°F0.9°C 11.8°F-11.2°C 40% 6.4 mph NW10.3 kmh NW 8.5 mph13.7 kmh 30.09 in1019.0 mb 0.00 in0.0 mm 0.00 in0.0 mm 0.00 in0.0 mm
12:44 AM 33.8°F1.0°C 12.0°F-11.1°C 40% 6.2 mph NW10.0 kmh NW 8.5 mph13.7 kmh 30.09 in1019.0 mb 0.00 in0.0 mm 0.00 in0.0 mm 0.00 in0.0 mm
12:45 AM 33.8°F1.0°C 12.0°F-11.1°C 40% 6.7 mph NW10.8 kmh NW 10.3 mph16.6 kmh 30.09 in1019.0 mb 0.00 in0.0 mm 0.00 in0.0 mm 0.00 in0.0 mm
12:46 AM 33.8°F1.0°C 12.0°F-11.1°C 40% 6.7 mph NW10.8 kmh NW 10.3 mph16.6 kmh 30.09 in1019.0 mb 0.00 in0.0 mm 0.00 in0.0 mm 0.00 in0.0 mm
12:47 AM 33.8°F1.0°C 12.0°F-11.1°C 40% 7.0 mph NW11.3 kmh NW 10.3 mph16.6 kmh 30.09 in1019.0 mb 0.00 in0.0 mm 0.00 in0.0 mm 0.00 in0.0 mm
12:48 AM 33.8°F1.0°C 12.0°F-11.1°C 40% 6.8 mph NW10.9 kmh NW 10.3 mph16.6 kmh 30.09 in1019.0 mb 0.00 in0.0 mm 0.00 in0.0 mm 0.00 in0.0 mm
12:49 AM 33.6°F0.9°C 11.3°F-11.5°C 39% 6.9 mph WNW11.1 kmh WNW 10.3 mph16.6 kmh 30.09 in1019.0 mb 0.00 in0.0 mm 0.00 in0.0 mm 0.00 in0.0 mm
12:50 AM 33.6°F0.9°C 11.3°F-11.5°C 39% 7.6 mph NW12.2 kmh NW 14.1 mph22.7 kmh 30.09 in1019.0 mb 0.00 in0.0 mm 0.00 in0.0 mm 0.00 in0.0 mm
12:51 AM 33.6°F0.9°C 10.7°F-11.8°C 38% 8.6 mph NW13.8 kmh NW 14.1 mph22.7 kmh 30.09 in1019.0 mb 0.00 in0.0 mm 0.00 in0.0 mm 0.00 in0.0 mm
12:52 AM 33.6°F0.9°C 10.7°F-11.8°C 38% 8.8 mph NW14.2 kmh NW 14.1 mph22.7 kmh 30.09 in1019.0 mb 0.00 in0.0 mm 0.00 in0.0 mm 0.00 in0.0 mm
12:53 AM 33.6°F0.9°C 10.7°F-11.8°C 38% 8.9 mph NW14.3 kmh NW 14.1 mph22.7 kmh 30.09 in1019.0 mb 0.00 in0.0 mm 0.00 in0.0 mm 0.00 in0.0 mm
12:54 AM 33.6°F0.9°C 10.1°F-12.2°C 37% 9.3 mph NW15.0 kmh NW 14.1 mph22.7 kmh 30.09 in1019.0 mb 0.00 in0.0 mm 0.00 in0.0 mm 0.00 in0.0 mm
12:55 AM 33.6°F0.9°C 10.1°F-12.2°C 37% 9.1 mph NW14.6 kmh NW 14.1 mph22.7 kmh 30.09 in1019.0 mb 0.00 in0.0 mm 0.00 in0.0 mm 0.00 in0.0 mm
12:56 AM 33.4°F0.8°C 9.9°F-12.3°C 37% 8.8 mph NW14.2 kmh NW 14.1 mph22.7 kmh 30.09 in1019.0 mb 0.00 in0.0 mm 0.00 in0.0 mm 0.00 in0.0 mm
12:57 AM 33.4°F0.8°C 9.9°F-12.3°C 37% 8.7 mph NW14.0 kmh NW 14.1 mph22.7 kmh 30.09 in1019.0 mb 0.00 in0.0 mm 0.00 in0.0 mm 0.00 in0.0 mm
12:58 AM 33.4°F0.8°C 9.3°F-12.6°C 36% 8.6 mph NW13.8 kmh NW 14.1 mph22.7 kmh 30.09 in1019.0 mb 0.00 in0.0 mm 0.00 in0.0 mm 0.00 in0.0 mm
12:59 AM 33.4°F0.8°C 9.3°F-12.6°C 36% 8.9 mph NW14.3 kmh NW 14.1 mph22.7 kmh 30.09 in1019.0 mb 0.00 in0.0 mm 0.00 in0.0 mm 0.00 in0.0 mm
01:00 AM 33.4°F0.8°C 9.3°F-12.6°C 36% 9.0 mph NW14.5 kmh NW 14.1 mph22.7 kmh 30.09 in1019.0 mb 0.00 in0.0 mm 0.00 in0.0 mm 0.00 in0.0 mm
01:01 AM 33.4°F0.8°C 9.3°F-12.6°C 36% 8.4 mph NW13.5 kmh NW 13.6 mph21.9 kmh 30.09 in1019.0 mb 0.00 in0.0 mm 0.00 in0.0 mm 0.00 in0.0 mm
01:02 AM 33.4°F0.8°C 9.3°F-12.6°C 36% 8.4 mph NW13.5 kmh NW 13.0 mph20.9 kmh 30.09 in1019.0 mb 0.00 in0.0 mm 0.00 in0.0 mm 0.00 in0.0 mm
01:03 AM 33.6°F0.9°C 8.8°F-12.9°C 35% 9.1 mph WNW14.6 kmh WNW 13.0 mph20.9 kmh 30.09 in1019.0 mb 0.00 in0.0 mm 0.00 in0.0 mm 0.00 in0.0 mm
01:04 AM 33.6°F0.9°C 8.8°F-12.9°C 35% 9.3 mph WNW15.0 kmh WNW 14.1 mph22.7 kmh 30.09 in1019.0 mb 0.00 in0.0 mm 0.00 in0.0 mm 0.00 in0.0 mm
01:05 AM 33.6°F0.9°C 8.2°F-13.2°C 34% 9.7 mph WNW15.6 kmh WNW 14.1 mph22.7 kmh 30.09 in1019.0 mb 0.00 in0.0 mm 0.00 in0.0 mm 0.00 in0.0 mm
01:06 AM 33.4°F0.8°C 8.0°F-13.3°C 34% 10.0 mph WNW16.1 kmh WNW 14.1 mph22.7 kmh 30.09 in1019.0 mb 0.00 in0.0 mm 0.00 in0.0 mm 0.00 in0.0 mm
01:07 AM 33.4°F0.8°C 8.0°F-13.3°C 34% 10.4 mph WNW16.7 kmh WNW 17.2 mph27.7 kmh 30.09 in1019.0 mb 0.00 in0.0 mm 0.00 in0.0 mm 0.00 in0.0 mm
01:08 AM 33.3°F0.7°C 7.9°F-13.4°C 34% 10.8 mph WNW17.4 kmh WNW 17.2 mph27.7 kmh 30.09 in1019.0 mb 0.00 in0.0 mm 0.00 in0.0 mm 0.00 in0.0 mm
01:09 AM 33.3°F0.7°C 7.9°F-13.4°C 34% 10.7 mph WNW17.2 kmh WNW 17.2 mph27.7 kmh 30.09 in1019.0 mb 0.00 in0.0 mm 0.00 in0.0 mm 0.00 in0.0 mm
01:10 AM 33.4°F0.8°C 8.0°F-13.3°C 34% 10.7 mph WNW17.2 kmh WNW 17.2 mph27.7 kmh 30.09 in1019.0 mb 0.00 in0.0 mm 0.00 in0.0 mm 0.00 in0.0 mm
01:11 AM 33.4°F0.8°C 8.0°F-13.3°C 34% 10.8 mph WNW17.4 kmh WNW 17.2 mph27.7 kmh 30.09 in1019.0 mb 0.00 in0.0 mm 0.00 in0.0 mm 0.00 in0.0 mm
01:12 AM 33.3°F0.7°C 7.9°F-13.4°C 34% 10.8 mph NW17.4 kmh NW 17.2 mph27.7 kmh 30.09 in1019.0 mb 0.00 in0.0 mm 0.00 in0.0 mm 0.00 in0.0 mm
01:13 AM 33.3°F0.7°C 7.9°F-13.4°C 34% 10.5 mph NW16.9 kmh NW 17.2 mph27.7 kmh 30.09 in1019.0 mb 0.00 in0.0 mm 0.00 in0.0 mm 0.00 in0.0 mm
01:14 AM 33.3°F0.7°C 7.9°F-13.4°C 34% 10.3 mph NW16.6 kmh NW 17.2 mph27.7 kmh 30.12 in1020.0 mb 0.00 in0.0 mm 0.00 in0.0 mm 0.00 in0.0 mm
01:15 AM 33.1°F0.6°C 7.7°F-13.5°C 34% 9.7 mph NW15.6 kmh NW 17.2 mph27.7 kmh 30.12 in1020.0 mb 0.00 in0.0 mm 0.00 in0.0 mm 0.00 in0.0 mm
01:16 AM 33.1°F0.6°C 7.7°F-13.5°C 34% 9.6 mph NW15.4 kmh NW 17.2 mph27.7 kmh 30.12 in1020.0 mb 0.00 in0.0 mm 0.00 in0.0 mm 0.00 in0.0 mm
01:17 AM 33.1°F0.6°C 7.7°F-13.5°C 34% 9.3 mph NW15.0 kmh NW 15.4 mph24.8 kmh 30.12 in1020.0 mb 0.00 in0.0 mm 0.00 in0.0 mm 0.00 in0.0 mm
01:18 AM 33.1°F0.6°C 7.7°F-13.5°C 34% 9.3 mph NW15.0 kmh NW 15.4 mph24.8 kmh 30.12 in1020.0 mb 0.00 in0.0 mm 0.00 in0.0 mm 0.00 in0.0 mm
01:19 AM 33.1°F0.6°C 7.7°F-13.5°C 34% 9.8 mph NW15.8 kmh NW 15.4 mph24.8 kmh 30.12 in1020.0 mb 0.00 in0.0 mm 0.00 in0.0 mm 0.00 in0.0 mm
01:20 AM 33.1°F0.6°C 7.7°F-13.5°C 34% 10.0 mph NW16.1 kmh NW 15.4 mph24.8 kmh 30.12 in1020.0 mb 0.00 in0.0 mm 0.00 in0.0 mm 0.00 in0.0 mm
01:21 AM 33.1°F0.6°C 7.7°F-13.5°C 34% 9.9 mph NW15.9 kmh NW 13.2 mph21.2 kmh 30.12 in1020.0 mb 0.00 in0.0 mm 0.00 in0.0 mm 0.00 in0.0 mm
01:22 AM 33.1°F0.6°C 7.7°F-13.5°C 34% 9.5 mph NW15.3 kmh NW 12.1 mph19.5 kmh 30.12 in1020.0 mb 0.00 in0.0 mm 0.00 in0.0 mm 0.00 in0.0 mm
01:23 AM 33.1°F0.6°C 7.7°F-13.5°C 34% 9.4 mph NW15.1 kmh NW 12.1 mph19.5 kmh 30.12 in1020.0 mb 0.00 in0.0 mm 0.00 in0.0 mm 0.00 in0.0 mm
01:24 AM 33.1°F0.6°C 7.7°F-13.5°C 34% 9.0 mph NW14.5 kmh NW 12.1 mph19.5 kmh 30.12 in1020.0 mb 0.00 in0.0 mm 0.00 in0.0 mm 0.00 in0.0 mm
01:25 AM 33.1°F0.6°C 7.7°F-13.5°C 34% 8.8 mph NW14.2 kmh NW 12.1 mph19.5 kmh 30.12 in1020.0 mb 0.00 in0.0 mm 0.00 in0.0 mm 0.00 in0.0 mm
01:26 AM 33.1°F0.6°C 7.7°F-13.5°C 34% 8.7 mph NW14.0 kmh NW 12.1 mph19.5 kmh 30.12 in1020.0 mb 0.00 in0.0 mm 0.00 in0.0 mm 0.00 in0.0 mm
01:27 AM 33.1°F0.6°C 7.7°F-13.5°C 34% 8.2 mph NW13.2 kmh NW 12.1 mph19.5 kmh 30.12 in1020.0 mb 0.00 in0.0 mm 0.00 in0.0 mm 0.00 in0.0 mm
01:28 AM 32.7°F0.4°C 7.4°F-13.7°C 34% 7.9 mph NW12.7 kmh NW 12.1 mph19.5 kmh 30.12 in1020.0 mb 0.00 in0.0 mm 0.00 in0.0 mm 0.00 in0.0 mm
01:29 AM 32.7°F0.4°C 7.4°F-13.7°C 34% 7.6 mph NW12.2 kmh NW 10.5 mph16.9 kmh 30.12 in1020.0 mb 0.00 in0.0 mm 0.00 in0.0 mm 0.00 in0.0 mm
01:30 AM 32.7°F0.4°C 7.4°F-13.7°C 34% 7.4 mph NW11.9 kmh NW 10.5 mph16.9 kmh 30.12 in1020.0 mb 0.00 in0.0 mm 0.00 in0.0 mm 0.00 in0.0 mm
01:31 AM 32.7°F0.4°C 7.4°F-13.7°C 34% 7.4 mph NW11.9 kmh NW 10.5 mph16.9 kmh 30.12 in1020.0 mb 0.00 in0.0 mm 0.00 in0.0 mm 0.00 in0.0 mm
01:32 AM 32.7°F0.4°C 7.4°F-13.7°C 34% 7.1 mph NW11.4 kmh NW 10.5 mph16.9 kmh 30.12 in1020.0 mb 0.00 in0.0 mm 0.00 in0.0 mm 0.00 in0.0 mm
01:33 AM 32.7°F0.4°C 7.4°F-13.7°C 34% 6.6 mph NW10.6 kmh NW 10.5 mph16.9 kmh 30.12 in1020.0 mb 0.00 in0.0 mm 0.00 in0.0 mm 0.00 in0.0 mm
01:34 AM 32.7°F0.4°C 7.4°F-13.7°C 34% 6.3 mph NW10.1 kmh NW 10.5 mph16.9 kmh 30.12 in1020.0 mb 0.00 in0.0 mm 0.00 in0.0 mm 0.00 in0.0 mm
01:35 AM 32.7°F0.4°C 7.4°F-13.7°C 34% 5.8 mph NW9.3 kmh NW 10.5 mph16.9 kmh 30.12 in1020.0 mb 0.00 in0.0 mm 0.00 in0.0 mm 0.00 in0.0 mm
01:36 AM 32.7°F0.4°C 7.4°F-13.7°C 34% 5.9 mph NW9.5 kmh NW 10.5 mph16.9 kmh 30.12 in1020.0 mb 0.00 in0.0 mm 0.00 in0.0 mm 0.00 in0.0 mm
01:37 AM 32.7°F0.4°C 7.4°F-13.7°C 34% 6.1 mph NW9.8 kmh NW 11.9 mph19.2 kmh 30.12 in1020.0 mb 0.00 in0.0 mm 0.00 in0.0 mm 0.00 in0.0 mm
01:38 AM 32.9°F0.5°C 7.6°F-13.6°C 34% 6.8 mph NW10.9 kmh NW 11.9 mph19.2 kmh 30.12 in1020.0 mb 0.00 in0.0 mm 0.00 in0.0 mm 0.00 in0.0 mm
01:39 AM 32.9°F0.5°C 7.6°F-13.6°C 34% 7.1 mph NW11.4 kmh NW 12.5 mph20.1 kmh 30.12 in1020.0 mb 0.00 in0.0 mm 0.00 in0.0 mm 0.00 in0.0 mm
01:40 AM 32.9°F0.5°C 6.9°F-13.9°C 33% 7.4 mph NW11.9 kmh NW 12.5 mph20.1 kmh 30.12 in1020.0 mb 0.00 in0.0 mm 0.00 in0.0 mm 0.00 in0.0 mm
01:41 AM 32.9°F0.5°C 6.9°F-13.9°C 33% 7.0 mph NW11.3 kmh NW 12.5 mph20.1 kmh 30.12 in1020.0 mb 0.00 in0.0 mm 0.00 in0.0 mm 0.00 in0.0 mm
01:42 AM 32.7°F0.4°C 7.4°F-13.7°C 34% 7.1 mph NW11.4 kmh NW 12.5 mph20.1 kmh 30.12 in1020.0 mb 0.00 in0.0 mm 0.00 in0.0 mm 0.00 in0.0 mm
01:43 AM 32.7°F0.4°C 7.4°F-13.7°C 34% 7.6 mph NW12.2 kmh NW 12.5 mph20.1 kmh 30.12 in1020.0 mb 0.00 in0.0 mm 0.00 in0.0 mm 0.00 in0.0 mm
01:44 AM 32.7°F0.4°C 7.4°F-13.7°C 34% 8.0 mph NW12.9 kmh NW 12.5 mph20.1 kmh 30.12 in1020.0 mb 0.00 in0.0 mm 0.00 in0.0 mm 0.00 in0.0 mm
01:45 AM 32.7°F0.4°C 6.7°F-14.1°C 33% 8.2 mph NW13.2 kmh NW 12.5 mph20.1 kmh 30.12 in1020.0 mb 0.00 in0.0 mm 0.00 in0.0 mm 0.00 in0.0 mm
01:46 AM 32.7°F0.4°C 6.7°F-14.1°C 33% 8.3 mph NW13.4 kmh NW 12.5 mph20.1 kmh 30.12 in1020.0 mb 0.00 in0.0 mm 0.00 in0.0 mm 0.00 in0.0 mm
01:47 AM 32.9°F0.5°C 6.9°F-13.9°C 33% 9.2 mph NW14.8 kmh NW 15.9 mph25.6 kmh 30.12 in1020.0 mb 0.00 in0.0 mm 0.00 in0.0 mm 0.00 in0.0 mm
01:48 AM 32.9°F0.5°C 6.9°F-13.9°C 33% 9.1 mph NW14.6 kmh NW 15.9 mph25.6 kmh 30.12 in1020.0 mb 0.00 in0.0 mm 0.00 in0.0 mm 0.00 in0.0 mm
01:49 AM 32.7°F0.4°C 6.7°F-14.1°C 33% 9.5 mph NW15.3 kmh NW 15.9 mph25.6 kmh 30.12 in1020.0 mb 0.00 in0.0 mm 0.00 in0.0 mm 0.00 in0.0 mm
01:50 AM 32.7°F0.4°C 6.7°F-14.1°C 33% 9.5 mph NW15.3 kmh NW 15.9 mph25.6 kmh 30.12 in1020.0 mb 0.00 in0.0 mm 0.00 in0.0 mm 0.00 in0.0 mm
01:51 AM 32.9°F0.5°C 6.2°F-14.3°C 32% 9.3 mph NW15.0 kmh NW 15.9 mph25.6 kmh 30.12 in1020.0 mb 0.00 in0.0 mm 0.00 in0.0 mm 0.00 in0.0 mm
01:52 AM 32.9°F0.5°C 6.2°F-14.3°C 32% 10.3 mph NW16.6 kmh NW 15.9 mph25.6 kmh 30.12 in1020.0 mb 0.00 in0.0 mm 0.00 in0.0 mm 0.00 in0.0 mm
01:53 AM 32.9°F0.5°C 6.2°F-14.3°C 32% 10.7 mph NW17.2 kmh NW 15.9 mph25.6 kmh 30.12 in1020.0 mb 0.00 in0.0 mm 0.00 in0.0 mm 0.00 in0.0 mm
01:54 AM 32.9°F0.5°C 6.2°F-14.3°C 32% 11.4 mph NW18.3 kmh NW 17.4 mph28.0 kmh 30.12 in1020.0 mb 0.00 in0.0 mm 0.00 in0.0 mm 0.00 in0.0 mm
01:55 AM 32.9°F0.5°C 6.2°F-14.3°C 32% 11.4 mph NW18.3 kmh NW 17.4 mph28.0 kmh 30.12 in1020.0 mb 0.00 in0.0 mm 0.00 in0.0 mm 0.00 in0.0 mm
01:56 AM 32.7°F0.4°C 6.7°F-14.1°C 33% 11.2 mph NW18.0 kmh NW 17.4 mph28.0 kmh 30.12 in1020.0 mb 0.00 in0.0 mm 0.00 in0.0 mm 0.00 in0.0 mm
01:57 AM 32.7°F0.4°C 6.7°F-14.1°C 33% 10.3 mph NW16.6 kmh NW 17.4 mph28.0 kmh 30.12 in1020.0 mb 0.00 in0.0 mm 0.00 in0.0 mm 0.00 in0.0 mm
01:58 AM 32.5°F0.3°C 6.6°F-14.1°C 33% 10.3 mph NW16.6 kmh NW 17.4 mph28.0 kmh 30.12 in1020.0 mb 0.00 in0.0 mm 0.00 in0.0 mm 0.00 in0.0 mm
01:59 AM 32.5°F0.3°C 6.6°F-14.1°C 33% 9.9 mph NW15.9 kmh NW 17.4 mph28.0 kmh 30.15 in1021.0 mb 0.00 in0.0 mm 0.00 in0.0 mm 0.00 in0.0 mm
02:00 AM 32.5°F0.3°C 6.6°F-14.1°C 33% 9.5 mph NW15.3 kmh NW 17.4 mph28.0 kmh 30.15 in1021.0 mb 0.00 in0.0 mm 0.00 in0.0 mm 0.00 in0.0 mm
02:01 AM 32.5°F0.3°C 6.6°F-14.1°C 33% 9.4 mph NW15.1 kmh NW 17.4 mph28.0 kmh 30.15 in1021.0 mb 0.00 in0.0 mm 0.00 in0.0 mm 0.00 in0.0 mm
02:02 AM 32.5°F0.3°C 6.6°F-14.1°C 33% 9.1 mph NW14.6 kmh NW 17.4 mph28.0 kmh 30.15 in1021.0 mb 0.00 in0.0 mm 0.00 in0.0 mm 0.00 in0.0 mm
02:03 AM 32.5°F0.3°C 6.6°F-14.1°C 33% 8.6 mph NW13.8 kmh NW 17.4 mph28.0 kmh 30.15 in1021.0 mb 0.00 in0.0 mm 0.00 in0.0 mm 0.00 in0.0 mm
02:04 AM 32.5°F0.3°C 6.6°F-14.1°C 33% 8.1 mph NW13.0 kmh NW 17.4 mph28.0 kmh 30.15 in1021.0 mb 0.00 in0.0 mm 0.00 in0.0 mm 0.00 in0.0 mm
02:05 AM 32.4°F0.2°C 6.4°F-14.2°C 33% 7.4 mph NW11.9 kmh NW 12.5 mph20.1 kmh 30.15 in1021.0 mb 0.00 in0.0 mm 0.00 in0.0 mm 0.00 in0.0 mm
02:06 AM 32.4°F0.2°C 6.4°F-14.2°C 33% 8.2 mph NW13.2 kmh NW 12.8 mph20.6 kmh 30.15 in1021.0 mb 0.00 in0.0 mm 0.00 in0.0 mm 0.00 in0.0 mm
02:07 AM 32.5°F0.3°C 6.6°F-14.1°C 33% 8.2 mph NW13.2 kmh NW 12.8 mph20.6 kmh 30.15 in1021.0 mb 0.00 in0.0 mm 0.00 in0.0 mm 0.00 in0.0 mm
02:08 AM 32.5°F0.3°C 6.6°F-14.1°C 33% 8.5 mph NW13.7 kmh NW 17.7 mph28.5 kmh 30.15 in1021.0 mb 0.00 in0.0 mm 0.00 in0.0 mm 0.00 in0.0 mm
02:09 AM 32.5°F0.3°C 6.6°F-14.1°C 33% 9.1 mph NW14.6 kmh NW 19.2 mph30.9 kmh 30.15 in1021.0 mb 0.00 in0.0 mm 0.00 in0.0 mm 0.00 in0.0 mm
02:10 AM 32.5°F0.3°C 6.6°F-14.1°C 33% 9.8 mph WNW15.8 kmh WNW 19.2 mph30.9 kmh 30.15 in1021.0 mb 0.00 in0.0 mm 0.00 in0.0 mm 0.00 in0.0 mm
02:11 AM 32.5°F0.3°C 6.6°F-14.1°C 33% 9.9 mph WNW15.9 kmh WNW 19.2 mph30.9 kmh 30.15 in1021.0 mb 0.00 in0.0 mm 0.00 in0.0 mm 0.00 in0.0 mm
02:12 AM 32.5°F0.3°C 6.6°F-14.1°C 33% 10.6 mph WNW17.1 kmh WNW 19.2 mph30.9 kmh 30.15 in1021.0 mb 0.00 in0.0 mm 0.00 in0.0 mm 0.00 in0.0 mm
02:13 AM 32.5°F0.3°C 6.6°F-14.1°C 33% 10.8 mph WNW17.4 kmh WNW 19.2 mph30.9 kmh 30.15 in1021.0 mb 0.00 in0.0 mm 0.00 in0.0 mm 0.00 in0.0 mm
02:14 AM 32.5°F0.3°C 5.9°F-14.5°C 32% 10.9 mph WNW17.5 kmh WNW 19.2 mph30.9 kmh 30.15 in1021.0 mb 0.00 in0.0 mm 0.00 in0.0 mm 0.00 in0.0 mm
02:15 AM 32.5°F0.3°C 5.9°F-14.5°C 32% 11.2 mph WNW18.0 kmh WNW 19.2 mph30.9 kmh 30.15 in1021.0 mb 0.00 in0.0 mm 0.00 in0.0 mm 0.00 in0.0 mm
02:16 AM 32.5°F0.3°C 5.9°F-14.5°C 32% 11.2 mph WNW18.0 kmh WNW 19.2 mph30.9 kmh 30.15 in1021.0 mb 0.00 in0.0 mm 0.00 in0.0 mm 0.00 in0.0 mm
02:17 AM 32.5°F0.3°C 5.2°F-14.9°C 31% 12.1 mph WNW19.5 kmh WNW 19.2 mph30.9 kmh 30.15 in1021.0 mb 0.00 in0.0 mm 0.00 in0.0 mm 0.00 in0.0 mm
02:18 AM 32.5°F0.3°C 5.2°F-14.9°C 31% 12.6 mph WNW20.3 kmh WNW 19.2 mph30.9 kmh 30.15 in1021.0 mb 0.00 in0.0 mm 0.00 in0.0 mm 0.00 in0.0 mm
02:19 AM 32.5°F0.3°C 5.2°F-14.9°C 31% 12.7 mph WNW20.4 kmh WNW 19.2 mph30.9 kmh 30.15 in1021.0 mb 0.00 in0.0 mm 0.00 in0.0 mm 0.00 in0.0 mm
02:20 AM 32.5°F0.3°C 5.2°F-14.9°C 31% 12.1 mph NW19.5 kmh NW 15.4 mph24.8 kmh 30.15 in1021.0 mb 0.00 in0.0 mm 0.00 in0.0 mm 0.00 in0.0 mm
02:21 AM 32.4°F0.2°C 5.0°F-15.0°C 31% 12.0 mph NW19.3 kmh NW 15.4 mph24.8 kmh 30.15 in1021.0 mb 0.00 in0.0 mm 0.00 in0.0 mm 0.00 in0.0 mm
02:22 AM 32.2°F0.1°C 5.6°F-14.7°C 32% 10.8 mph NW17.4 kmh NW 15.4 mph24.8 kmh 30.15 in1021.0 mb 0.00 in0.0 mm 0.00 in0.0 mm 0.00 in0.0 mm
02:23 AM 32.2°F0.1°C 5.6°F-14.7°C 32% 10.9 mph NW17.5 kmh NW 15.4 mph24.8 kmh 30.15 in1021.0 mb 0.00 in0.0 mm 0.00 in0.0 mm 0.00 in0.0 mm
02:24 AM 32.2°F0.1°C 5.6°F-14.7°C 32% 11.2 mph NW18.0 kmh NW 15.4 mph24.8 kmh 30.15 in1021.0 mb 0.00 in0.0 mm 0.00 in0.0 mm 0.00 in0.0 mm
02:25 AM 32.2°F0.1°C 5.6°F-14.7°C 32% 10.8 mph NW17.4 kmh NW 15.4 mph24.8 kmh 30.15 in1021.0 mb 0.00 in0.0 mm 0.00 in0.0 mm 0.00 in0.0 mm
02:26 AM 32.0°F0.0°C 5.4°F-14.8°C 32% 9.8 mph WNW15.8 kmh WNW 15.4 mph24.8 kmh 30.15 in1021.0 mb 0.00 in0.0 mm 0.00 in0.0 mm 0.00 in0.0 mm
02:27 AM 32.0°F0.0°C 5.4°F-14.8°C 32% 9.8 mph WNW15.8 kmh WNW 15.4 mph24.8 kmh 30.15 in1021.0 mb 0.00 in0.0 mm 0.00 in0.0 mm 0.00 in0.0 mm
02:28 AM 32.0°F0.0°C 5.4°F-14.8°C 32% 8.0 mph WNW12.9 kmh WNW 12.5 mph20.1 kmh 30.15 in1021.0 mb 0.00 in0.0 mm 0.00 in0.0 mm 0.00 in0.0 mm
02:29 AM 32.0°F0.0°C 5.4°F-14.8°C 32% 7.6 mph WNW12.2 kmh WNW 12.5 mph20.1 kmh 30.15 in1021.0 mb 0.00 in0.0 mm 0.00 in0.0 mm 0.00 in0.0 mm
02:30 AM 32.2°F0.1°C 5.6°F-14.7°C 32% 6.9 mph WNW11.1 kmh WNW 11.0 mph17.7 kmh 30.15 in1021.0 mb 0.00 in0.0 mm 0.00 in0.0 mm 0.00 in0.0 mm
02:31 AM 32.0°F0.0°C 5.4°F-14.8°C 32% 7.2 mph WNW11.6 kmh WNW 12.8 mph20.6 kmh 30.15 in1021.0 mb 0.00 in0.0 mm 0.00 in0.0 mm 0.00 in0.0 mm
02:32 AM 32.0°F0.0°C 5.4°F-14.8°C 32% 7.2 mph WNW11.6 kmh WNW 12.8 mph20.6 kmh 30.15 in1021.0 mb 0.00 in0.0 mm 0.00 in0.0 mm 0.00 in0.0 mm
02:33 AM 32.0°F0.0°C 5.4°F-14.8°C 32% 7.1 mph WNW11.4 kmh WNW 12.8 mph20.6 kmh 30.15 in1021.0 mb 0.00 in0.0 mm 0.00 in0.0 mm 0.00 in0.0 mm
02:34 AM 32.0°F0.0°C 5.4°F-14.8°C 32% 7.1 mph WNW11.4 kmh WNW 12.8 mph20.6 kmh 30.15 in1021.0 mb 0.00 in0.0 mm 0.00 in0.0 mm 0.00 in0.0 mm
02:35 AM 31.8°F-0.1°C 5.3°F-14.8°C 32% 7.5 mph NW12.1 kmh NW 12.8 mph20.6 kmh 30.15 in1021.0 mb 0.00 in0.0 mm 0.00 in0.0 mm 0.00 in0.0 mm
02:36 AM 31.8°F-0.1°C 5.3°F-14.8°C 32% 7.9 mph NW12.7 kmh NW 12.8 mph20.6 kmh 30.15 in1021.0 mb 0.00 in0.0 mm 0.00 in0.0 mm 0.00 in0.0 mm
02:37 AM 32.0°F0.0°C 4.7°F-15.2°C 31% 8.8 mph NW14.2 kmh NW 15.7 mph25.3 kmh 30.15 in1021.0 mb 0.00 in0.0 mm 0.00 in0.0 mm 0.00 in0.0 mm
02:38 AM 31.8°F-0.1°C 5.3°F-14.8°C 32% 8.7 mph NW14.0 kmh NW 15.7 mph25.3 kmh 30.15 in1021.0 mb 0.00 in0.0 mm 0.00 in0.0 mm 0.00 in0.0 mm
02:39 AM 31.8°F-0.1°C 5.3°F-14.8°C 32% 8.8 mph NW14.2 kmh NW 15.7 mph25.3 kmh 30.15 in1021.0 mb 0.00 in0.0 mm 0.00 in0.0 mm 0.00 in0.0 mm
02:40 AM 31.8°F-0.1°C 5.3°F-14.8°C 32% 8.7 mph NW14.0 kmh NW 15.7 mph25.3 kmh 30.15 in1021.0 mb 0.00 in0.0 mm 0.00 in0.0 mm 0.00 in0.0 mm
02:41 AM 31.8°F-0.1°C 5.3°F-14.8°C 32% 8.6 mph NW13.8 kmh NW 15.7 mph25.3 kmh 30.15 in1021.0 mb 0.00 in0.0 mm 0.00 in0.0 mm 0.00 in0.0 mm
02:42 AM 32.0°F0.0°C 5.4°F-14.8°C 32% 8.6 mph NW13.8 kmh NW 15.7 mph25.3 kmh 30.15 in1021.0 mb 0.00 in0.0 mm 0.00 in0.0 mm 0.00 in0.0 mm
02:43 AM 32.0°F0.0°C 5.4°F-14.8°C 32% 9.4 mph NW15.1 kmh NW 15.7 mph25.3 kmh 30.15 in1021.0 mb 0.00 in0.0 mm 0.00 in0.0 mm 0.00 in0.0 mm
02:44 AM 31.6°F-0.2°C 5.1°F-14.9°C 32% 9.8 mph WNW15.8 kmh WNW 15.7 mph25.3 kmh 30.15 in1021.0 mb 0.00 in0.0 mm 0.00 in0.0 mm 0.00 in0.0 mm
02:45 AM 31.8°F-0.1°C 4.6°F-15.2°C 31% 9.6 mph WNW15.4 kmh WNW 15.7 mph25.3 kmh 30.15 in1021.0 mb 0.00 in0.0 mm 0.00 in0.0 mm 0.00 in0.0 mm
02:46 AM 31.8°F-0.1°C 4.6°F-15.2°C 31% 9.7 mph WNW15.6 kmh WNW 15.7 mph25.3 kmh 30.15 in1021.0 mb 0.00 in0.0 mm 0.00 in0.0 mm 0.00 in0.0 mm
02:47 AM 31.6°F-0.2°C 4.4°F-15.3°C 31% 8.3 mph WNW13.4 kmh WNW 14.5 mph23.3 kmh 30.15 in1021.0 mb 0.00 in0.0 mm 0.00 in0.0 mm 0.00 in0.0 mm
02:48 AM 31.6°F-0.2°C 4.4°F-15.3°C 31% 8.4 mph WNW13.5 kmh WNW 14.5 mph23.3 kmh 30.15 in1021.0 mb 0.00 in0.0 mm 0.00 in0.0 mm 0.00 in0.0 mm
02:49 AM 31.6°F-0.2°C 5.1°F-14.9°C 32% 8.8 mph WNW14.2 kmh WNW 14.5 mph23.3 kmh 30.15 in1021.0 mb 0.00 in0.0 mm 0.00 in0.0 mm 0.00 in0.0 mm
02:50 AM 31.6°F-0.2°C 5.1°F-14.9°C 32% 8.8 mph WNW14.2 kmh WNW 14.5 mph23.3 kmh 30.15 in1021.0 mb 0.00 in0.0 mm 0.00 in0.0 mm 0.00 in0.0 mm
02:51 AM 31.6°F-0.2°C 5.1°F-14.9°C 32% 8.9 mph WNW14.3 kmh WNW 14.5 mph23.3 kmh 30.15 in1021.0 mb 0.00 in0.0 mm 0.00 in0.0 mm 0.00 in0.0 mm
02:52 AM 31.6°F-0.2°C 5.1°F-14.9°C 32% 8.5 mph WNW13.7 kmh WNW 14.5 mph23.3 kmh 30.15 in1021.0 mb 0.00 in0.0 mm 0.00 in0.0 mm 0.00 in0.0 mm
02:53 AM 31.6°F-0.2°C 5.1°F-14.9°C 32% 8.4 mph WNW13.5 kmh WNW 14.5 mph23.3 kmh 30.15 in1021.0 mb 0.00 in0.0 mm 0.00 in0.0 mm 0.00 in0.0 mm
02:54 AM 31.6°F-0.2°C 5.1°F-14.9°C 32% 8.1 mph NW13.0 kmh NW 12.3 mph19.8 kmh 30.15 in1021.0 mb 0.00 in0.0 mm 0.00 in0.0 mm 0.00 in0.0 mm
02:55 AM 31.6°F-0.2°C 5.1°F-14.9°C 32% 8.5 mph NW13.7 kmh NW 12.3 mph19.8 kmh 30.15 in1021.0 mb 0.00 in0.0 mm 0.00 in0.0 mm 0.00 in0.0 mm
02:56 AM 31.6°F-0.2°C 5.1°F-14.9°C 32% 8.4 mph NW13.5 kmh NW 12.3 mph19.8 kmh 30.15 in1021.0 mb 0.00 in0.0 mm 0.00 in0.0 mm 0.00 in0.0 mm
02:57 AM 31.5°F-0.3°C 4.9°F-15.1°C 32% 8.8 mph NW14.2 kmh NW 12.3 mph19.8 kmh 30.15 in1021.0 mb 0.00 in0.0 mm 0.00 in0.0 mm 0.00 in0.0 mm
02:58 AM 31.5°F-0.3°C 4.9°F-15.1°C 32% 9.2 mph NW14.8 kmh NW 12.3 mph19.8 kmh 30.15 in1021.0 mb 0.00 in0.0 mm 0.00 in0.0 mm 0.00 in0.0 mm
02:59 AM 31.5°F-0.3°C 4.9°F-15.1°C 32% 8.9 mph WNW14.3 kmh WNW 12.3 mph19.8 kmh 30.15 in1021.0 mb 0.00 in0.0 mm 0.00 in0.0 mm 0.00 in0.0 mm
03:00 AM 31.5°F-0.3°C 4.9°F-15.1°C 32% 9.0 mph WNW14.5 kmh WNW 12.3 mph19.8 kmh 30.15 in1021.0 mb 0.00 in0.0 mm 0.00 in0.0 mm 0.00 in0.0 mm
03:01 AM 31.5°F-0.3°C 4.9°F-15.1°C 32% 9.4 mph WNW15.1 kmh WNW 12.3 mph19.8 kmh 30.15 in1021.0 mb 0.00 in0.0 mm 0.00 in0.0 mm 0.00 in0.0 mm
03:02 AM 31.3°F-0.4°C 4.8°F-15.1°C 32% 9.1 mph WNW14.6 kmh WNW 12.3 mph19.8 kmh 30.15 in1021.0 mb 0.00 in0.0 mm 0.00 in0.0 mm 0.00 in0.0 mm
03:03 AM 31.3°F-0.4°C 4.8°F-15.1°C 32% 9.2 mph WNW14.8 kmh WNW 12.3 mph19.8 kmh 30.15 in1021.0 mb 0.00 in0.0 mm 0.00 in0.0 mm 0.00 in0.0 mm
03:04 AM 31.3°F-0.4°C 4.8°F-15.1°C 32% 9.2 mph WNW14.8 kmh WNW 12.3 mph19.8 kmh 30.15 in1021.0 mb 0.00 in0.0 mm 0.00 in0.0 mm 0.00 in0.0 mm
03:05 AM 31.3°F-0.4°C 4.8°F-15.1°C 32% 9.2 mph WNW14.8 kmh WNW 12.8 mph20.6 kmh 30.15 in1021.0 mb 0.00 in0.0 mm 0.00 in0.0 mm 0.00 in0.0 mm
03:06 AM 31.5°F-0.3°C 4.9°F-15.1°C 32% 9.0 mph WNW14.5 kmh WNW 12.8 mph20.6 kmh 30.15 in1021.0 mb 0.00 in0.0 mm 0.00 in0.0 mm 0.00 in0.0 mm
03:07 AM 31.5°F-0.3°C 4.9°F-15.1°C 32% 8.8 mph WNW14.2 kmh WNW 12.8 mph20.6 kmh 30.15 in1021.0 mb 0.00 in0.0 mm 0.00 in0.0 mm 0.00 in0.0 mm
03:08 AM 31.3°F-0.4°C 4.8°F-15.1°C 32% 8.5 mph NW13.7 kmh NW 12.8 mph20.6 kmh 30.15 in1021.0 mb 0.00 in0.0 mm 0.00 in0.0 mm 0.00 in0.0 mm
03:09 AM 31.3°F-0.4°C 4.8°F-15.1°C 32% 8.9 mph NW14.3 kmh NW 12.8 mph20.6 kmh 30.15 in1021.0 mb 0.00 in0.0 mm 0.00 in0.0 mm 0.00 in0.0 mm
03:10 AM 31.3°F-0.4°C 4.8°F-15.1°C 32% 8.4 mph NW13.5 kmh NW 12.8 mph20.6 kmh 30.15 in1021.0 mb 0.00 in0.0 mm 0.00 in0.0 mm 0.00 in0.0 mm
03:11 AM 31.1°F-0.5°C 4.6°F-15.2°C 32% 7.7 mph NW12.4 kmh NW 12.8 mph20.6 kmh 30.15 in1021.0 mb 0.00 in0.0 mm 0.00 in0.0 mm 0.00 in0.0 mm
03:12 AM 31.1°F-0.5°C 4.6°F-15.2°C 32% 7.8 mph NW12.6 kmh NW 12.8 mph20.6 kmh 30.15 in1021.0 mb 0.00 in0.0 mm 0.00 in0.0 mm 0.00 in0.0 mm
03:13 AM 31.1°F-0.5°C 4.6°F-15.2°C 32% 7.8 mph NW12.6 kmh NW 12.8 mph20.6 kmh 30.15 in1021.0 mb 0.00 in0.0 mm 0.00 in0.0 mm 0.00 in0.0 mm
03:14 AM 31.1°F-0.5°C 4.6°F-15.2°C 32% 7.6 mph NW12.2 kmh NW 12.8 mph20.6 kmh 30.15 in1021.0 mb 0.00 in0.0 mm 0.00 in0.0 mm 0.00 in0.0 mm
03:15 AM 31.1°F-0.5°C 4.6°F-15.2°C 32% 7.2 mph NW11.6 kmh NW 12.8 mph20.6 kmh 30.15 in1021.0 mb 0.00 in0.0 mm 0.00 in0.0 mm 0.00 in0.0 mm
03:16 AM 31.1°F-0.5°C 4.6°F-15.2°C 32% 6.1 mph NW9.8 kmh NW 10.5 mph16.9 kmh 30.15 in1021.0 mb 0.00 in0.0 mm 0.00 in0.0 mm 0.00 in0.0 mm
03:17 AM 31.1°F-0.5°C 4.6°F-15.2°C 32% 6.3 mph NW10.1 kmh NW 10.5 mph16.9 kmh 30.15 in1021.0 mb 0.00 in0.0 mm 0.00 in0.0 mm 0.00 in0.0 mm
03:18 AM 31.1°F-0.5°C 4.6°F-15.2°C 32% 6.9 mph NW11.1 kmh NW 10.5 mph16.9 kmh 30.15 in1021.0 mb 0.00 in0.0 mm 0.00 in0.0 mm 0.00 in0.0 mm
03:19 AM 31.1°F-0.5°C 4.6°F-15.2°C 32% 6.7 mph NW10.8 kmh NW 10.5 mph16.9 kmh 30.15 in1021.0 mb 0.00 in0.0 mm 0.00 in0.0 mm 0.00 in0.0 mm
03:20 AM 30.9°F-0.6°C 4.5°F-15.3°C 32% 6.2 mph NW10.0 kmh NW 10.3 mph16.6 kmh 30.15 in1021.0 mb 0.00 in0.0 mm 0.00 in0.0 mm 0.00 in0.0 mm
03:21 AM 30.9°F-0.6°C 4.5°F-15.3°C 32% 6.4 mph NW10.3 kmh NW 10.3 mph16.6 kmh 30.15 in1021.0 mb 0.00 in0.0 mm 0.00 in0.0 mm 0.00 in0.0 mm
03:22 AM 30.7°F-0.7°C 5.0°F-15.0°C 33% 6.3 mph NW10.1 kmh NW 10.3 mph16.6 kmh 30.15 in1021.0 mb 0.00 in0.0 mm 0.00 in0.0 mm 0.00 in0.0 mm
03:23 AM 30.7°F-0.7°C 5.0°F-15.0°C 33% 6.3 mph NW10.1 kmh NW 10.3 mph16.6 kmh 30.15 in1021.0 mb 0.00 in0.0 mm 0.00 in0.0 mm 0.00 in0.0 mm
03:24 AM 30.7°F-0.7°C 5.0°F-15.0°C 33% 6.3 mph NW10.1 kmh NW 10.3 mph16.6 kmh 30.15 in1021.0 mb 0.00 in0.0 mm 0.00 in0.0 mm 0.00 in0.0 mm
03:25 AM 30.9°F-0.6°C 5.1°F-14.9°C 33% 6.4 mph NW10.3 kmh NW 10.3 mph16.6 kmh 30.15 in1021.0 mb 0.00 in0.0 mm 0.00 in0.0 mm 0.00 in0.0 mm
03:26 AM 30.9°F-0.6°C 5.1°F-14.9°C 33% 6.4 mph NW10.3 kmh NW 10.3 mph16.6 kmh 30.15 in1021.0 mb 0.00 in0.0 mm 0.00 in0.0 mm 0.00 in0.0 mm
03:27 AM 30.9°F-0.6°C 5.1°F-14.9°C 33% 6.6 mph NW10.6 kmh NW 10.3 mph16.6 kmh 30.15 in1021.0 mb 0.00 in0.0 mm 0.00 in0.0 mm 0.00 in0.0 mm
03:28 AM 30.9°F-0.6°C 5.1°F-14.9°C 33% 6.1 mph NW9.8 kmh NW 8.7 mph14.0 kmh 30.15 in1021.0 mb 0.00 in0.0 mm 0.00 in0.0 mm 0.00 in0.0 mm
03:29 AM 30.7°F-0.7°C 5.0°F-15.0°C 33% 6.2 mph NW10.0 kmh NW 8.7 mph14.0 kmh 30.18 in1022.0 mb 0.00 in0.0 mm 0.00 in0.0 mm 0.00 in0.0 mm
03:30 AM 30.7°F-0.7°C 5.0°F-15.0°C 33% 6.7 mph NW10.8 kmh NW 13.2 mph21.2 kmh 30.18 in1022.0 mb 0.00 in0.0 mm 0.00 in0.0 mm 0.00 in0.0 mm
03:31 AM 30.7°F-0.7°C 5.0°F-15.0°C 33% 7.2 mph NW11.6 kmh NW 13.2 mph21.2 kmh 30.18 in1022.0 mb 0.00 in0.0 mm 0.00 in0.0 mm 0.00 in0.0 mm
03:32 AM 30.6°F-0.8°C 4.8°F-15.1°C 33% 7.5 mph NW12.1 kmh NW 13.2 mph21.2 kmh 30.18 in1022.0 mb 0.00 in0.0 mm 0.00 in0.0 mm 0.00 in0.0 mm
03:33 AM 30.6°F-0.8°C 4.8°F-15.1°C 33% 7.4 mph NW11.9 kmh NW 13.2 mph21.2 kmh 30.18 in1022.0 mb 0.00 in0.0 mm 0.00 in0.0 mm 0.00 in0.0 mm
03:34 AM 30.6°F-0.8°C 4.8°F-15.1°C 33% 6.8 mph NW10.9 kmh NW 13.2 mph21.2 kmh 30.18 in1022.0 mb 0.00 in0.0 mm 0.00 in0.0 mm 0.00 in0.0 mm
03:35 AM 30.6°F-0.8°C 4.8°F-15.1°C 33% 7.3 mph WNW11.7 kmh WNW 15.4 mph24.8 kmh 30.18 in1022.0 mb 0.00 in0.0 mm 0.00 in0.0 mm 0.00 in0.0 mm
03:36 AM 30.7°F-0.7°C 5.0°F-15.0°C 33% 7.9 mph WNW12.7 kmh WNW 15.4 mph24.8 kmh 30.18 in1022.0 mb 0.00 in0.0 mm 0.00 in0.0 mm 0.00 in0.0 mm
03:37 AM 30.7°F-0.7°C 5.0°F-15.0°C 33% 8.0 mph WNW12.9 kmh WNW 15.4 mph24.8 kmh 30.18 in1022.0 mb 0.00 in0.0 mm 0.00 in0.0 mm 0.00 in0.0 mm
03:38 AM 30.6°F-0.8°C 4.8°F-15.1°C 33% 7.8 mph WNW12.6 kmh WNW 15.4 mph24.8 kmh 30.18 in1022.0 mb 0.00 in0.0 mm 0.00 in0.0 mm 0.00 in0.0 mm
03:39 AM 30.4°F-0.9°C 4.7°F-15.2°C 33% 7.9 mph WNW12.7 kmh WNW 15.4 mph24.8 kmh 30.18 in1022.0 mb 0.00 in0.0 mm 0.00 in0.0 mm 0.00 in0.0 mm
03:40 AM 30.4°F-0.9°C 4.7°F-15.2°C 33% 7.9 mph WNW12.7 kmh WNW 15.4 mph24.8 kmh 30.18 in1022.0 mb 0.00 in0.0 mm 0.00 in0.0 mm 0.00 in0.0 mm
03:41 AM 30.6°F-0.8°C 4.8°F-15.1°C 33% 7.3 mph WNW11.7 kmh WNW 15.4 mph24.8 kmh 30.18 in1022.0 mb 0.00 in0.0 mm 0.00 in0.0 mm 0.00 in0.0 mm
03:42 AM 30.6°F-0.8°C 4.8°F-15.1°C 33% 7.4 mph WNW11.9 kmh WNW 15.4 mph24.8 kmh 30.18 in1022.0 mb 0.00 in0.0 mm 0.00 in0.0 mm 0.00 in0.0 mm
03:43 AM 30.6°F-0.8°C 4.8°F-15.1°C 33% 7.7 mph WNW12.4 kmh WNW 15.4 mph24.8 kmh 30.18 in1022.0 mb 0.00 in0.0 mm 0.00 in0.0 mm 0.00 in0.0 mm
03:44 AM 30.6°F-0.8°C 4.8°F-15.1°C 33% 8.0 mph NW12.9 kmh NW 15.4 mph24.8 kmh 30.18 in1022.0 mb 0.00 in0.0 mm 0.00 in0.0 mm 0.00 in0.0 mm
03:45 AM 30.6°F-0.8°C 4.1°F-15.5°C 32% 7.7 mph NW12.4 kmh NW 15.4 mph24.8 kmh 30.18 in1022.0 mb 0.00 in0.0 mm 0.00 in0.0 mm 0.00 in0.0 mm
03:46 AM 30.6°F-0.8°C 4.1°F-15.5°C 32% 7.4 mph NW11.9 kmh NW 14.5 mph23.3 kmh 30.18 in1022.0 mb 0.00 in0.0 mm 0.00 in0.0 mm 0.00 in0.0 mm
03:47 AM 30.6°F-0.8°C 4.1°F-15.5°C 32% 7.6 mph NW12.2 kmh NW 14.5 mph23.3 kmh 30.18 in1022.0 mb 0.00 in0.0 mm 0.00 in0.0 mm 0.00 in0.0 mm
03:48 AM 30.7°F-0.7°C 4.3°F-15.4°C 32% 8.4 mph NW13.5 kmh NW 14.5 mph23.3 kmh 30.18 in1022.0 mb 0.00 in0.0 mm 0.00 in0.0 mm 0.00 in0.0 mm
03:49 AM 30.7°F-0.7°C 4.3°F-15.4°C 32% 8.6 mph NW13.8 kmh NW 14.5 mph23.3 kmh 30.18 in1022.0 mb 0.00 in0.0 mm 0.00 in0.0 mm 0.00 in0.0 mm
03:50 AM 30.6°F-0.8°C 4.8°F-15.1°C 33% 9.3 mph NW15.0 kmh NW 14.5 mph23.3 kmh 30.18 in1022.0 mb 0.00 in0.0 mm 0.00 in0.0 mm 0.00 in0.0 mm
03:51 AM 30.6°F-0.8°C 4.8°F-15.1°C 33% 9.4 mph NW15.1 kmh NW 14.5 mph23.3 kmh 30.18 in1022.0 mb 0.00 in0.0 mm 0.00 in0.0 mm 0.00 in0.0 mm
03:52 AM 30.4°F-0.9°C 4.7°F-15.2°C 33% 9.5 mph NW15.3 kmh NW 14.5 mph23.3 kmh 30.18 in1022.0 mb 0.00 in0.0 mm 0.00 in0.0 mm 0.00 in0.0 mm
03:53 AM 30.6°F-0.8°C 4.1°F-15.5°C 32% 9.9 mph NW15.9 kmh NW 14.5 mph23.3 kmh 30.18 in1022.0 mb 0.00 in0.0 mm 0.00 in0.0 mm 0.00 in0.0 mm
03:54 AM 30.6°F-0.8°C 4.1°F-15.5°C 32% 9.9 mph NW15.9 kmh NW 14.5 mph23.3 kmh 30.18 in1022.0 mb 0.00 in0.0 mm 0.00 in0.0 mm 0.00 in0.0 mm
03:55 AM 30.6°F-0.8°C 4.1°F-15.5°C 32% 10.3 mph NW16.6 kmh NW 13.2 mph21.2 kmh 30.18 in1022.0 mb 0.00 in0.0 mm 0.00 in0.0 mm 0.00 in0.0 mm
03:56 AM 30.6°F-0.8°C 4.1°F-15.5°C 32% 10.4 mph NW16.7 kmh NW 13.2 mph21.2 kmh 30.18 in1022.0 mb 0.00 in0.0 mm 0.00 in0.0 mm 0.00 in0.0 mm
03:57 AM 30.4°F-0.9°C 4.0°F-15.6°C 32% 10.6 mph NW17.1 kmh NW 13.2 mph21.2 kmh 30.18 in1022.0 mb 0.00 in0.0 mm 0.00 in0.0 mm 0.00 in0.0 mm
03:58 AM 30.4°F-0.9°C 4.0°F-15.6°C 32% 10.1 mph NW16.3 kmh NW 13.2 mph21.2 kmh 30.18 in1022.0 mb 0.00 in0.0 mm 0.00 in0.0 mm 0.00 in0.0 mm
03:59 AM 30.4°F-0.9°C 4.7°F-15.2°C 33% 9.9 mph NW15.9 kmh NW 13.2 mph21.2 kmh 30.18 in1022.0 mb 0.00 in0.0 mm 0.00 in0.0 mm 0.00 in0.0 mm
04:00 AM 30.4°F-0.9°C 4.7°F-15.2°C 33% 9.2 mph NW14.8 kmh NW 13.2 mph21.2 kmh 30.18 in1022.0 mb 0.00 in0.0 mm 0.00 in0.0 mm 0.00 in0.0 mm
04:01 AM 30.2°F-1.0°C 4.5°F-15.3°C 33% 8.7 mph NW14.0 kmh NW 13.2 mph21.2 kmh 30.18 in1022.0 mb 0.00 in0.0 mm 0.00 in0.0 mm 0.00 in0.0 mm
04:02 AM 30.2°F-1.0°C 4.5°F-15.3°C 33% 9.0 mph NW14.5 kmh NW 13.2 mph21.2 kmh 30.18 in1022.0 mb 0.00 in0.0 mm 0.00 in0.0 mm 0.00 in0.0 mm
04:03 AM 30.2°F-1.0°C 4.5°F-15.3°C 33% 8.9 mph NW14.3 kmh NW 13.2 mph21.2 kmh 30.18 in1022.0 mb 0.00 in0.0 mm 0.00 in0.0 mm 0.00 in0.0 mm
04:04 AM 30.4°F-0.9°C 4.0°F-15.6°C 32% 9.4 mph NW15.1 kmh NW 14.5 mph23.3 kmh 30.18 in1022.0 mb 0.00 in0.0 mm 0.00 in0.0 mm 0.00 in0.0 mm
04:05 AM 30.4°F-0.9°C 4.0°F-15.6°C 32% 9.6 mph WNW15.4 kmh WNW 14.5 mph23.3 kmh 30.18 in1022.0 mb 0.00 in0.0 mm 0.00 in0.0 mm 0.00 in0.0 mm
04:06 AM 30.2°F-1.0°C 3.8°F-15.7°C 32% 9.5 mph WNW15.3 kmh WNW 14.5 mph23.3 kmh 30.18 in1022.0 mb 0.00 in0.0 mm 0.00 in0.0 mm 0.00 in0.0 mm
04:07 AM 30.2°F-1.0°C 3.8°F-15.7°C 32% 9.1 mph WNW14.6 kmh WNW 14.5 mph23.3 kmh 30.18 in1022.0 mb 0.00 in0.0 mm 0.00 in0.0 mm 0.00 in0.0 mm
04:08 AM 30.2°F-1.0°C 4.5°F-15.3°C 33% 9.2 mph WNW14.8 kmh WNW 14.5 mph23.3 kmh 30.18 in1022.0 mb 0.00 in0.0 mm 0.00 in0.0 mm 0.00 in0.0 mm
04:09 AM 30.2°F-1.0°C 3.8°F-15.7°C 32% 9.9 mph WNW15.9 kmh WNW 14.5 mph23.3 kmh 30.18 in1022.0 mb 0.00 in0.0 mm 0.00 in0.0 mm 0.00 in0.0 mm
04:10 AM 30.2°F-1.0°C 3.8°F-15.7°C 32% 10.1 mph WNW16.3 kmh WNW 14.5 mph23.3 kmh 30.18 in1022.0 mb 0.00 in0.0 mm 0.00 in0.0 mm 0.00 in0.0 mm
04:11 AM 30.2°F-1.0°C 3.8°F-15.7°C 32% 10.8 mph NW17.4 kmh NW 14.5 mph23.3 kmh 30.18 in1022.0 mb 0.00 in0.0 mm 0.00 in0.0 mm 0.00 in0.0 mm
04:12 AM 30.2°F-1.0°C 3.8°F-15.7°C 32% 11.0 mph NW17.7 kmh NW 14.5 mph23.3 kmh 30.18 in1022.0 mb 0.00 in0.0 mm 0.00 in0.0 mm 0.00 in0.0 mm
04:13 AM 30.2°F-1.0°C 3.8°F-15.7°C 32% 11.3 mph NW18.2 kmh NW 14.5 mph23.3 kmh 30.18 in1022.0 mb 0.00 in0.0 mm 0.00 in0.0 mm 0.00 in0.0 mm
04:14 AM 30.2°F-1.0°C 3.8°F-15.7°C 32% 10.9 mph NW17.5 kmh NW 14.3 mph23.0 kmh 30.18 in1022.0 mb 0.00 in0.0 mm 0.00 in0.0 mm 0.00 in0.0 mm
04:15 AM 30.2°F-1.0°C 3.8°F-15.7°C 32% 11.2 mph NW18.0 kmh NW 15.4 mph24.8 kmh 30.18 in1022.0 mb 0.00 in0.0 mm 0.00 in0.0 mm 0.00 in0.0 mm
04:16 AM 30.2°F-1.0°C 3.8°F-15.7°C 32% 12.2 mph NW19.6 kmh NW 18.8 mph30.3 kmh 30.18 in1022.0 mb 0.00 in0.0 mm 0.00 in0.0 mm 0.00 in0.0 mm
04:17 AM 30.2°F-1.0°C 3.8°F-15.7°C 32% 12.7 mph NW20.4 kmh NW 18.8 mph30.3 kmh 30.18 in1022.0 mb 0.00 in0.0 mm 0.00 in0.0 mm 0.00 in0.0 mm
04:18 AM 30.2°F-1.0°C 3.8°F-15.7°C 32% 12.4 mph NW20.0 kmh NW 18.8 mph30.3 kmh 30.18 in1022.0 mb 0.00 in0.0 mm 0.00 in0.0 mm 0.00 in0.0 mm
04:19 AM 30.2°F-1.0°C 3.8°F-15.7°C 32% 12.5 mph NW20.1 kmh NW 18.8 mph30.3 kmh 30.18 in1022.0 mb 0.00 in0.0 mm 0.00 in0.0 mm 0.00 in0.0 mm
04:20 AM 30.2°F-1.0°C 3.8°F-15.7°C 32% 12.3 mph NW19.8 kmh NW 18.8 mph30.3 kmh 30.18 in1022.0 mb 0.00 in0.0 mm 0.00 in0.0 mm 0.00 in0.0 mm
04:21 AM 30.2°F-1.0°C 3.8°F-15.7°C 32% 12.1 mph NW19.5 kmh NW 18.8 mph30.3 kmh 30.18 in1022.0 mb 0.00 in0.0 mm 0.00 in0.0 mm 0.00 in0.0 mm
04:22 AM 30.0°F-1.1°C 4.3°F-15.4°C 33% 12.1 mph NW19.5 kmh NW 18.8 mph30.3 kmh 30.18 in1022.0 mb 0.00 in0.0 mm 0.00 in0.0 mm 0.00 in0.0 mm
04:23 AM 30.0°F-1.1°C 4.3°F-15.4°C 33% 11.9 mph NW19.2 kmh NW 18.8 mph30.3 kmh 30.18 in1022.0 mb 0.00 in0.0 mm 0.00 in0.0 mm 0.00 in0.0 mm
04:24 AM 30.0°F-1.1°C 3.7°F-15.7°C 32% 11.9 mph NW19.2 kmh NW 18.8 mph30.3 kmh 30.18 in1022.0 mb 0.00 in0.0 mm 0.00 in0.0 mm 0.00 in0.0 mm
04:25 AM 30.0°F-1.1°C 4.3°F-15.4°C 33% 11.6 mph NW18.7 kmh NW 18.8 mph30.3 kmh 30.18 in1022.0 mb 0.00 in0.0 mm 0.00 in0.0 mm 0.00 in0.0 mm
04:26 AM 30.0°F-1.1°C 4.3°F-15.4°C 33% 11.5 mph NW18.5 kmh NW 18.8 mph30.3 kmh 30.18 in1022.0 mb 0.00 in0.0 mm 0.00 in0.0 mm 0.00 in0.0 mm
04:27 AM 30.0°F-1.1°C 4.3°F-15.4°C 33% 11.1 mph NW17.9 kmh NW 17.2 mph27.7 kmh 30.18 in1022.0 mb 0.00 in0.0 mm 0.00 in0.0 mm 0.00 in0.0 mm
04:28 AM 30.0°F-1.1°C 4.3°F-15.4°C 33% 10.9 mph NW17.5 kmh NW 17.2 mph27.7 kmh 30.18 in1022.0 mb 0.00 in0.0 mm 0.00 in0.0 mm 0.00 in0.0 mm
04:29 AM 29.8°F-1.2°C 4.2°F-15.4°C 33% 10.2 mph NW16.4 kmh NW 17.2 mph27.7 kmh 30.21 in1023.0 mb 0.00 in0.0 mm 0.00 in0.0 mm 0.00 in0.0 mm
04:30 AM 29.8°F-1.2°C 4.2°F-15.4°C 33% 10.0 mph NW16.1 kmh NW 17.2 mph27.7 kmh 30.21 in1023.0 mb 0.00 in0.0 mm 0.00 in0.0 mm 0.00 in0.0 mm
04:31 AM 29.7°F-1.3°C 4.0°F-15.6°C 33% 10.0 mph NW16.1 kmh NW 17.2 mph27.7 kmh 30.21 in1023.0 mb 0.00 in0.0 mm 0.00 in0.0 mm 0.00 in0.0 mm
04:32 AM 29.7°F-1.3°C 4.0°F-15.6°C 33% 9.4 mph NW15.1 kmh NW 17.2 mph27.7 kmh 30.21 in1023.0 mb 0.00 in0.0 mm 0.00 in0.0 mm 0.00 in0.0 mm
04:33 AM 29.7°F-1.3°C 4.0°F-15.6°C 33% 9.4 mph NW15.1 kmh NW 17.2 mph27.7 kmh 30.21 in1023.0 mb 0.00 in0.0 mm 0.00 in0.0 mm 0.00 in0.0 mm
04:34 AM 29.7°F-1.3°C 4.0°F-15.6°C 33% 8.7 mph NW14.0 kmh NW 17.2 mph27.7 kmh 30.21 in1023.0 mb 0.00 in0.0 mm 0.00 in0.0 mm 0.00 in0.0 mm
04:35 AM 29.7°F-1.3°C 4.0°F-15.6°C 33% 9.3 mph NW15.0 kmh NW 17.2 mph27.7 kmh 30.21 in1023.0 mb 0.00 in0.0 mm 0.00 in0.0 mm 0.00 in0.0 mm
04:36 AM 29.7°F-1.3°C 4.0°F-15.6°C 33% 9.0 mph NW14.5 kmh NW 17.2 mph27.7 kmh 30.21 in1023.0 mb 0.00 in0.0 mm 0.00 in0.0 mm 0.00 in0.0 mm
04:37 AM 29.7°F-1.3°C 4.0°F-15.6°C 33% 8.6 mph NW13.8 kmh NW 16.6 mph26.7 kmh 30.21 in1023.0 mb 0.00 in0.0 mm 0.00 in0.0 mm 0.00 in0.0 mm
04:38 AM 29.7°F-1.3°C 4.0°F-15.6°C 33% 8.8 mph NW14.2 kmh NW 16.6 mph26.7 kmh 30.21 in1023.0 mb 0.00 in0.0 mm 0.00 in0.0 mm 0.00 in0.0 mm
04:39 AM 29.5°F-1.4°C 3.9°F-15.6°C 33% 8.9 mph NW14.3 kmh NW 16.6 mph26.7 kmh 30.21 in1023.0 mb 0.00 in0.0 mm 0.00 in0.0 mm 0.00 in0.0 mm
04:40 AM 29.5°F-1.4°C 3.9°F-15.6°C 33% 8.7 mph NW14.0 kmh NW 16.6 mph26.7 kmh 30.21 in1023.0 mb 0.00 in0.0 mm 0.00 in0.0 mm 0.00 in0.0 mm
04:41 AM 29.5°F-1.4°C 3.9°F-15.6°C 33% 8.7 mph NW14.0 kmh NW 16.6 mph26.7 kmh 30.21 in1023.0 mb 0.00 in0.0 mm 0.00 in0.0 mm 0.00 in0.0 mm
04:42 AM 29.5°F-1.4°C 3.9°F-15.6°C 33% 9.4 mph NW15.1 kmh NW 16.6 mph26.7 kmh 30.21 in1023.0 mb 0.00 in0.0 mm 0.00 in0.0 mm 0.00 in0.0 mm
04:43 AM 29.7°F-1.3°C 4.0°F-15.6°C 33% 10.3 mph NW16.6 kmh NW 16.6 mph26.7 kmh 30.21 in1023.0 mb 0.00 in0.0 mm 0.00 in0.0 mm 0.00 in0.0 mm
04:44 AM 29.7°F-1.3°C 4.0°F-15.6°C 33% 10.3 mph NW16.6 kmh NW 16.6 mph26.7 kmh 30.21 in1023.0 mb 0.00 in0.0 mm 0.00 in0.0 mm 0.00 in0.0 mm
04:45 AM 29.5°F-1.4°C 4.5°F-15.3°C 34% 9.4 mph NW15.1 kmh NW 14.8 mph23.8 kmh 30.21 in1023.0 mb 0.00 in0.0 mm 0.00 in0.0 mm 0.00 in0.0 mm
04:46 AM 29.5°F-1.4°C 4.5°F-15.3°C 34% 9.2 mph NW14.8 kmh NW 14.8 mph23.8 kmh 30.21 in1023.0 mb 0.00 in0.0 mm 0.00 in0.0 mm 0.00 in0.0 mm
04:47 AM 29.5°F-1.4°C 4.5°F-15.3°C 34% 8.5 mph NW13.7 kmh NW 13.4 mph21.6 kmh 30.21 in1023.0 mb 0.00 in0.0 mm 0.00 in0.0 mm 0.00 in0.0 mm
04:48 AM 29.5°F-1.4°C 4.5°F-15.3°C 34% 9.1 mph NW14.6 kmh NW 16.8 mph27.0 kmh 30.21 in1023.0 mb 0.00 in0.0 mm 0.00 in0.0 mm 0.00 in0.0 mm
04:49 AM 29.5°F-1.4°C 4.5°F-15.3°C 34% 9.1 mph NW14.6 kmh NW 16.8 mph27.0 kmh 30.21 in1023.0 mb 0.00 in0.0 mm 0.00 in0.0 mm 0.00 in0.0 mm
04:50 AM 29.5°F-1.4°C 4.5°F-15.3°C 34% 9.1 mph NW14.6 kmh NW 16.8 mph27.0 kmh 30.21 in1023.0 mb 0.00 in0.0 mm 0.00 in0.0 mm 0.00 in0.0 mm
04:51 AM 29.5°F-1.4°C 4.5°F-15.3°C 34% 9.0 mph NW14.5 kmh NW 16.8 mph27.0 kmh 30.21 in1023.0 mb 0.00 in0.0 mm 0.00 in0.0 mm 0.00 in0.0 mm
04:52 AM 29.5°F-1.4°C 4.5°F-15.3°C 34% 8.3 mph NW13.4 kmh NW 16.8 mph27.0 kmh 30.21 in1023.0 mb 0.00 in0.0 mm 0.00 in0.0 mm 0.00 in0.0 mm
04:53 AM 29.5°F-1.4°C 4.5°F-15.3°C 34% 8.0 mph NW12.9 kmh NW 16.8 mph27.0 kmh 30.21 in1023.0 mb 0.00 in0.0 mm 0.00 in0.0 mm 0.00 in0.0 mm
04:54 AM 29.5°F-1.4°C 4.5°F-15.3°C 34% 7.7 mph NW12.4 kmh NW 16.8 mph27.0 kmh 30.21 in1023.0 mb 0.00 in0.0 mm 0.00 in0.0 mm 0.00 in0.0 mm
04:55 AM 29.5°F-1.4°C 4.5°F-15.3°C 34% 7.8 mph NW12.6 kmh NW 16.8 mph27.0 kmh 30.21 in1023.0 mb 0.00 in0.0 mm 0.00 in0.0 mm 0.00 in0.0 mm
04:56 AM 29.5°F-1.4°C 4.5°F-15.3°C 34% 7.7 mph NW12.4 kmh NW 16.8 mph27.0 kmh 30.21 in1023.0 mb 0.00 in0.0 mm 0.00 in0.0 mm 0.00 in0.0 mm
04:57 AM 29.5°F-1.4°C 4.5°F-15.3°C 34% 7.6 mph NW12.2 kmh NW 16.8 mph27.0 kmh 30.21 in1023.0 mb 0.00 in0.0 mm 0.00 in0.0 mm 0.00 in0.0 mm
04:58 AM 29.5°F-1.4°C 4.5°F-15.3°C 34% 6.9 mph NW11.1 kmh NW 16.8 mph27.0 kmh 30.21 in1023.0 mb 0.00 in0.0 mm 0.00 in0.0 mm 0.00 in0.0 mm
04:59 AM 29.3°F-1.5°C 4.4°F-15.3°C 34% 6.4 mph NW10.3 kmh NW 12.8 mph20.6 kmh 30.21 in1023.0 mb 0.00 in0.0 mm 0.00 in0.0 mm 0.00 in0.0 mm
05:00 AM 29.3°F-1.5°C 4.4°F-15.3°C 34% 6.9 mph NW11.1 kmh NW 12.8 mph20.6 kmh 30.21 in1023.0 mb 0.00 in0.0 mm 0.00 in0.0 mm 0.00 in0.0 mm
05:01 AM 29.3°F-1.5°C 4.4°F-15.3°C 34% 7.3 mph NW11.7 kmh NW 12.8 mph20.6 kmh 30.21 in1023.0 mb 0.00 in0.0 mm 0.00 in0.0 mm 0.00 in0.0 mm
05:02 AM 29.1°F-1.6°C 4.2°F-15.4°C 34% 7.4 mph NW11.9 kmh NW 12.8 mph20.6 kmh 30.21 in1023.0 mb 0.00 in0.0 mm 0.00 in0.0 mm 0.00 in0.0 mm
05:03 AM 29.1°F-1.6°C 4.2°F-15.4°C 34% 7.4 mph NW11.9 kmh NW 12.8 mph20.6 kmh 30.21 in1023.0 mb 0.00 in0.0 mm 0.00 in0.0 mm 0.00 in0.0 mm
05:04 AM 28.9°F-1.7°C 4.7°F-15.2°C 35% 6.6 mph NW10.6 kmh NW 10.3 mph16.6 kmh 30.21 in1023.0 mb 0.00 in0.0 mm 0.00 in0.0 mm 0.00 in0.0 mm
05:05 AM 28.9°F-1.7°C 4.7°F-15.2°C 35% 6.8 mph NW10.9 kmh NW 10.3 mph16.6 kmh 30.21 in1023.0 mb 0.00 in0.0 mm 0.00 in0.0 mm 0.00 in0.0 mm
05:06 AM 29.1°F-1.6°C 4.8°F-15.1°C 35% 7.2 mph NW11.6 kmh NW 10.7 mph17.2 kmh 30.21 in1023.0 mb 0.00 in0.0 mm 0.00 in0.0 mm 0.00 in0.0 mm
05:07 AM 29.1°F-1.6°C 4.8°F-15.1°C 35% 7.0 mph NW11.3 kmh NW 10.7 mph17.2 kmh 30.21 in1023.0 mb 0.00 in0.0 mm 0.00 in0.0 mm 0.00 in0.0 mm
05:08 AM 28.9°F-1.7°C 4.7°F-15.2°C 35% 7.4 mph NW11.9 kmh NW 10.7 mph17.2 kmh 30.21 in1023.0 mb 0.00 in0.0 mm 0.00 in0.0 mm 0.00 in0.0 mm
05:09 AM 28.9°F-1.7°C 4.7°F-15.2°C 35% 7.4 mph NW11.9 kmh NW 10.7 mph17.2 kmh 30.21 in1023.0 mb 0.00 in0.0 mm 0.00 in0.0 mm 0.00 in0.0 mm
05:10 AM 28.9°F-1.7°C 4.7°F-15.2°C 35% 7.0 mph NW11.3 kmh NW 10.7 mph17.2 kmh 30.21 in1023.0 mb 0.00 in0.0 mm 0.00 in0.0 mm 0.00 in0.0 mm
05:11 AM 28.9°F-1.7°C 4.7°F-15.2°C 35% 6.7 mph NW10.8 kmh NW 10.7 mph17.2 kmh 30.21 in1023.0 mb 0.00 in0.0 mm 0.00 in0.0 mm 0.00 in0.0 mm
05:12 AM 28.9°F-1.7°C 4.7°F-15.2°C 35% 6.6 mph NW10.6 kmh NW 10.7 mph17.2 kmh 30.21 in1023.0 mb 0.00 in0.0 mm 0.00 in0.0 mm 0.00 in0.0 mm
05:13 AM 28.9°F-1.7°C 4.7°F-15.2°C 35% 6.5 mph NW10.5 kmh NW 10.7 mph17.2 kmh 30.21 in1023.0 mb 0.00 in0.0 mm 0.00 in0.0 mm 0.00 in0.0 mm
05:14 AM 28.6°F-1.9°C 4.3°F-15.4°C 35% 6.3 mph NW10.1 kmh NW 10.7 mph17.2 kmh 30.24 in1024.0 mb 0.00 in0.0 mm 0.00 in0.0 mm 0.00 in0.0 mm
05:15 AM 28.6°F-1.9°C 4.3°F-15.4°C 35% 6.3 mph NW10.1 kmh NW 10.7 mph17.2 kmh 30.24 in1024.0 mb 0.00 in0.0 mm 0.00 in0.0 mm 0.00 in0.0 mm
05:16 AM 28.6°F-1.9°C 4.3°F-15.4°C 35% 5.5 mph NW8.9 kmh NW 9.4 mph15.1 kmh 30.24 in1024.0 mb 0.00 in0.0 mm 0.00 in0.0 mm 0.00 in0.0 mm
05:17 AM 28.6°F-1.9°C 4.3°F-15.4°C 35% 5.3 mph NW8.5 kmh NW 9.4 mph15.1 kmh 30.24 in1024.0 mb 0.00 in0.0 mm 0.00 in0.0 mm 0.00 in0.0 mm
05:18 AM 28.6°F-1.9°C 4.3°F-15.4°C 35% 5.1 mph NW8.2 kmh NW 9.4 mph15.1 kmh 30.24 in1024.0 mb 0.00 in0.0 mm 0.00 in0.0 mm 0.00 in0.0 mm
05:19 AM 28.6°F-1.9°C 5.0°F-15.0°C 36% 4.7 mph NW7.6 kmh NW 8.1 mph13.0 kmh 30.24 in1024.0 mb 0.00 in0.0 mm 0.00 in0.0 mm 0.00 in0.0 mm
05:20 AM 28.6°F-1.9°C 5.0°F-15.0°C 36% 4.6 mph NW7.4 kmh NW 8.1 mph13.0 kmh 30.24 in1024.0 mb 0.00 in0.0 mm 0.00 in0.0 mm 0.00 in0.0 mm
05:21 AM 28.6°F-1.9°C 5.0°F-15.0°C 36% 4.7 mph NW7.6 kmh NW 8.1 mph13.0 kmh 30.24 in1024.0 mb 0.00 in0.0 mm 0.00 in0.0 mm 0.00 in0.0 mm
05:22 AM 28.6°F-1.9°C 5.0°F-15.0°C 36% 4.8 mph NW7.7 kmh NW 8.1 mph13.0 kmh 30.24 in1024.0 mb 0.00 in0.0 mm 0.00 in0.0 mm 0.00 in0.0 mm
05:23 AM 28.6°F-1.9°C 5.0°F-15.0°C 36% 4.8 mph NW7.7 kmh NW 8.5 mph13.7 kmh 30.24 in1024.0 mb 0.00 in0.0 mm 0.00 in0.0 mm 0.00 in0.0 mm
05:24 AM 28.6°F-1.9°C 5.0°F-15.0°C 36% 5.0 mph NW8.0 kmh NW 8.5 mph13.7 kmh 30.24 in1024.0 mb 0.00 in0.0 mm 0.00 in0.0 mm 0.00 in0.0 mm
05:25 AM 28.6°F-1.9°C 5.0°F-15.0°C 36% 5.1 mph NW8.2 kmh NW 8.5 mph13.7 kmh 30.24 in1024.0 mb 0.00 in0.0 mm 0.00 in0.0 mm 0.00 in0.0 mm
05:26 AM 28.6°F-1.9°C 5.6°F-14.7°C 37% 5.8 mph NW9.3 kmh NW 10.1 mph16.3 kmh 30.24 in1024.0 mb 0.00 in0.0 mm 0.00 in0.0 mm 0.00 in0.0 mm
05:27 AM 28.6°F-1.9°C 5.6°F-14.7°C 37% 5.9 mph NW9.5 kmh NW 10.1 mph16.3 kmh 30.24 in1024.0 mb 0.00 in0.0 mm 0.00 in0.0 mm 0.00 in0.0 mm
05:28 AM 28.4°F-2.0°C 6.0°F-14.4°C 38% 5.7 mph NW9.2 kmh NW 10.1 mph16.3 kmh 30.24 in1024.0 mb 0.00 in0.0 mm 0.00 in0.0 mm 0.00 in0.0 mm
05:29 AM 28.4°F-2.0°C 6.0°F-14.4°C 38% 5.7 mph NW9.2 kmh NW 10.1 mph16.3 kmh 30.27 in1025.1 mb 0.00 in0.0 mm 0.00 in0.0 mm 0.00 in0.0 mm
05:30 AM 28.2°F-2.1°C 5.8°F-14.6°C 38% 5.6 mph NW9.0 kmh NW 10.1 mph16.3 kmh 30.27 in1025.1 mb 0.00 in0.0 mm 0.00 in0.0 mm 0.00 in0.0 mm
05:31 AM 28.2°F-2.1°C 5.8°F-14.6°C 38% 5.6 mph NW9.0 kmh NW 10.1 mph16.3 kmh 30.27 in1025.1 mb 0.00 in0.0 mm 0.00 in0.0 mm 0.00 in0.0 mm
05:32 AM 28.4°F-2.0°C 6.0°F-14.4°C 38% 5.7 mph NW9.2 kmh NW 10.1 mph16.3 kmh 30.27 in1025.1 mb 0.00 in0.0 mm 0.00 in0.0 mm 0.00 in0.0 mm
05:33 AM 28.6°F-1.9°C 6.1°F-14.4°C 38% 6.4 mph NW10.3 kmh NW 10.3 mph16.6 kmh 30.27 in1025.1 mb 0.00 in0.0 mm 0.00 in0.0 mm 0.00 in0.0 mm
05:34 AM 28.6°F-1.9°C 6.1°F-14.4°C 38% 6.4 mph NW10.3 kmh NW 10.3 mph16.6 kmh 30.27 in1025.1 mb 0.00 in0.0 mm 0.00 in0.0 mm 0.00 in0.0 mm
05:35 AM 28.4°F-2.0°C 6.6°F-14.1°C 39% 6.4 mph NW10.3 kmh NW 10.3 mph16.6 kmh 30.27 in1025.1 mb 0.00 in0.0 mm 0.00 in0.0 mm 0.00 in0.0 mm
05:36 AM 28.4°F-2.0°C 6.6°F-14.1°C 39% 6.4 mph NW10.3 kmh NW 10.3 mph16.6 kmh 30.27 in1025.1 mb 0.00 in0.0 mm 0.00 in0.0 mm 0.00 in0.0 mm
05:37 AM 28.6°F-1.9°C 6.1°F-14.4°C 38% 6.2 mph NW10.0 kmh NW 11.0 mph17.7 kmh 30.27 in1025.1 mb 0.00 in0.0 mm 0.00 in0.0 mm 0.00 in0.0 mm
05:38 AM 28.6°F-1.9°C 6.1°F-14.4°C 38% 6.4 mph NW10.3 kmh NW 11.0 mph17.7 kmh 30.27 in1025.1 mb 0.00 in0.0 mm 0.00 in0.0 mm 0.00 in0.0 mm
05:39 AM 28.6°F-1.9°C 6.1°F-14.4°C 38% 7.1 mph NW11.4 kmh NW 11.0 mph17.7 kmh 30.27 in1025.1 mb 0.00 in0.0 mm 0.00 in0.0 mm 0.00 in0.0 mm
05:40 AM 28.4°F-2.0°C 6.6°F-14.1°C 39% 7.5 mph NW12.1 kmh NW 11.0 mph17.7 kmh 30.27 in1025.1 mb 0.00 in0.0 mm 0.00 in0.0 mm 0.00 in0.0 mm
05:41 AM 28.4°F-2.0°C 6.6°F-14.1°C 39% 7.3 mph NW11.7 kmh NW 11.0 mph17.7 kmh 30.27 in1025.1 mb 0.00 in0.0 mm 0.00 in0.0 mm 0.00 in0.0 mm
05:42 AM 28.2°F-2.1°C 6.4°F-14.2°C 39% 6.9 mph NW11.1 kmh NW 11.0 mph17.7 kmh 30.27 in1025.1 mb 0.00 in0.0 mm 0.00 in0.0 mm 0.00 in0.0 mm
05:43 AM 28.2°F-2.1°C 6.4°F-14.2°C 39% 7.0 mph NW11.3 kmh NW 11.0 mph17.7 kmh 30.27 in1025.1 mb 0.00 in0.0 mm 0.00 in0.0 mm 0.00 in0.0 mm
05:44 AM 28.2°F-2.1°C 6.4°F-14.2°C 39% 6.6 mph NW10.6 kmh NW 11.0 mph17.7 kmh 30.27 in1025.1 mb 0.00 in0.0 mm 0.00 in0.0 mm 0.00 in0.0 mm
05:45 AM 28.2°F-2.1°C 6.4°F-14.2°C 39% 7.1 mph NW11.4 kmh NW 13.0 mph20.9 kmh 30.27 in1025.1 mb 0.00 in0.0 mm 0.00 in0.0 mm 0.00 in0.0 mm
05:46 AM 28.4°F-2.0°C 6.6°F-14.1°C 39% 7.5 mph NW12.1 kmh NW 13.0 mph20.9 kmh 30.27 in1025.1 mb 0.00 in0.0 mm 0.00 in0.0 mm 0.00 in0.0 mm
05:47 AM 28.2°F-2.1°C 7.0°F-13.9°C 40% 7.8 mph WNW12.6 kmh WNW 13.0 mph20.9 kmh 30.27 in1025.1 mb 0.00 in0.0 mm 0.00 in0.0 mm 0.00 in0.0 mm
05:48 AM 28.2°F-2.1°C 7.0°F-13.9°C 40% 7.9 mph WNW12.7 kmh WNW 13.0 mph20.9 kmh 30.27 in1025.1 mb 0.00 in0.0 mm 0.00 in0.0 mm 0.00 in0.0 mm
05:49 AM 28.2°F-2.1°C 7.0°F-13.9°C 40% 7.9 mph NW12.7 kmh NW 13.0 mph20.9 kmh 30.27 in1025.1 mb 0.00 in0.0 mm 0.00 in0.0 mm 0.00 in0.0 mm
05:50 AM 28.2°F-2.1°C 7.0°F-13.9°C 40% 7.9 mph NW12.7 kmh NW 13.0 mph20.9 kmh 30.27 in1025.1 mb 0.00 in0.0 mm 0.00 in0.0 mm 0.00 in0.0 mm
05:51 AM 28.2°F-2.1°C 7.0°F-13.9°C 40% 8.1 mph NW13.0 kmh NW 13.0 mph20.9 kmh 30.27 in1025.1 mb 0.00 in0.0 mm 0.00 in0.0 mm 0.00 in0.0 mm
05:52 AM 28.2°F-2.1°C 7.0°F-13.9°C 40% 8.1 mph WNW13.0 kmh WNW 13.0 mph20.9 kmh 30.27 in1025.1 mb 0.00 in0.0 mm 0.00 in0.0 mm 0.00 in0.0 mm
05:53 AM 28.0°F-2.2°C 6.8°F-14.0°C 40% 7.9 mph WNW12.7 kmh WNW 13.0 mph20.9 kmh 30.27 in1025.1 mb 0.00 in0.0 mm 0.00 in0.0 mm 0.00 in0.0 mm
05:54 AM 28.0°F-2.2°C 6.8°F-14.0°C 40% 8.0 mph NW12.9 kmh NW 13.0 mph20.9 kmh 30.27 in1025.1 mb 0.00 in0.0 mm 0.00 in0.0 mm 0.00 in0.0 mm
05:55 AM 28.0°F-2.2°C 6.8°F-14.0°C 40% 8.3 mph NW13.4 kmh NW 13.0 mph20.9 kmh 30.27 in1025.1 mb 0.00 in0.0 mm 0.00 in0.0 mm 0.00 in0.0 mm
05:56 AM 27.9°F-2.3°C 7.2°F-13.8°C 41% 7.4 mph NW11.9 kmh NW 10.7 mph17.2 kmh 30.27 in1025.1 mb 0.00 in0.0 mm 0.00 in0.0 mm 0.00 in0.0 mm
05:57 AM 27.9°F-2.3°C 7.2°F-13.8°C 41% 7.1 mph NW11.4 kmh NW 10.7 mph17.2 kmh 30.27 in1025.1 mb 0.00 in0.0 mm 0.00 in0.0 mm 0.00 in0.0 mm
05:58 AM 27.5°F-2.5°C 6.8°F-14.0°C 41% 6.1 mph NW9.8 kmh NW 9.6 mph15.4 kmh 30.27 in1025.1 mb 0.00 in0.0 mm 0.00 in0.0 mm 0.00 in0.0 mm
05:59 AM 27.5°F-2.5°C 6.8°F-14.0°C 41% 5.8 mph NW9.3 kmh NW 9.6 mph15.4 kmh 30.27 in1025.1 mb 0.00 in0.0 mm 0.00 in0.0 mm 0.00 in0.0 mm
06:00 AM 27.9°F-2.3°C 7.2°F-13.8°C 41% 6.1 mph NW9.8 kmh NW 10.3 mph16.6 kmh 30.27 in1025.1 mb 0.00 in0.0 mm 0.00 in0.0 mm 0.00 in0.0 mm
06:01 AM 27.9°F-2.3°C 7.2°F-13.8°C 41% 6.4 mph NW10.3 kmh NW 10.3 mph16.6 kmh 30.27 in1025.1 mb 0.00 in0.0 mm 0.00 in0.0 mm 0.00 in0.0 mm
06:02 AM 27.9°F-2.3°C 7.2°F-13.8°C 41% 6.9 mph NW11.1 kmh NW 10.3 mph16.6 kmh 30.27 in1025.1 mb 0.00 in0.0 mm 0.00 in0.0 mm 0.00 in0.0 mm
06:03 AM 27.9°F-2.3°C 7.2°F-13.8°C 41% 7.8 mph WNW12.6 kmh WNW 11.0 mph17.7 kmh 30.27 in1025.1 mb 0.00 in0.0 mm 0.00 in0.0 mm 0.00 in0.0 mm
06:04 AM 27.9°F-2.3°C 7.2°F-13.8°C 41% 7.9 mph WNW12.7 kmh WNW 12.5 mph20.1 kmh 30.27 in1025.1 mb 0.00 in0.0 mm 0.00 in0.0 mm 0.00 in0.0 mm
06:05 AM 27.7°F-2.4°C 6.5°F-14.2°C 40% 7.1 mph WNW11.4 kmh WNW 12.5 mph20.1 kmh 30.27 in1025.1 mb 0.00 in0.0 mm 0.00 in0.0 mm 0.00 in0.0 mm
06:06 AM 27.7°F-2.4°C 6.5°F-14.2°C 40% 7.3 mph WNW11.7 kmh WNW 12.5 mph20.1 kmh 30.27 in1025.1 mb 0.00 in0.0 mm 0.00 in0.0 mm 0.00 in0.0 mm
06:07 AM 27.9°F-2.3°C 6.1°F-14.4°C 39% 7.7 mph WNW12.4 kmh WNW 12.5 mph20.1 kmh 30.27 in1025.1 mb 0.00 in0.0 mm 0.00 in0.0 mm 0.00 in0.0 mm
06:08 AM 27.9°F-2.3°C 6.1°F-14.4°C 39% 7.8 mph WNW12.6 kmh WNW 12.5 mph20.1 kmh 30.27 in1025.1 mb 0.00 in0.0 mm 0.00 in0.0 mm 0.00 in0.0 mm
06:09 AM 27.5°F-2.5°C 5.2°F-14.9°C 38% 8.2 mph NW13.2 kmh NW 12.5 mph20.1 kmh 30.27 in1025.1 mb 0.00 in0.0 mm 0.00 in0.0 mm 0.00 in0.0 mm
06:10 AM 27.7°F-2.4°C 5.3°F-14.8°C 38% 8.8 mph NW14.2 kmh NW 12.5 mph20.1 kmh 30.27 in1025.1 mb 0.00 in0.0 mm 0.00 in0.0 mm 0.00 in0.0 mm
06:11 AM 27.7°F-2.4°C 5.3°F-14.8°C 38% 8.7 mph NW14.0 kmh NW 12.5 mph20.1 kmh 30.27 in1025.1 mb 0.00 in0.0 mm 0.00 in0.0 mm 0.00 in0.0 mm
06:12 AM 27.5°F-2.5°C 4.6°F-15.2°C 37% 8.4 mph NW13.5 kmh NW 12.5 mph20.1 kmh 30.27 in1025.1 mb 0.00 in0.0 mm 0.00 in0.0 mm 0.00 in0.0 mm
06:13 AM 27.5°F-2.5°C 4.6°F-15.2°C 37% 7.9 mph NW12.7 kmh NW 12.5 mph20.1 kmh 30.27 in1025.1 mb 0.00 in0.0 mm 0.00 in0.0 mm 0.00 in0.0 mm
06:14 AM 27.5°F-2.5°C 4.0°F-15.6°C 36% 7.6 mph NW12.2 kmh NW 12.5 mph20.1 kmh 30.27 in1025.1 mb 0.00 in0.0 mm 0.00 in0.0 mm 0.00 in0.0 mm
06:15 AM 27.5°F-2.5°C 4.0°F-15.6°C 36% 8.4 mph NW13.5 kmh NW 12.5 mph20.1 kmh 30.27 in1025.1 mb 0.00 in0.0 mm 0.00 in0.0 mm 0.00 in0.0 mm
06:16 AM 27.5°F-2.5°C 4.0°F-15.6°C 36% 8.6 mph NW13.8 kmh NW 12.5 mph20.1 kmh 30.27 in1025.1 mb 0.00 in0.0 mm 0.00 in0.0 mm 0.00 in0.0 mm
06:17 AM 27.5°F-2.5°C 4.0°F-15.6°C 36% 8.5 mph NW13.7 kmh NW 12.5 mph20.1 kmh 30.27 in1025.1 mb 0.00 in0.0 mm 0.00 in0.0 mm 0.00 in0.0 mm
06:18 AM 27.3°F-2.6°C 3.8°F-15.7°C 36% 8.5 mph NW13.7 kmh NW 12.5 mph20.1 kmh 30.27 in1025.1 mb 0.00 in0.0 mm 0.00 in0.0 mm 0.00 in0.0 mm
06:19 AM 27.1°F-2.7°C 3.7°F-15.7°C 36% 8.3 mph NW13.4 kmh NW 12.5 mph20.1 kmh 30.27 in1025.1 mb 0.00 in0.0 mm 0.00 in0.0 mm 0.00 in0.0 mm
06:20 AM 27.1°F-2.7°C 3.7°F-15.7°C 36% 7.8 mph NW12.6 kmh NW 12.5 mph20.1 kmh 30.27 in1025.1 mb 0.00 in0.0 mm 0.00 in0.0 mm 0.00 in0.0 mm
06:21 AM 27.1°F-2.7°C 3.1°F-16.1°C 35% 9.0 mph NW14.5 kmh NW 19.9 mph32.0 kmh 30.27 in1025.1 mb 0.00 in0.0 mm 0.00 in0.0 mm 0.00 in0.0 mm
06:22 AM 27.1°F-2.7°C 3.1°F-16.1°C 35% 9.1 mph NW14.6 kmh NW 19.9 mph32.0 kmh 30.27 in1025.1 mb 0.00 in0.0 mm 0.00 in0.0 mm 0.00 in0.0 mm
06:23 AM 27.1°F-2.7°C 3.1°F-16.1°C 35% 9.6 mph NW15.4 kmh NW 19.9 mph32.0 kmh 30.27 in1025.1 mb 0.00 in0.0 mm 0.00 in0.0 mm 0.00 in0.0 mm
06:24 AM 27.1°F-2.7°C 3.1°F-16.1°C 35% 9.4 mph NW15.1 kmh NW 19.9 mph32.0 kmh 30.27 in1025.1 mb 0.00 in0.0 mm 0.00 in0.0 mm 0.00 in0.0 mm
06:25 AM 27.0°F-2.8°C 2.9°F-16.2°C 35% 8.8 mph NW14.2 kmh NW 19.9 mph32.0 kmh 30.27 in1025.1 mb 0.00 in0.0 mm 0.00 in0.0 mm 0.00 in0.0 mm
06:26 AM 27.0°F-2.8°C 2.9°F-16.2°C 35% 8.7 mph NW14.0 kmh NW 19.9 mph32.0 kmh 30.27 in1025.1 mb 0.00 in0.0 mm 0.00 in0.0 mm 0.00 in0.0 mm
06:27 AM 27.0°F-2.8°C 2.9°F-16.2°C 35% 8.7 mph NW14.0 kmh NW 19.9 mph32.0 kmh 30.27 in1025.1 mb 0.00 in0.0 mm 0.00 in0.0 mm 0.00 in0.0 mm
06:28 AM 27.0°F-2.8°C 2.9°F-16.2°C 35% 8.7 mph NW14.0 kmh NW 19.9 mph32.0 kmh 30.27 in1025.1 mb 0.00 in0.0 mm 0.00 in0.0 mm 0.00 in0.0 mm
06:29 AM 27.0°F-2.8°C 2.9°F-16.2°C 35% 8.9 mph NW14.3 kmh NW 19.9 mph32.0 kmh 30.30 in1026.1 mb 0.00 in0.0 mm 0.00 in0.0 mm 0.00 in0.0 mm
06:30 AM 27.0°F-2.8°C 2.9°F-16.2°C 35% 9.3 mph NW15.0 kmh NW 19.9 mph32.0 kmh 30.30 in1026.1 mb 0.00 in0.0 mm 0.00 in0.0 mm 0.00 in0.0 mm
06:31 AM 27.0°F-2.8°C 2.9°F-16.2°C 35% 7.8 mph NW12.6 kmh NW 12.1 mph19.5 kmh 30.30 in1026.1 mb 0.00 in0.0 mm 0.00 in0.0 mm 0.00 in0.0 mm
06:32 AM 27.0°F-2.8°C 2.9°F-16.2°C 35% 7.8 mph NW12.6 kmh NW 12.1 mph19.5 kmh 30.30 in1026.1 mb 0.00 in0.0 mm 0.00 in0.0 mm 0.00 in0.0 mm
06:33 AM 27.0°F-2.8°C 2.3°F-16.5°C 34% 7.6 mph NW12.2 kmh NW 12.1 mph19.5 kmh 30.30 in1026.1 mb 0.00 in0.0 mm 0.00 in0.0 mm 0.00 in0.0 mm
06:34 AM 27.0°F-2.8°C 2.3°F-16.5°C 34% 7.7 mph NW12.4 kmh NW 12.1 mph19.5 kmh 30.30 in1026.1 mb 0.00 in0.0 mm 0.00 in0.0 mm 0.00 in0.0 mm
06:35 AM 26.6°F-3.0°C 2.6°F-16.3°C 35% 8.4 mph NNW13.5 kmh NNW 12.1 mph19.5 kmh 30.30 in1026.1 mb 0.00 in0.0 mm 0.00 in0.0 mm 0.00 in0.0 mm
06:36 AM 26.6°F-3.0°C 2.6°F-16.3°C 35% 8.4 mph NNW13.5 kmh NNW 12.1 mph19.5 kmh 30.30 in1026.1 mb 0.00 in0.0 mm 0.00 in0.0 mm 0.00 in0.0 mm
06:37 AM 26.6°F-3.0°C 2.6°F-16.3°C 35% 7.8 mph NNW12.6 kmh NNW 9.8 mph15.8 kmh 30.30 in1026.1 mb 0.00 in0.0 mm 0.00 in0.0 mm 0.00 in0.0 mm
06:38 AM 26.6°F-3.0°C 2.6°F-16.3°C 35% 7.8 mph NW12.6 kmh NW 9.8 mph15.8 kmh 30.30 in1026.1 mb 0.00 in0.0 mm 0.00 in0.0 mm 0.00 in0.0 mm
06:39 AM 26.2°F-3.2°C 2.3°F-16.5°C 35% 7.2 mph NW11.6 kmh NW 9.8 mph15.8 kmh 30.30 in1026.1 mb 0.00 in0.0 mm 0.00 in0.0 mm 0.00 in0.0 mm
06:40 AM 26.2°F-3.2°C 2.3°F-16.5°C 35% 7.2 mph NW11.6 kmh NW 10.5 mph16.9 kmh 30.30 in1026.1 mb 0.00 in0.0 mm 0.00 in0.0 mm 0.00 in0.0 mm
06:41 AM 26.4°F-3.1°C 2.4°F-16.4°C 35% 7.1 mph NNW11.4 kmh NNW 10.5 mph16.9 kmh 30.30 in1026.1 mb 0.00 in0.0 mm 0.00 in0.0 mm 0.00 in0.0 mm
06:42 AM 26.4°F-3.1°C 2.4°F-16.4°C 35% 7.1 mph NNW11.4 kmh NNW 10.5 mph16.9 kmh 30.30 in1026.1 mb 0.00 in0.0 mm 0.00 in0.0 mm 0.00 in0.0 mm
06:43 AM 26.4°F-3.1°C 2.4°F-16.4°C 35% 6.8 mph NNW10.9 kmh NNW 10.5 mph16.9 kmh 30.30 in1026.1 mb 0.00 in0.0 mm 0.00 in0.0 mm 0.00 in0.0 mm
06:44 AM 26.4°F-3.1°C 2.4°F-16.4°C 35% 6.5 mph NNW10.5 kmh NNW 10.5 mph16.9 kmh 30.33 in1027.1 mb 0.00 in0.0 mm 0.00 in0.0 mm 0.00 in0.0 mm
06:45 AM 26.4°F-3.1°C 2.4°F-16.4°C 35% 6.3 mph NW10.1 kmh NW 10.5 mph16.9 kmh 30.33 in1027.1 mb 0.00 in0.0 mm 0.00 in0.0 mm 0.00 in0.0 mm
06:46 AM 26.4°F-3.1°C 2.4°F-16.4°C 35% 6.1 mph NW9.8 kmh NW 10.5 mph16.9 kmh 30.33 in1027.1 mb 0.00 in0.0 mm 0.00 in0.0 mm 0.00 in0.0 mm
06:47 AM 26.4°F-3.1°C 2.4°F-16.4°C 35% 6.2 mph NW10.0 kmh NW 10.5 mph16.9 kmh 30.33 in1027.1 mb 0.00 in0.0 mm 0.00 in0.0 mm 0.00 in0.0 mm
06:48 AM 26.2°F-3.2°C 2.3°F-16.5°C 35% 6.0 mph NW9.7 kmh NW 10.5 mph16.9 kmh 30.33 in1027.1 mb 0.00 in0.0 mm 0.00 in0.0 mm 0.00 in0.0 mm
06:49 AM 26.4°F-3.1°C 2.4°F-16.4°C 35% 6.6 mph NW10.6 kmh NW 10.5 mph16.9 kmh 30.33 in1027.1 mb 0.00 in0.0 mm 0.00 in0.0 mm 0.00 in0.0 mm
06:50 AM 26.4°F-3.1°C 2.4°F-16.4°C 35% 6.6 mph NW10.6 kmh NW 10.5 mph16.9 kmh 30.33 in1027.1 mb 0.00 in0.0 mm 0.00 in0.0 mm 0.00 in0.0 mm
06:51 AM 26.2°F-3.2°C 2.9°F-16.2°C 36% 5.6 mph WNW9.0 kmh WNW 8.5 mph13.7 kmh 30.33 in1027.1 mb 0.00 in0.0 mm 0.00 in0.0 mm 0.00 in0.0 mm
06:52 AM 26.2°F-3.2°C 2.9°F-16.2°C 36% 5.3 mph WNW8.5 kmh WNW 8.5 mph13.7 kmh 30.33 in1027.1 mb 0.00 in0.0 mm 0.00 in0.0 mm 0.00 in0.0 mm
06:53 AM 26.1°F-3.3°C 2.7°F-16.3°C 36% 4.6 mph NW7.4 kmh NW 8.5 mph13.7 kmh 30.33 in1027.1 mb 0.00 in0.0 mm 0.00 in0.0 mm 0.00 in0.0 mm
06:54 AM 26.1°F-3.3°C 2.7°F-16.3°C 36% 5.4 mph NW8.7 kmh NW 13.2 mph21.2 kmh 30.33 in1027.1 mb 0.00 in0.0 mm 0.00 in0.0 mm 0.00 in0.0 mm
06:55 AM 26.1°F-3.3°C 2.7°F-16.3°C 36% 5.8 mph NW9.3 kmh NW 13.2 mph21.2 kmh 30.33 in1027.1 mb 0.00 in0.0 mm 0.00 in0.0 mm 0.00 in0.0 mm
06:56 AM 26.1°F-3.3°C 2.7°F-16.3°C 36% 5.4 mph NW8.7 kmh NW 13.2 mph21.2 kmh 30.33 in1027.1 mb 0.00 in0.0 mm 0.00 in0.0 mm 0.00 in0.0 mm
06:57 AM 26.1°F-3.3°C 2.7°F-16.3°C 36% 6.2 mph NW10.0 kmh NW 16.3 mph26.2 kmh 30.33 in1027.1 mb 0.00 in0.0 mm 0.00 in0.0 mm 0.00 in0.0 mm
06:58 AM 26.1°F-3.3°C 2.7°F-16.3°C 36% 6.2 mph NW10.0 kmh NW 16.3 mph26.2 kmh 30.33 in1027.1 mb 0.00 in0.0 mm 0.00 in0.0 mm 0.00 in0.0 mm
06:59 AM 26.1°F-3.3°C 2.7°F-16.3°C 36% 6.4 mph NW10.3 kmh NW 16.3 mph26.2 kmh 30.33 in1027.1 mb 0.00 in0.0 mm 0.00 in0.0 mm 0.00 in0.0 mm
07:00 AM 26.2°F-3.2°C 2.9°F-16.2°C 36% 6.6 mph NW10.6 kmh NW 16.3 mph26.2 kmh 30.33 in1027.1 mb 0.00 in0.0 mm 0.00 in0.0 mm 0.00 in0.0 mm
07:01 AM 26.2°F-3.2°C 2.9°F-16.2°C 36% 6.7 mph NW10.8 kmh NW 16.3 mph26.2 kmh 30.33 in1027.1 mb 0.00 in0.0 mm 0.00 in0.0 mm 0.00 in0.0 mm
07:02 AM 26.1°F-3.3°C 2.7°F-16.3°C 36% 7.2 mph NW11.6 kmh NW 16.3 mph26.2 kmh 30.33 in1027.1 mb 0.00 in0.0 mm 0.00 in0.0 mm 0.00 in0.0 mm
07:03 AM 25.9°F-3.4°C 2.5°F-16.4°C 36% 7.5 mph NW12.1 kmh NW 16.3 mph26.2 kmh 30.33 in1027.1 mb 0.00 in0.0 mm 0.00 in0.0 mm 0.00 in0.0 mm
07:04 AM 25.9°F-3.4°C 2.5°F-16.4°C 36% 7.3 mph NW11.7 kmh NW 16.3 mph26.2 kmh 30.33 in1027.1 mb 0.00 in0.0 mm 0.00 in0.0 mm 0.00 in0.0 mm
07:05 AM 25.7°F-3.5°C 2.4°F-16.4°C 36% 5.9 mph NW9.5 kmh NW 16.3 mph26.2 kmh 30.33 in1027.1 mb 0.00 in0.0 mm 0.00 in0.0 mm 0.00 in0.0 mm
07:06 AM 25.7°F-3.5°C 2.4°F-16.4°C 36% 5.7 mph NW9.2 kmh NW 16.3 mph26.2 kmh 30.33 in1027.1 mb 0.00 in0.0 mm 0.00 in0.0 mm 0.00 in0.0 mm
07:07 AM 25.9°F-3.4°C 2.5°F-16.4°C 36% 5.6 mph NW9.0 kmh NW 16.3 mph26.2 kmh 30.33 in1027.1 mb 0.00 in0.0 mm 0.00 in0.0 mm 0.00 in0.0 mm
07:08 AM 25.9°F-3.4°C 2.5°F-16.4°C 36% 5.1 mph NW8.2 kmh NW 9.6 mph15.4 kmh 30.33 in1027.1 mb 0.00 in0.0 mm 0.00 in0.0 mm 0.00 in0.0 mm
07:09 AM 26.1°F-3.3°C 2.7°F-16.3°C 36% 5.2 mph NW8.4 kmh NW 9.6 mph15.4 kmh 30.33 in1027.1 mb 0.00 in0.0 mm 0.00 in0.0 mm 0.00 in0.0 mm
07:10 AM 26.1°F-3.3°C 2.7°F-16.3°C 36% 4.7 mph NW7.6 kmh NW 9.4 mph15.1 kmh 30.33 in1027.1 mb 0.00 in0.0 mm 0.00 in0.0 mm 0.00 in0.0 mm
07:11 AM 25.9°F-3.4°C 2.5°F-16.4°C 36% 4.9 mph NW7.9 kmh NW 9.4 mph15.1 kmh 30.33 in1027.1 mb 0.00 in0.0 mm 0.00 in0.0 mm 0.00 in0.0 mm
07:12 AM 25.9°F-3.4°C 2.5°F-16.4°C 36% 5.1 mph NW8.2 kmh NW 9.4 mph15.1 kmh 30.33 in1027.1 mb 0.00 in0.0 mm 0.00 in0.0 mm 0.00 in0.0 mm
07:13 AM 25.9°F-3.4°C 2.5°F-16.4°C 36% 5.6 mph NW9.0 kmh NW 11.9 mph19.2 kmh 30.33 in1027.1 mb 0.00 in0.0 mm 0.00 in0.0 mm 0.00 in0.0 mm
07:14 AM 26.1°F-3.3°C 2.7°F-16.3°C 36% 6.0 mph NW9.7 kmh NW 11.9 mph19.2 kmh 30.33 in1027.1 mb 0.00 in0.0 mm 0.00 in0.0 mm 0.00 in0.0 mm
07:15 AM 26.1°F-3.3°C 2.7°F-16.3°C 36% 6.3 mph NW10.1 kmh NW 11.9 mph19.2 kmh 30.33 in1027.1 mb 0.00 in0.0 mm 0.00 in0.0 mm 0.00 in0.0 mm
07:16 AM 25.9°F-3.4°C 2.5°F-16.4°C 36% 6.9 mph NW11.1 kmh NW 11.9 mph19.2 kmh 30.33 in1027.1 mb 0.00 in0.0 mm 0.00 in0.0 mm 0.00 in0.0 mm
07:17 AM 25.9°F-3.4°C 2.5°F-16.4°C 36% 7.4 mph NW11.9 kmh NW 11.9 mph19.2 kmh 30.33 in1027.1 mb 0.00 in0.0 mm 0.00 in0.0 mm 0.00 in0.0 mm
07:18 AM 25.9°F-3.4°C 2.5°F-16.4°C 36% 7.7 mph NW12.4 kmh NW 11.9 mph19.2 kmh 30.33 in1027.1 mb 0.00 in0.0 mm 0.00 in0.0 mm 0.00 in0.0 mm
07:19 AM 26.1°F-3.3°C 2.7°F-16.3°C 36% 7.8 mph NW12.6 kmh NW 11.9 mph19.2 kmh 30.33 in1027.1 mb 0.00 in0.0 mm 0.00 in0.0 mm 0.00 in0.0 mm
07:20 AM 26.1°F-3.3°C 2.7°F-16.3°C 36% 7.9 mph NW12.7 kmh NW 11.9 mph19.2 kmh 30.33 in1027.1 mb 0.00 in0.0 mm 0.00 in0.0 mm 0.00 in0.0 mm
07:21 AM 25.9°F-3.4°C 2.5°F-16.4°C 36% 8.3 mph NW13.4 kmh NW 11.9 mph19.2 kmh 30.33 in1027.1 mb 0.00 in0.0 mm 0.00 in0.0 mm 0.00 in0.0 mm
07:22 AM 25.9°F-3.4°C 2.5°F-16.4°C 36% 8.8 mph NW14.2 kmh NW 17.2 mph27.7 kmh 30.33 in1027.1 mb 0.00 in0.0 mm 0.00 in0.0 mm 0.00 in0.0 mm
07:23 AM 25.7°F-3.5°C 2.4°F-16.4°C 36% 8.4 mph NW13.5 kmh NW 17.2 mph27.7 kmh 30.33 in1027.1 mb 0.00 in0.0 mm 0.00 in0.0 mm 0.00 in0.0 mm
07:24 AM 25.7°F-3.5°C 2.4°F-16.4°C 36% 8.1 mph WNW13.0 kmh WNW 17.2 mph27.7 kmh 30.33 in1027.1 mb 0.00 in0.0 mm 0.00 in0.0 mm 0.00 in0.0 mm
07:25 AM 25.9°F-3.4°C 2.5°F-16.4°C 36% 7.6 mph WNW12.2 kmh WNW 17.2 mph27.7 kmh 30.33 in1027.1 mb 0.00 in0.0 mm 0.00 in0.0 mm 0.00 in0.0 mm
07:26 AM 25.7°F-3.5°C 2.4°F-16.4°C 36% 7.4 mph NW11.9 kmh NW 17.2 mph27.7 kmh 30.33 in1027.1 mb 0.00 in0.0 mm 0.00 in0.0 mm 0.00 in0.0 mm
07:27 AM 25.7°F-3.5°C 2.4°F-16.4°C 36% 7.4 mph NW11.9 kmh NW 17.2 mph27.7 kmh 30.33 in1027.1 mb 0.00 in0.0 mm 0.00 in0.0 mm 0.00 in0.0 mm
07:28 AM 25.7°F-3.5°C 3.0°F-16.1°C 37% 7.2 mph WNW11.6 kmh WNW 17.2 mph27.7 kmh 30.33 in1027.1 mb 0.00 in0.0 mm 0.00 in0.0 mm 0.00 in0.0 mm
07:29 AM 25.7°F-3.5°C 3.0°F-16.1°C 37% 7.3 mph NW11.7 kmh NW 17.2 mph27.7 kmh 30.33 in1027.1 mb 0.00 in0.0 mm 0.00 in0.0 mm 0.00 in0.0 mm
07:30 AM 25.7°F-3.5°C 2.4°F-16.4°C 36% 7.5 mph WNW12.1 kmh WNW 17.2 mph27.7 kmh 30.33 in1027.1 mb 0.00 in0.0 mm 0.00 in0.0 mm 0.00 in0.0 mm
07:31 AM 25.7°F-3.5°C 2.4°F-16.4°C 36% 7.7 mph NW12.4 kmh NW 17.2 mph27.7 kmh 30.33 in1027.1 mb 0.00 in0.0 mm 0.00 in0.0 mm 0.00 in0.0 mm
07:32 AM 25.7°F-3.5°C 2.4°F-16.4°C 36% 7.3 mph NW11.7 kmh NW 12.3 mph19.8 kmh 30.33 in1027.1 mb 0.00 in0.0 mm 0.00 in0.0 mm 0.00 in0.0 mm
07:33 AM 25.7°F-3.5°C 2.4°F-16.4°C 36% 7.7 mph NW12.4 kmh NW 12.3 mph19.8 kmh 30.33 in1027.1 mb 0.00 in0.0 mm 0.00 in0.0 mm 0.00 in0.0 mm
07:34 AM 25.7°F-3.5°C 2.4°F-16.4°C 36% 7.4 mph NW11.9 kmh NW 12.3 mph19.8 kmh 30.33 in1027.1 mb 0.00 in0.0 mm 0.00 in0.0 mm 0.00 in0.0 mm
07:35 AM 25.7°F-3.5°C 3.0°F-16.1°C 37% 7.9 mph NNW12.7 kmh NNW 12.3 mph19.8 kmh 30.33 in1027.1 mb 0.00 in0.0 mm 0.00 in0.0 mm 0.00 in0.0 mm
07:36 AM 25.7°F-3.5°C 3.0°F-16.1°C 37% 8.1 mph NNW13.0 kmh NNW 12.3 mph19.8 kmh 30.33 in1027.1 mb 0.00 in0.0 mm 0.00 in0.0 mm 0.00 in0.0 mm
07:37 AM 25.7°F-3.5°C 3.0°F-16.1°C 37% 8.1 mph NW13.0 kmh NW 12.3 mph19.8 kmh 30.33 in1027.1 mb 0.00 in0.0 mm 0.00 in0.0 mm 0.00 in0.0 mm
07:38 AM 25.7°F-3.5°C 3.0°F-16.1°C 37% 7.9 mph NW12.7 kmh NW 12.3 mph19.8 kmh 30.33 in1027.1 mb 0.00 in0.0 mm 0.00 in0.0 mm 0.00 in0.0 mm
07:39 AM 25.7°F-3.5°C 3.0°F-16.1°C 37% 7.7 mph NNW12.4 kmh NNW 12.3 mph19.8 kmh 30.33 in1027.1 mb 0.00 in0.0 mm 0.00 in0.0 mm 0.00 in0.0 mm
07:40 AM 25.7°F-3.5°C 3.0°F-16.1°C 37% 7.0 mph N11.3 kmh N 10.5 mph16.9 kmh 30.33 in1027.1 mb 0.00 in0.0 mm 0.00 in0.0 mm 0.00 in0.0 mm
07:41 AM 25.5°F-3.6°C 2.8°F-16.2°C 37% 7.0 mph NNW11.3 kmh NNW 10.7 mph17.2 kmh 30.33 in1027.1 mb 0.00 in0.0 mm 0.00 in0.0 mm 0.00 in0.0 mm
07:42 AM 25.5°F-3.6°C 2.8°F-16.2°C 37% 7.0 mph NNW11.3 kmh NNW 10.7 mph17.2 kmh 30.33 in1027.1 mb 0.00 in0.0 mm 0.00 in0.0 mm 0.00 in0.0 mm
07:43 AM 25.5°F-3.6°C 2.8°F-16.2°C 37% 7.3 mph NNW11.7 kmh NNW 10.7 mph17.2 kmh 30.33 in1027.1 mb 0.00 in0.0 mm 0.00 in0.0 mm 0.00 in0.0 mm
07:44 AM 25.5°F-3.6°C 2.8°F-16.2°C 37% 7.6 mph NNW12.2 kmh NNW 10.7 mph17.2 kmh 30.36 in1028.1 mb 0.00 in0.0 mm 0.00 in0.0 mm 0.00 in0.0 mm
07:45 AM 25.5°F-3.6°C 2.8°F-16.2°C 37% 7.5 mph NNW12.1 kmh NNW 10.7 mph17.2 kmh 30.36 in1028.1 mb 0.00 in0.0 mm 0.00 in0.0 mm 0.00 in0.0 mm
07:46 AM 25.5°F-3.6°C 2.8°F-16.2°C 37% 7.4 mph NW11.9 kmh NW 10.7 mph17.2 kmh 30.36 in1028.1 mb 0.00 in0.0 mm 0.00 in0.0 mm 0.00 in0.0 mm
07:47 AM 25.5°F-3.6°C 2.8°F-16.2°C 37% 7.2 mph NW11.6 kmh NW 10.7 mph17.2 kmh 30.36 in1028.1 mb 0.00 in0.0 mm 0.00 in0.0 mm 0.00 in0.0 mm
07:48 AM 25.5°F-3.6°C 2.8°F-16.2°C 37% 7.0 mph NW11.3 kmh NW 10.7 mph17.2 kmh 30.36 in1028.1 mb 0.00 in0.0 mm 0.00 in0.0 mm 0.00 in0.0 mm
07:49 AM 25.5°F-3.6°C 2.8°F-16.2°C 37% 7.0 mph NW11.3 kmh NW 10.7 mph17.2 kmh 30.36 in1028.1 mb 0.00 in0.0 mm 0.00 in0.0 mm 0.00 in0.0 mm
07:50 AM 25.5°F-3.6°C 2.8°F-16.2°C 37% 7.2 mph NW11.6 kmh NW 10.7 mph17.2 kmh 30.36 in1028.1 mb 0.00 in0.0 mm 0.00 in0.0 mm 0.00 in0.0 mm
07:51 AM 26.1°F-3.3°C 3.3°F-15.9°C 37% 7.5 mph NW12.1 kmh NW 10.7 mph17.2 kmh 30.36 in1028.1 mb 0.00 in0.0 mm 0.00 in0.0 mm 0.00 in0.0 mm
07:52 AM 26.1°F-3.3°C 3.3°F-15.9°C 37% 7.3 mph NW11.7 kmh NW 10.7 mph17.2 kmh 30.36 in1028.1 mb 0.00 in0.0 mm 0.00 in0.0 mm 0.00 in0.0 mm
07:53 AM 26.2°F-3.2°C 3.5°F-15.8°C 37% 6.7 mph NW10.8 kmh NW 10.3 mph16.6 kmh 30.36 in1028.1 mb 0.00 in0.0 mm 0.00 in0.0 mm 0.00 in0.0 mm
07:54 AM 26.2°F-3.2°C 3.5°F-15.8°C 37% 6.4 mph NW10.3 kmh NW 9.4 mph15.1 kmh 30.36 in1028.1 mb 0.00 in0.0 mm 0.00 in0.0 mm 0.00 in0.0 mm
07:55 AM 26.4°F-3.1°C 3.6°F-15.8°C 37% 6.1 mph NW9.8 kmh NW 9.4 mph15.1 kmh 30.36 in1028.1 mb 0.00 in0.0 mm 0.00 in0.0 mm 0.00 in0.0 mm
07:56 AM 26.4°F-3.1°C 3.6°F-15.8°C 37% 5.6 mph N9.0 kmh N 9.4 mph15.1 kmh 30.36 in1028.1 mb 0.00 in0.0 mm 0.00 in0.0 mm 0.00 in0.0 mm
07:57 AM 26.6°F-3.0°C 3.8°F-15.7°C 37% 5.7 mph N9.2 kmh N 9.4 mph15.1 kmh 30.36 in1028.1 mb 0.00 in0.0 mm 0.00 in0.0 mm 0.00 in0.0 mm
07:58 AM 26.6°F-3.0°C 3.8°F-15.7°C 37% 6.5 mph NNW10.5 kmh NNW 10.1 mph16.3 kmh 30.36 in1028.1 mb 0.00 in0.0 mm 0.00 in0.0 mm 0.00 in0.0 mm
07:59 AM 26.6°F-3.0°C 3.8°F-15.7°C 37% 6.4 mph N10.3 kmh N 10.1 mph16.3 kmh 30.36 in1028.1 mb 0.00 in0.0 mm 0.00 in0.0 mm 0.00 in0.0 mm
08:00 AM 26.8°F-2.9°C 3.9°F-15.6°C 37% 6.5 mph NW10.5 kmh NW 10.1 mph16.3 kmh 30.36 in1028.1 mb 0.00 in0.0 mm 0.00 in0.0 mm 0.00 in0.0 mm
08:01 AM 26.8°F-2.9°C 3.9°F-15.6°C 37% 6.5 mph NW10.5 kmh NW 10.1 mph16.3 kmh 30.36 in1028.1 mb 0.00 in0.0 mm 0.00 in0.0 mm 0.00 in0.0 mm
08:02 AM 26.8°F-2.9°C 3.4°F-15.9°C 36% 6.1 mph NW9.8 kmh NW 10.1 mph16.3 kmh 30.36 in1028.1 mb 0.00 in0.0 mm 0.00 in0.0 mm 0.00 in0.0 mm
08:03 AM 26.8°F-2.9°C 3.4°F-15.9°C 36% 5.8 mph NW9.3 kmh NW 10.1 mph16.3 kmh 30.36 in1028.1 mb 0.00 in0.0 mm 0.00 in0.0 mm 0.00 in0.0 mm
08:04 AM 26.8°F-2.9°C 3.9°F-15.6°C 37% 5.5 mph NW8.9 kmh NW 10.1 mph16.3 kmh 30.36 in1028.1 mb 0.00 in0.0 mm 0.00 in0.0 mm 0.00 in0.0 mm
08:05 AM 27.0°F-2.8°C 3.5°F-15.8°C 36% 5.3 mph NW8.5 kmh NW 10.1 mph16.3 kmh 30.36 in1028.1 mb 0.00 in0.0 mm 0.00 in0.0 mm 0.00 in0.0 mm
08:06 AM 27.0°F-2.8°C 3.5°F-15.8°C 36% 5.2 mph NW8.4 kmh NW 10.1 mph16.3 kmh 30.36 in1028.1 mb 0.00 in0.0 mm 0.00 in0.0 mm 0.00 in0.0 mm
08:07 AM 27.0°F-2.8°C 3.5°F-15.8°C 36% 6.0 mph NW9.7 kmh NW 10.1 mph16.3 kmh 30.36 in1028.1 mb 0.00 in0.0 mm 0.00 in0.0 mm 0.00 in0.0 mm
08:08 AM 27.0°F-2.8°C 3.5°F-15.8°C 36% 5.5 mph NW8.9 kmh NW 10.1 mph16.3 kmh 30.36 in1028.1 mb 0.00 in0.0 mm 0.00 in0.0 mm 0.00 in0.0 mm
08:09 AM 27.0°F-2.8°C 3.5°F-15.8°C 36% 5.7 mph NW9.2 kmh NW 10.1 mph16.3 kmh 30.36 in1028.1 mb 0.00 in0.0 mm 0.00 in0.0 mm 0.00 in0.0 mm
08:10 AM 27.0°F-2.8°C 3.5°F-15.8°C 36% 5.5 mph WNW8.9 kmh WNW 10.7 mph17.2 kmh 30.36 in1028.1 mb 0.00 in0.0 mm 0.00 in0.0 mm 0.00 in0.0 mm
08:11 AM 27.1°F-2.7°C 3.7°F-15.7°C 36% 5.6 mph WNW9.0 kmh WNW 10.7 mph17.2 kmh 30.36 in1028.1 mb 0.00 in0.0 mm 0.00 in0.0 mm 0.00 in0.0 mm
08:12 AM 27.1°F-2.7°C 4.3°F-15.4°C 37% 5.4 mph WNW8.7 kmh WNW 10.7 mph17.2 kmh 30.36 in1028.1 mb 0.00 in0.0 mm 0.00 in0.0 mm 0.00 in0.0 mm
08:13 AM 27.1°F-2.7°C 4.3°F-15.4°C 37% 5.4 mph WNW8.7 kmh WNW 10.7 mph17.2 kmh 30.36 in1028.1 mb 0.00 in0.0 mm 0.00 in0.0 mm 0.00 in0.0 mm
08:14 AM 27.1°F-2.7°C 3.7°F-15.7°C 36% 5.7 mph WNW9.2 kmh WNW 10.7 mph17.2 kmh 30.36 in1028.1 mb 0.00 in0.0 mm 0.00 in0.0 mm 0.00 in0.0 mm
08:15 AM 27.1°F-2.7°C 3.7°F-15.7°C 36% 5.8 mph WNW9.3 kmh WNW 10.7 mph17.2 kmh 30.36 in1028.1 mb 0.00 in0.0 mm 0.00 in0.0 mm 0.00 in0.0 mm
08:16 AM 27.3°F-2.6°C 3.8°F-15.7°C 36% 5.9 mph WNW9.5 kmh WNW 10.7 mph17.2 kmh 30.36 in1028.1 mb 0.00 in0.0 mm 0.00 in0.0 mm 0.00 in0.0 mm
08:17 AM 27.3°F-2.6°C 3.8°F-15.7°C 36% 5.7 mph WNW9.2 kmh WNW 10.7 mph17.2 kmh 30.36 in1028.1 mb 0.00 in0.0 mm 0.00 in0.0 mm 0.00 in0.0 mm
08:18 AM 27.3°F-2.6°C 3.8°F-15.7°C 36% 5.3 mph NW8.5 kmh NW 10.7 mph17.2 kmh 30.36 in1028.1 mb 0.00 in0.0 mm 0.00 in0.0 mm 0.00 in0.0 mm
08:19 AM 27.3°F-2.6°C 3.8°F-15.7°C 36% 5.2 mph WNW8.4 kmh WNW 10.7 mph17.2 kmh 30.36 in1028.1 mb 0.00 in0.0 mm 0.00 in0.0 mm 0.00 in0.0 mm
08:20 AM 27.3°F-2.6°C 3.8°F-15.7°C 36% 5.2 mph W8.4 kmh W 10.7 mph17.2 kmh 30.36 in1028.1 mb 0.00 in0.0 mm 0.00 in0.0 mm 0.00 in0.0 mm
08:21 AM 27.3°F-2.6°C 3.8°F-15.7°C 36% 4.7 mph ENE7.6 kmh ENE 6.5 mph10.5 kmh 30.36 in1028.1 mb 0.00 in0.0 mm 0.00 in0.0 mm 0.00 in0.0 mm
08:22 AM 27.3°F-2.6°C 3.8°F-15.7°C 36% 5.0 mph ENE8.0 kmh ENE 6.5 mph10.5 kmh 30.36 in1028.1 mb 0.00 in0.0 mm 0.00 in0.0 mm 0.00 in0.0 mm
08:23 AM 27.5°F-2.5°C 4.0°F-15.6°C 36% 4.9 mph NE7.9 kmh NE 6.5 mph10.5 kmh 30.36 in1028.1 mb 0.00 in0.0 mm 0.00 in0.0 mm 0.00 in0.0 mm
08:24 AM 27.5°F-2.5°C 4.0°F-15.6°C 36% 5.2 mph NW8.4 kmh NW 10.3 mph16.6 kmh 30.36 in1028.1 mb 0.00 in0.0 mm 0.00 in0.0 mm 0.00 in0.0 mm
08:25 AM 27.3°F-2.6°C 3.8°F-15.7°C 36% 5.4 mph NW8.7 kmh NW 10.3 mph16.6 kmh 30.36 in1028.1 mb 0.00 in0.0 mm 0.00 in0.0 mm 0.00 in0.0 mm
08:26 AM 27.3°F-2.6°C 3.8°F-15.7°C 36% 5.8 mph NW9.3 kmh NW 10.3 mph16.6 kmh 30.36 in1028.1 mb 0.00 in0.0 mm 0.00 in0.0 mm 0.00 in0.0 mm
08:27 AM 27.7°F-2.4°C 3.5°F-15.8°C 35% 6.0 mph NW9.7 kmh NW 10.3 mph16.6 kmh 30.36 in1028.1 mb 0.00 in0.0 mm 0.00 in0.0 mm 0.00 in0.0 mm
08:28 AM 27.3°F-2.6°C 3.2°F-16.0°C 35% 6.1 mph WNW9.8 kmh WNW 10.3 mph16.6 kmh 30.36 in1028.1 mb 0.00 in0.0 mm 0.00 in0.0 mm 0.00 in0.0 mm
08:29 AM 27.3°F-2.6°C 3.2°F-16.0°C 35% 6.4 mph NW10.3 kmh NW 10.7 mph17.2 kmh 30.39 in1029.1 mb 0.00 in0.0 mm 0.00 in0.0 mm 0.00 in0.0 mm
08:30 AM 27.5°F-2.5°C 3.4°F-15.9°C 35% 6.6 mph NW10.6 kmh NW 10.7 mph17.2 kmh 30.39 in1029.1 mb 0.00 in0.0 mm 0.00 in0.0 mm 0.00 in0.0 mm
08:31 AM 27.5°F-2.5°C 3.4°F-15.9°C 35% 7.0 mph NW11.3 kmh NW 12.5 mph20.1 kmh 30.39 in1029.1 mb 0.00 in0.0 mm 0.00 in0.0 mm 0.00 in0.0 mm
08:32 AM 27.5°F-2.5°C 3.4°F-15.9°C 35% 7.3 mph NW11.7 kmh NW 12.5 mph20.1 kmh 30.39 in1029.1 mb 0.00 in0.0 mm 0.00 in0.0 mm 0.00 in0.0 mm
08:33 AM 27.5°F-2.5°C 3.4°F-15.9°C 35% 7.4 mph NW11.9 kmh NW 12.5 mph20.1 kmh 30.39 in1029.1 mb 0.00 in0.0 mm 0.00 in0.0 mm 0.00 in0.0 mm
08:34 AM 27.5°F-2.5°C 3.4°F-15.9°C 35% 7.9 mph NW12.7 kmh NW 12.5 mph20.1 kmh 30.39 in1029.1 mb 0.00 in0.0 mm 0.00 in0.0 mm 0.00 in0.0 mm
08:35 AM 27.5°F-2.5°C 3.4°F-15.9°C 35% 7.9 mph NW12.7 kmh NW 12.5 mph20.1 kmh 30.39 in1029.1 mb 0.00 in0.0 mm 0.00 in0.0 mm 0.00 in0.0 mm
08:36 AM 27.5°F-2.5°C 3.4°F-15.9°C 35% 8.1 mph NW13.0 kmh NW 12.5 mph20.1 kmh 30.39 in1029.1 mb 0.00 in0.0 mm 0.00 in0.0 mm 0.00 in0.0 mm
08:37 AM 27.5°F-2.5°C 3.4°F-15.9°C 35% 8.1 mph NW13.0 kmh NW 12.5 mph20.1 kmh 30.39 in1029.1 mb 0.00 in0.0 mm 0.00 in0.0 mm 0.00 in0.0 mm
08:38 AM 27.5°F-2.5°C 3.4°F-15.9°C 35% 8.0 mph NW12.9 kmh NW 12.5 mph20.1 kmh 30.39 in1029.1 mb 0.00 in0.0 mm 0.00 in0.0 mm 0.00 in0.0 mm
08:39 AM 27.7°F-2.4°C 3.5°F-15.8°C 35% 7.6 mph NW12.2 kmh NW 12.5 mph20.1 kmh 30.39 in1029.1 mb 0.00 in0.0 mm 0.00 in0.0 mm 0.00 in0.0 mm
08:40 AM 27.7°F-2.4°C 3.5°F-15.8°C 35% 7.2 mph NW11.6 kmh NW 12.5 mph20.1 kmh 30.39 in1029.1 mb 0.00 in0.0 mm 0.00 in0.0 mm 0.00 in0.0 mm
08:41 AM 27.9°F-2.3°C 3.7°F-15.7°C 35% 7.0 mph NW11.3 kmh NW 12.3 mph19.8 kmh 30.39 in1029.1 mb 0.00 in0.0 mm 0.00 in0.0 mm 0.00 in0.0 mm
08:42 AM 27.9°F-2.3°C 3.7°F-15.7°C 35% 6.3 mph NW10.1 kmh NW 12.3 mph19.8 kmh 30.39 in1029.1 mb 0.00 in0.0 mm 0.00 in0.0 mm 0.00 in0.0 mm
08:43 AM 27.9°F-2.3°C 3.7°F-15.7°C 35% 6.0 mph NW9.7 kmh NW 12.3 mph19.8 kmh 30.39 in1029.1 mb 0.00 in0.0 mm 0.00 in0.0 mm 0.00 in0.0 mm
08:44 AM 28.0°F-2.2°C 3.9°F-15.6°C 35% 6.2 mph NW10.0 kmh NW 12.3 mph19.8 kmh 30.39 in1029.1 mb 0.00 in0.0 mm 0.00 in0.0 mm 0.00 in0.0 mm
08:45 AM 28.0°F-2.2°C 3.9°F-15.6°C 35% 6.0 mph NW9.7 kmh NW 12.3 mph19.8 kmh 30.39 in1029.1 mb 0.00 in0.0 mm 0.00 in0.0 mm 0.00 in0.0 mm
08:46 AM 28.0°F-2.2°C 3.9°F-15.6°C 35% 5.6 mph NW9.0 kmh NW 12.3 mph19.8 kmh 30.39 in1029.1 mb 0.00 in0.0 mm 0.00 in0.0 mm 0.00 in0.0 mm
08:47 AM 28.0°F-2.2°C 3.9°F-15.6°C 35% 5.4 mph NW8.7 kmh NW 12.3 mph19.8 kmh 30.39 in1029.1 mb 0.00 in0.0 mm 0.00 in0.0 mm 0.00 in0.0 mm
08:48 AM 28.4°F-2.0°C 4.2°F-15.4°C 35% 5.8 mph NW9.3 kmh NW 12.3 mph19.8 kmh 30.39 in1029.1 mb 0.00 in0.0 mm 0.00 in0.0 mm 0.00 in0.0 mm
08:49 AM 28.4°F-2.0°C 4.2°F-15.4°C 35% 5.9 mph NW9.5 kmh NW 12.3 mph19.8 kmh 30.39 in1029.1 mb 0.00 in0.0 mm 0.00 in0.0 mm 0.00 in0.0 mm
08:50 AM 28.4°F-2.0°C 4.2°F-15.4°C 35% 6.3 mph WNW10.1 kmh WNW 12.3 mph19.8 kmh 30.39 in1029.1 mb 0.00 in0.0 mm 0.00 in0.0 mm 0.00 in0.0 mm
08:51 AM 28.2°F-2.1°C 3.4°F-15.9°C 34% 6.3 mph WNW10.1 kmh WNW 10.7 mph17.2 kmh 30.39 in1029.1 mb 0.00 in0.0 mm 0.00 in0.0 mm 0.00 in0.0 mm
08:52 AM 28.2°F-2.1°C 3.4°F-15.9°C 34% 6.3 mph WNW10.1 kmh WNW 10.7 mph17.2 kmh 30.39 in1029.1 mb 0.00 in0.0 mm 0.00 in0.0 mm 0.00 in0.0 mm
08:53 AM 28.2°F-2.1°C 4.0°F-15.6°C 35% 6.5 mph WNW10.5 kmh WNW 10.7 mph17.2 kmh 30.39 in1029.1 mb 0.00 in0.0 mm 0.00 in0.0 mm 0.00 in0.0 mm
08:54 AM 28.2°F-2.1°C 4.0°F-15.6°C 35% 6.7 mph WNW10.8 kmh WNW 11.0 mph17.7 kmh 30.39 in1029.1 mb 0.00 in0.0 mm 0.00 in0.0 mm 0.00 in0.0 mm
08:55 AM 28.2°F-2.1°C 3.4°F-15.9°C 34% 7.1 mph WNW11.4 kmh WNW 11.0 mph17.7 kmh 30.39 in1029.1 mb 0.00 in0.0 mm 0.00 in0.0 mm 0.00 in0.0 mm
08:56 AM 28.2°F-2.1°C 3.4°F-15.9°C 34% 7.9 mph WNW12.7 kmh WNW 12.3 mph19.8 kmh 30.39 in1029.1 mb 0.00 in0.0 mm 0.00 in0.0 mm 0.00 in0.0 mm
08:57 AM 28.2°F-2.1°C 3.4°F-15.9°C 34% 8.7 mph WNW14.0 kmh WNW 15.4 mph24.8 kmh 30.39 in1029.1 mb 0.00 in0.0 mm 0.00 in0.0 mm 0.00 in0.0 mm
08:58 AM 28.2°F-2.1°C 3.4°F-15.9°C 34% 8.3 mph WNW13.4 kmh WNW 15.4 mph24.8 kmh 30.39 in1029.1 mb 0.00 in0.0 mm 0.00 in0.0 mm 0.00 in0.0 mm
08:59 AM 28.2°F-2.1°C 3.4°F-15.9°C 34% 8.6 mph WNW13.8 kmh WNW 15.4 mph24.8 kmh 30.39 in1029.1 mb 0.00 in0.0 mm 0.00 in0.0 mm 0.00 in0.0 mm
09:00 AM 28.2°F-2.1°C 3.4°F-15.9°C 34% 9.1 mph WNW14.6 kmh WNW 15.4 mph24.8 kmh 30.39 in1029.1 mb 0.00 in0.0 mm 0.00 in0.0 mm 0.00 in0.0 mm
09:01 AM 28.2°F-2.1°C 3.4°F-15.9°C 34% 8.7 mph WNW14.0 kmh WNW 15.4 mph24.8 kmh 30.39 in1029.1 mb 0.00 in0.0 mm 0.00 in0.0 mm 0.00 in0.0 mm
09:02 AM 27.9°F-2.3°C 3.1°F-16.1°C 34% 8.5 mph NW13.7 kmh NW 15.4 mph24.8 kmh 30.39 in1029.1 mb 0.00 in0.0 mm 0.00 in0.0 mm 0.00 in0.0 mm
09:03 AM 27.9°F-2.3°C 3.1°F-16.1°C 34% 9.2 mph NW14.8 kmh NW 15.4 mph24.8 kmh 30.39 in1029.1 mb 0.00 in0.0 mm 0.00 in0.0 mm 0.00 in0.0 mm
09:04 AM 28.2°F-2.1°C 3.4°F-15.9°C 34% 8.4 mph NW13.5 kmh NW 15.4 mph24.8 kmh 30.39 in1029.1 mb 0.00 in0.0 mm 0.00 in0.0 mm 0.00 in0.0 mm
09:05 AM 28.4°F-2.0°C 3.6°F-15.8°C 34% 8.1 mph WNW13.0 kmh WNW 15.4 mph24.8 kmh 30.39 in1029.1 mb 0.00 in0.0 mm 0.00 in0.0 mm 0.00 in0.0 mm
09:06 AM 28.4°F-2.0°C 3.6°F-15.8°C 34% 7.9 mph NW12.7 kmh NW 15.4 mph24.8 kmh 30.39 in1029.1 mb 0.00 in0.0 mm 0.00 in0.0 mm 0.00 in0.0 mm
09:07 AM 28.2°F-2.1°C 2.7°F-16.3°C 33% 7.6 mph NW12.2 kmh NW 12.8 mph20.6 kmh 30.39 in1029.1 mb 0.00 in0.0 mm 0.00 in0.0 mm 0.00 in0.0 mm
09:08 AM 28.2°F-2.1°C 2.7°F-16.3°C 33% 7.5 mph NW12.1 kmh NW 12.8 mph20.6 kmh 30.39 in1029.1 mb 0.00 in0.0 mm 0.00 in0.0 mm 0.00 in0.0 mm
09:09 AM 28.2°F-2.1°C 2.7°F-16.3°C 33% 7.5 mph NNW12.1 kmh NNW 12.8 mph20.6 kmh 30.39 in1029.1 mb 0.00 in0.0 mm 0.00 in0.0 mm 0.00 in0.0 mm
09:10 AM 28.2°F-2.1°C 2.7°F-16.3°C 33% 7.6 mph NW12.2 kmh NW 12.8 mph20.6 kmh 30.39 in1029.1 mb 0.00 in0.0 mm 0.00 in0.0 mm 0.00 in0.0 mm
09:11 AM 27.9°F-2.3°C 2.4°F-16.4°C 33% 7.7 mph NW12.4 kmh NW 12.8 mph20.6 kmh 30.39 in1029.1 mb 0.00 in0.0 mm 0.00 in0.0 mm 0.00 in0.0 mm
09:12 AM 28.0°F-2.2°C 2.6°F-16.3°C 33% 8.0 mph NW12.9 kmh NW 12.8 mph20.6 kmh 30.39 in1029.1 mb 0.00 in0.0 mm 0.00 in0.0 mm 0.00 in0.0 mm
09:13 AM 28.0°F-2.2°C 2.6°F-16.3°C 33% 7.9 mph NW12.7 kmh NW 12.8 mph20.6 kmh 30.39 in1029.1 mb 0.00 in0.0 mm 0.00 in0.0 mm 0.00 in0.0 mm
09:14 AM 28.2°F-2.1°C 2.7°F-16.3°C 33% 7.9 mph NW12.7 kmh NW 12.8 mph20.6 kmh 30.39 in1029.1 mb 0.00 in0.0 mm 0.00 in0.0 mm 0.00 in0.0 mm
09:15 AM 28.2°F-2.1°C 2.7°F-16.3°C 33% 7.9 mph NW12.7 kmh NW 12.8 mph20.6 kmh 30.39 in1029.1 mb 0.00 in0.0 mm 0.00 in0.0 mm 0.00 in0.0 mm
09:16 AM 28.6°F-1.9°C 3.1°F-16.1°C 33% 7.2 mph NW11.6 kmh NW 12.8 mph20.6 kmh 30.39 in1029.1 mb 0.00 in0.0 mm 0.00 in0.0 mm 0.00 in0.0 mm
09:17 AM 28.6°F-1.9°C 3.1°F-16.1°C 33% 6.8 mph NW10.9 kmh NW 11.0 mph17.7 kmh 30.39 in1029.1 mb 0.00 in0.0 mm 0.00 in0.0 mm 0.00 in0.0 mm
09:18 AM 28.6°F-1.9°C 3.1°F-16.1°C 33% 6.9 mph NW11.1 kmh NW 11.0 mph17.7 kmh 30.39 in1029.1 mb 0.00 in0.0 mm 0.00 in0.0 mm 0.00 in0.0 mm
09:19 AM 28.6°F-1.9°C 3.1°F-16.1°C 33% 6.5 mph NW10.5 kmh NW 11.0 mph17.7 kmh 30.39 in1029.1 mb 0.00 in0.0 mm 0.00 in0.0 mm 0.00 in0.0 mm
09:20 AM 28.8°F-1.8°C 3.2°F-16.0°C 33% 5.7 mph NW9.2 kmh NW 11.0 mph17.7 kmh 30.39 in1029.1 mb 0.00 in0.0 mm 0.00 in0.0 mm 0.00 in0.0 mm
09:21 AM 29.1°F-1.6°C 3.5°F-15.8°C 33% 5.1 mph NW8.2 kmh NW 10.1 mph16.3 kmh 30.39 in1029.1 mb 0.00 in0.0 mm 0.00 in0.0 mm 0.00 in0.0 mm
09:22 AM 29.1°F-1.6°C 3.5°F-15.8°C 33% 4.8 mph NW7.7 kmh NW 10.1 mph16.3 kmh 30.39 in1029.1 mb 0.00 in0.0 mm 0.00 in0.0 mm 0.00 in0.0 mm
09:23 AM 29.5°F-1.4°C 3.9°F-15.6°C 33% 4.4 mph NNW7.1 kmh NNW 8.7 mph14.0 kmh 30.39 in1029.1 mb 0.00 in0.0 mm 0.00 in0.0 mm 0.00 in0.0 mm
09:24 AM 29.5°F-1.4°C 3.9°F-15.6°C 33% 4.6 mph NNW7.4 kmh NNW 8.7 mph14.0 kmh 30.39 in1029.1 mb 0.00 in0.0 mm 0.00 in0.0 mm 0.00 in0.0 mm
09:25 AM 29.3°F-1.5°C 3.7°F-15.7°C 33% 5.4 mph NNW8.7 kmh NNW 13.2 mph21.2 kmh 30.39 in1029.1 mb 0.00 in0.0 mm 0.00 in0.0 mm 0.00 in0.0 mm
09:26 AM 29.3°F-1.5°C 3.7°F-15.7°C 33% 5.9 mph NNW9.5 kmh NNW 13.2 mph21.2 kmh 30.39 in1029.1 mb 0.00 in0.0 mm 0.00 in0.0 mm 0.00 in0.0 mm
09:27 AM 28.8°F-1.8°C 2.6°F-16.3°C 32% 6.4 mph NNW10.3 kmh NNW 13.2 mph21.2 kmh 30.39 in1029.1 mb 0.00 in0.0 mm 0.00 in0.0 mm 0.00 in0.0 mm
09:28 AM 28.6°F-1.9°C 2.4°F-16.4°C 32% 6.0 mph NW9.7 kmh NW 13.2 mph21.2 kmh 30.39 in1029.1 mb 0.00 in0.0 mm 0.00 in0.0 mm 0.00 in0.0 mm
09:29 AM 28.6°F-1.9°C 2.4°F-16.4°C 32% 5.8 mph NW9.3 kmh NW 13.2 mph21.2 kmh 30.42 in1030.1 mb 0.00 in0.0 mm 0.00 in0.0 mm 0.00 in0.0 mm
09:30 AM 28.8°F-1.8°C 2.6°F-16.3°C 32% 6.7 mph NW10.8 kmh NW 13.2 mph21.2 kmh 30.42 in1030.1 mb 0.00 in0.0 mm 0.00 in0.0 mm 0.00 in0.0 mm
09:31 AM 28.8°F-1.8°C 2.6°F-16.3°C 32% 7.4 mph NW11.9 kmh NW 13.2 mph21.2 kmh 30.42 in1030.1 mb 0.00 in0.0 mm 0.00 in0.0 mm 0.00 in0.0 mm
09:32 AM 28.8°F-1.8°C 2.6°F-16.3°C 32% 7.7 mph NW12.4 kmh NW 13.2 mph21.2 kmh 30.42 in1030.1 mb 0.00 in0.0 mm 0.00 in0.0 mm 0.00 in0.0 mm
09:33 AM 28.8°F-1.8°C 2.6°F-16.3°C 32% 8.2 mph WNW13.2 kmh WNW 13.2 mph21.2 kmh 30.42 in1030.1 mb 0.00 in0.0 mm 0.00 in0.0 mm 0.00 in0.0 mm
09:34 AM 28.8°F-1.8°C 2.6°F-16.3°C 32% 8.3 mph WNW13.4 kmh WNW 13.2 mph21.2 kmh 30.42 in1030.1 mb 0.00 in0.0 mm 0.00 in0.0 mm 0.00 in0.0 mm
09:35 AM 28.6°F-1.9°C 1.7°F-16.8°C 31% 8.9 mph NW14.3 kmh NW 15.7 mph25.3 kmh 30.42 in1030.1 mb 0.00 in0.0 mm 0.00 in0.0 mm 0.00 in0.0 mm
09:36 AM 28.6°F-1.9°C 1.7°F-16.8°C 31% 8.6 mph NW13.8 kmh NW 15.7 mph25.3 kmh 30.42 in1030.1 mb 0.00 in0.0 mm 0.00 in0.0 mm 0.00 in0.0 mm
09:37 AM 28.6°F-1.9°C 2.4°F-16.4°C 32% 9.1 mph NW14.6 kmh NW 15.7 mph25.3 kmh 30.42 in1030.1 mb 0.00 in0.0 mm 0.00 in0.0 mm 0.00 in0.0 mm
09:38 AM 28.6°F-1.9°C 2.4°F-16.4°C 32% 9.5 mph NW15.3 kmh NW 15.7 mph25.3 kmh 30.42 in1030.1 mb 0.00 in0.0 mm 0.00 in0.0 mm 0.00 in0.0 mm
09:39 AM 28.6°F-1.9°C 1.7°F-16.8°C 31% 10.8 mph NW17.4 kmh NW 15.7 mph25.3 kmh 30.42 in1030.1 mb 0.00 in0.0 mm 0.00 in0.0 mm 0.00 in0.0 mm
09:40 AM 28.6°F-1.9°C 1.7°F-16.8°C 31% 10.7 mph NW17.2 kmh NW 15.7 mph25.3 kmh 30.42 in1030.1 mb 0.00 in0.0 mm 0.00 in0.0 mm 0.00 in0.0 mm
09:41 AM 28.6°F-1.9°C 2.4°F-16.4°C 32% 10.8 mph NW17.4 kmh NW 15.7 mph25.3 kmh 30.42 in1030.1 mb 0.00 in0.0 mm 0.00 in0.0 mm 0.00 in0.0 mm
09:42 AM 28.6°F-1.9°C 2.4°F-16.4°C 32% 10.6 mph NW17.1 kmh NW 15.7 mph25.3 kmh 30.42 in1030.1 mb 0.00 in0.0 mm 0.00 in0.0 mm 0.00 in0.0 mm
09:43 AM 28.8°F-1.8°C 2.6°F-16.3°C 32% 10.4 mph NW16.7 kmh NW 15.7 mph25.3 kmh 30.42 in1030.1 mb 0.00 in0.0 mm 0.00 in0.0 mm 0.00 in0.0 mm
09:44 AM 29.1°F-1.6°C 2.9°F-16.2°C 32% 10.0 mph NW16.1 kmh NW 15.7 mph25.3 kmh 30.42 in1030.1 mb 0.00 in0.0 mm 0.00 in0.0 mm 0.00 in0.0 mm
09:45 AM 29.1°F-1.6°C 2.9°F-16.2°C 32% 9.2 mph NW14.8 kmh NW 15.4 mph24.8 kmh 30.42 in1030.1 mb 0.00 in0.0 mm 0.00 in0.0 mm 0.00 in0.0 mm
09:46 AM 28.8°F-1.8°C 1.9°F-16.7°C 31% 9.4 mph NW15.1 kmh NW 15.4 mph24.8 kmh 30.42 in1030.1 mb 0.00 in0.0 mm 0.00 in0.0 mm 0.00 in0.0 mm
09:47 AM 28.8°F-1.8°C 1.9°F-16.7°C 31% 9.1 mph NW14.6 kmh NW 15.4 mph24.8 kmh 30.42 in1030.1 mb 0.00 in0.0 mm 0.00 in0.0 mm 0.00 in0.0 mm
09:48 AM 28.9°F-1.7°C 2.0°F-16.7°C 31% 9.1 mph NW14.6 kmh NW 15.4 mph24.8 kmh 30.42 in1030.1 mb 0.00 in0.0 mm 0.00 in0.0 mm 0.00 in0.0 mm
09:49 AM 28.9°F-1.7°C 2.0°F-16.7°C 31% 7.9 mph NW12.7 kmh NW 12.1 mph19.5 kmh 30.42 in1030.1 mb 0.00 in0.0 mm 0.00 in0.0 mm 0.00 in0.0 mm
09:50 AM 29.3°F-1.5°C 3.0°F-16.1°C 32% 7.6 mph NNW12.2 kmh NNW 12.1 mph19.5 kmh 30.42 in1030.1 mb 0.00 in0.0 mm 0.00 in0.0 mm 0.00 in0.0 mm
09:51 AM 29.1°F-1.6°C 2.2°F-16.6°C 31% 7.5 mph N12.1 kmh N 12.1 mph19.5 kmh 30.42 in1030.1 mb 0.00 in0.0 mm 0.00 in0.0 mm 0.00 in0.0 mm
09:52 AM 29.1°F-1.6°C 2.2°F-16.6°C 31% 7.5 mph N12.1 kmh N 12.1 mph19.5 kmh 30.42 in1030.1 mb 0.00 in0.0 mm 0.00 in0.0 mm 0.00 in0.0 mm
09:53 AM 29.5°F-1.4°C 2.5°F-16.4°C 31% 6.9 mph NNE11.1 kmh NNE 12.1 mph19.5 kmh 30.42 in1030.1 mb 0.00 in0.0 mm 0.00 in0.0 mm 0.00 in0.0 mm
09:54 AM 29.5°F-1.4°C 2.5°F-16.4°C 31% 7.0 mph NNE11.3 kmh NNE 12.1 mph19.5 kmh 30.42 in1030.1 mb 0.00 in0.0 mm 0.00 in0.0 mm 0.00 in0.0 mm
09:55 AM 29.7°F-1.3°C 2.7°F-16.3°C 31% 6.4 mph NE10.3 kmh NE 12.1 mph19.5 kmh 30.42 in1030.1 mb 0.00 in0.0 mm 0.00 in0.0 mm 0.00 in0.0 mm
09:56 AM 29.7°F-1.3°C 2.7°F-16.3°C 31% 6.1 mph NE9.8 kmh NE 12.1 mph19.5 kmh 30.42 in1030.1 mb 0.00 in0.0 mm 0.00 in0.0 mm 0.00 in0.0 mm
09:57 AM 29.7°F-1.3°C 2.7°F-16.3°C 31% 6.1 mph NE9.8 kmh NE 12.1 mph19.5 kmh 30.42 in1030.1 mb 0.00 in0.0 mm 0.00 in0.0 mm 0.00 in0.0 mm
09:58 AM 30.0°F-1.1°C 3.0°F-16.1°C 31% 4.8 mph N7.7 kmh N 7.6 mph12.2 kmh 30.42 in1030.1 mb 0.00 in0.0 mm 0.00 in0.0 mm 0.00 in0.0 mm
09:59 AM 30.0°F-1.1°C 3.0°F-16.1°C 31% 5.0 mph N8.0 kmh N 8.7 mph14.0 kmh 30.42 in1030.1 mb 0.00 in0.0 mm 0.00 in0.0 mm 0.00 in0.0 mm
10:00 AM 29.7°F-1.3°C 2.0°F-16.7°C 30% 5.4 mph NNW8.7 kmh NNW 8.7 mph14.0 kmh 30.42 in1030.1 mb 0.00 in0.0 mm 0.00 in0.0 mm 0.00 in0.0 mm
10:01 AM 29.7°F-1.3°C 2.0°F-16.7°C 30% 5.4 mph NW8.7 kmh NW 8.7 mph14.0 kmh 30.42 in1030.1 mb 0.00 in0.0 mm 0.00 in0.0 mm 0.00 in0.0 mm
10:02 AM 29.5°F-1.4°C 0.3°F-17.6°C 28% 5.3 mph NW8.5 kmh NW 8.7 mph14.0 kmh 30.42 in1030.1 mb 0.00 in0.0 mm 0.00 in0.0 mm 0.00 in0.0 mm
10:03 AM 29.5°F-1.4°C 0.3°F-17.6°C 28% 5.8 mph WNW9.3 kmh WNW 8.7 mph14.0 kmh 30.42 in1030.1 mb 0.00 in0.0 mm 0.00 in0.0 mm 0.00 in0.0 mm
10:04 AM 29.7°F-1.3°C 0.5°F-17.5°C 28% 6.3 mph NW10.1 kmh NW 10.7 mph17.2 kmh 30.42 in1030.1 mb 0.00 in0.0 mm 0.00 in0.0 mm 0.00 in0.0 mm
10:05 AM 29.7°F-1.3°C 0.5°F-17.5°C 28% 7.3 mph W11.7 kmh W 11.0 mph17.7 kmh 30.42 in1030.1 mb 0.00 in0.0 mm 0.00 in0.0 mm 0.00 in0.0 mm
10:06 AM 29.7°F-1.3°C -1.9°F-18.8°C 25% 8.1 mph W13.0 kmh W 12.8 mph20.6 kmh 30.42 in1030.1 mb 0.00 in0.0 mm 0.00 in0.0 mm 0.00 in0.0 mm
10:07 AM 29.7°F-1.3°C -3.7°F-19.8°C 23% 7.8 mph WNW12.6 kmh WNW 12.8 mph20.6 kmh 30.42 in1030.1 mb 0.00 in0.0 mm 0.00 in0.0 mm 0.00 in0.0 mm
10:08 AM 29.7°F-1.3°C -3.7°F-19.8°C 23% 7.8 mph WNW12.6 kmh WNW 12.8 mph20.6 kmh 30.42 in1030.1 mb 0.00 in0.0 mm 0.00 in0.0 mm 0.00 in0.0 mm
10:09 AM 29.8°F-1.2°C -1.8°F-18.8°C 25% 8.3 mph WNW13.4 kmh WNW 12.8 mph20.6 kmh 30.42 in1030.1 mb 0.00 in0.0 mm 0.00 in0.0 mm 0.00 in0.0 mm
10:10 AM 29.8°F-1.2°C -1.8°F-18.8°C 25% 8.1 mph W13.0 kmh W 12.8 mph20.6 kmh 30.42 in1030.1 mb 0.00 in0.0 mm 0.00 in0.0 mm 0.00 in0.0 mm
10:11 AM 29.8°F-1.2°C -6.4°F-21.3°C 20% 8.0 mph SW12.9 kmh SW 12.8 mph20.6 kmh 30.42 in1030.1 mb 0.00 in0.0 mm 0.00 in0.0 mm 0.00 in0.0 mm
10:12 AM 29.8°F-1.2°C -6.4°F-21.3°C 20% 8.1 mph WSW13.0 kmh WSW 12.8 mph20.6 kmh 30.42 in1030.1 mb 0.00 in0.0 mm 0.00 in0.0 mm 0.00 in0.0 mm
10:13 AM 29.7°F-1.3°C -6.6°F-21.4°C 20% 7.9 mph WNW12.7 kmh WNW 12.8 mph20.6 kmh 30.42 in1030.1 mb 0.00 in0.0 mm 0.00 in0.0 mm 0.00 in0.0 mm
10:14 AM 30.2°F-1.0°C -3.2°F-19.6°C 23% 7.2 mph WNW11.6 kmh WNW 12.8 mph20.6 kmh 30.45 in1031.2 mb 0.00 in0.0 mm 0.00 in0.0 mm 0.00 in0.0 mm
10:15 AM 30.2°F-1.0°C -3.2°F-19.6°C 23% 7.3 mph WNW11.7 kmh WNW 12.8 mph20.6 kmh 30.45 in1031.2 mb 0.00 in0.0 mm 0.00 in0.0 mm 0.00 in0.0 mm
10:16 AM 30.2°F-1.0°C -6.1°F-21.2°C 20% 6.9 mph NW11.1 kmh NW 11.0 mph17.7 kmh 30.45 in1031.2 mb 0.00 in0.0 mm 0.00 in0.0 mm 0.00 in0.0 mm
10:17 AM 30.2°F-1.0°C -6.1°F-21.2°C 20% 7.4 mph NW11.9 kmh NW 12.8 mph20.6 kmh 30.45 in1031.2 mb 0.00 in0.0 mm 0.00 in0.0 mm 0.00 in0.0 mm
10:18 AM 30.0°F-1.1°C -6.3°F-21.3°C 20% 7.2 mph NW11.6 kmh NW 12.8 mph20.6 kmh 30.45 in1031.2 mb 0.00 in0.0 mm 0.00 in0.0 mm 0.00 in0.0 mm
10:19 AM 30.0°F-1.1°C -6.3°F-21.3°C 20% 7.3 mph NW11.7 kmh NW 12.8 mph20.6 kmh 30.45 in1031.2 mb 0.00 in0.0 mm 0.00 in0.0 mm 0.00 in0.0 mm
10:20 AM 30.0°F-1.1°C -6.3°F-21.3°C 20% 7.9 mph NW12.7 kmh NW 12.8 mph20.6 kmh 30.45 in1031.2 mb 0.00 in0.0 mm 0.00 in0.0 mm 0.00 in0.0 mm
10:21 AM 30.2°F-1.0°C -8.3°F-22.4°C 18% 8.7 mph NW14.0 kmh NW 15.2 mph24.5 kmh 30.45 in1031.2 mb 0.00 in0.0 mm 0.00 in0.0 mm 0.00 in0.0 mm
10:22 AM 30.2°F-1.0°C -8.3°F-22.4°C 18% 8.7 mph NW14.0 kmh NW 15.2 mph24.5 kmh 30.45 in1031.2 mb 0.00 in0.0 mm 0.00 in0.0 mm 0.00 in0.0 mm
10:23 AM 30.0°F-1.1°C -8.5°F-22.5°C 18% 8.8 mph NW14.2 kmh NW 15.2 mph24.5 kmh 30.45 in1031.2 mb 0.00 in0.0 mm 0.00 in0.0 mm 0.00 in0.0 mm
10:24 AM 30.0°F-1.1°C -8.5°F-22.5°C 18% 8.9 mph NW14.3 kmh NW 15.2 mph24.5 kmh 30.45 in1031.2 mb 0.00 in0.0 mm 0.00 in0.0 mm 0.00 in0.0 mm
10:25 AM 30.0°F-1.1°C -12.2°F-24.6°C 15% 9.3 mph NNW15.0 kmh NNW 15.2 mph24.5 kmh 30.45 in1031.2 mb 0.00 in0.0 mm 0.00 in0.0 mm 0.00 in0.0 mm
10:26 AM 30.0°F-1.1°C -12.2°F-24.6°C 15% 9.0 mph NNW14.5 kmh NNW 15.2 mph24.5 kmh 30.45 in1031.2 mb 0.00 in0.0 mm 0.00 in0.0 mm 0.00 in0.0 mm
10:27 AM 30.0°F-1.1°C -8.5°F-22.5°C 18% 8.3 mph NNW13.4 kmh NNW 15.2 mph24.5 kmh 30.45 in1031.2 mb 0.00 in0.0 mm 0.00 in0.0 mm 0.00 in0.0 mm
10:28 AM 30.0°F-1.1°C -8.5°F-22.5°C 18% 8.8 mph NNW14.2 kmh NNW 15.2 mph24.5 kmh 30.45 in1031.2 mb 0.00 in0.0 mm 0.00 in0.0 mm 0.00 in0.0 mm
10:29 AM 30.0°F-1.1°C -12.2°F-24.6°C 15% 8.6 mph NNW13.8 kmh NNW 15.2 mph24.5 kmh 30.45 in1031.2 mb 0.00 in0.0 mm 0.00 in0.0 mm 0.00 in0.0 mm
10:30 AM 30.2°F-1.0°C -12.0°F-24.4°C 15% 8.0 mph N12.9 kmh N 15.2 mph24.5 kmh 30.45 in1031.2 mb 0.00 in0.0 mm 0.00 in0.0 mm 0.00 in0.0 mm
10:31 AM 30.2°F-1.0°C -12.0°F-24.4°C 15% 6.9 mph N11.1 kmh N 10.1 mph16.3 kmh 30.45 in1031.2 mb 0.00 in0.0 mm 0.00 in0.0 mm 0.00 in0.0 mm
10:32 AM 30.6°F-0.8°C -11.7°F-24.3°C 15% 6.8 mph N10.9 kmh N 10.1 mph16.3 kmh 30.45 in1031.2 mb 0.00 in0.0 mm 0.00 in0.0 mm 0.00 in0.0 mm
10:33 AM 30.6°F-0.8°C -11.7°F-24.3°C 15% 6.7 mph N10.8 kmh N 10.1 mph16.3 kmh 30.45 in1031.2 mb 0.00 in0.0 mm 0.00 in0.0 mm 0.00 in0.0 mm
10:34 AM 30.7°F-0.7°C -7.9°F-22.2°C 18% 6.4 mph N10.3 kmh N 10.1 mph16.3 kmh 30.45 in1031.2 mb 0.00 in0.0 mm 0.00 in0.0 mm 0.00 in0.0 mm
10:35 AM 30.7°F-0.7°C -7.9°F-22.2°C 18% 6.1 mph NNW9.8 kmh NNW 10.1 mph16.3 kmh 30.45 in1031.2 mb 0.00 in0.0 mm 0.00 in0.0 mm 0.00 in0.0 mm
10:36 AM 31.1°F-0.5°C -11.3°F-24.1°C 15% 6.4 mph NNW10.3 kmh NNW 10.7 mph17.2 kmh 30.45 in1031.2 mb 0.00 in0.0 mm 0.00 in0.0 mm 0.00 in0.0 mm
10:37 AM 31.1°F-0.5°C -11.3°F-24.1°C 15% 6.6 mph NNW10.6 kmh NNW 10.7 mph17.2 kmh 30.45 in1031.2 mb 0.00 in0.0 mm 0.00 in0.0 mm 0.00 in0.0 mm
10:38 AM 31.1°F-0.5°C -11.3°F-24.1°C 15% 6.5 mph NNW10.5 kmh NNW 10.7 mph17.2 kmh 30.45 in1031.2 mb 0.00 in0.0 mm 0.00 in0.0 mm 0.00 in0.0 mm
10:39 AM 31.1°F-0.5°C -11.3°F-24.1°C 15% 6.1 mph NNW9.8 kmh NNW 10.7 mph17.2 kmh 30.45 in1031.2 mb 0.00 in0.0 mm 0.00 in0.0 mm 0.00 in0.0 mm
10:40 AM 31.1°F-0.5°C -11.3°F-24.1°C 15% 5.8 mph NNW9.3 kmh NNW 10.7 mph17.2 kmh 30.45 in1031.2 mb 0.00 in0.0 mm 0.00 in0.0 mm 0.00 in0.0 mm
10:41 AM 31.3°F-0.4°C -11.1°F-23.9°C 15% 5.3 mph NW8.5 kmh NW 10.7 mph17.2 kmh 30.45 in1031.2 mb 0.00 in0.0 mm 0.00 in0.0 mm 0.00 in0.0 mm
10:42 AM 31.3°F-0.4°C -11.1°F-23.9°C 15% 5.3 mph NW8.5 kmh NW 10.7 mph17.2 kmh 30.45 in1031.2 mb 0.00 in0.0 mm 0.00 in0.0 mm 0.00 in0.0 mm
10:43 AM 31.1°F-0.5°C -14.1°F-25.6°C 13% 5.1 mph NNW8.2 kmh NNW 10.7 mph17.2 kmh 30.45 in1031.2 mb 0.00 in0.0 mm 0.00 in0.0 mm 0.00 in0.0 mm
10:44 AM 31.3°F-0.4°C -14.0°F-25.6°C 13% 6.0 mph NNW9.7 kmh NNW 10.7 mph17.2 kmh 30.45 in1031.2 mb 0.00 in0.0 mm 0.00 in0.0 mm 0.00 in0.0 mm
10:45 AM 31.3°F-0.4°C -14.0°F-25.6°C 13% 6.0 mph NW9.7 kmh NW 10.7 mph17.2 kmh 30.45 in1031.2 mb 0.00 in0.0 mm 0.00 in0.0 mm 0.00 in0.0 mm
10:46 AM 31.3°F-0.4°C -14.0°F-25.6°C 13% 5.7 mph NW9.2 kmh NW 10.1 mph16.3 kmh 30.45 in1031.2 mb 0.00 in0.0 mm 0.00 in0.0 mm 0.00 in0.0 mm
10:47 AM 31.3°F-0.4°C -14.0°F-25.6°C 13% 5.5 mph NW8.9 kmh NW 10.1 mph16.3 kmh 30.45 in1031.2 mb 0.00 in0.0 mm 0.00 in0.0 mm 0.00 in0.0 mm
10:48 AM 31.5°F-0.3°C -13.8°F-25.4°C 13% 5.4 mph NW8.7 kmh NW 10.1 mph16.3 kmh 30.45 in1031.2 mb 0.00 in0.0 mm 0.00 in0.0 mm 0.00 in0.0 mm
10:49 AM 31.5°F-0.3°C -13.8°F-25.4°C 13% 5.2 mph NW8.4 kmh NW 10.1 mph16.3 kmh 30.45 in1031.2 mb 0.00 in0.0 mm 0.00 in0.0 mm 0.00 in0.0 mm
10:50 AM 31.5°F-0.3°C -15.4°F-26.3°C 12% 5.1 mph NW8.2 kmh NW 10.1 mph16.3 kmh 30.45 in1031.2 mb 0.00 in0.0 mm 0.00 in0.0 mm 0.00 in0.0 mm
10:51 AM 31.3°F-0.4°C -15.6°F-26.4°C 12% 6.0 mph NW9.7 kmh NW 10.3 mph16.6 kmh 30.45 in1031.2 mb 0.00 in0.0 mm 0.00 in0.0 mm 0.00 in0.0 mm
10:52 AM 31.3°F-0.4°C -15.6°F-26.4°C 12% 5.9 mph NW9.5 kmh NW 10.3 mph16.6 kmh 30.45 in1031.2 mb 0.00 in0.0 mm 0.00 in0.0 mm 0.00 in0.0 mm
10:53 AM 31.3°F-0.4°C -15.6°F-26.4°C 12% 6.4 mph NW10.3 kmh NW 10.3 mph16.6 kmh 30.45 in1031.2 mb 0.00 in0.0 mm 0.00 in0.0 mm 0.00 in0.0 mm
10:54 AM 31.3°F-0.4°C -15.6°F-26.4°C 12% 6.1 mph NW9.8 kmh NW 10.3 mph16.6 kmh 30.45 in1031.2 mb 0.00 in0.0 mm 0.00 in0.0 mm 0.00 in0.0 mm
10:55 AM 31.5°F-0.3°C -15.4°F-26.3°C 12% 6.1 mph NW9.8 kmh NW 10.3 mph16.6 kmh 30.45 in1031.2 mb 0.00 in0.0 mm 0.00 in0.0 mm 0.00 in0.0 mm
10:56 AM 31.5°F-0.3°C -15.4°F-26.3°C 12% 6.0 mph NW9.7 kmh NW 10.3 mph16.6 kmh 30.45 in1031.2 mb 0.00 in0.0 mm 0.00 in0.0 mm 0.00 in0.0 mm
10:57 AM 31.5°F-0.3°C -15.4°F-26.3°C 12% 6.4 mph NW10.3 kmh NW 10.3 mph16.6 kmh 30.45 in1031.2 mb 0.00 in0.0 mm 0.00 in0.0 mm 0.00 in0.0 mm
10:58 AM 31.5°F-0.3°C -15.4°F-26.3°C 12% 6.5 mph NW10.5 kmh NW 10.3 mph16.6 kmh 30.45 in1031.2 mb 0.00 in0.0 mm 0.00 in0.0 mm 0.00 in0.0 mm
10:59 AM 31.6°F-0.2°C -15.3°F-26.3°C 12% 6.9 mph NW11.1 kmh NW 10.3 mph16.6 kmh 30.42 in1030.1 mb 0.00 in0.0 mm 0.00 in0.0 mm 0.00 in0.0 mm
11:00 AM 31.6°F-0.2°C -15.3°F-26.3°C 12% 7.3 mph NW11.7 kmh NW 10.3 mph16.6 kmh 30.42 in1030.1 mb 0.00 in0.0 mm 0.00 in0.0 mm 0.00 in0.0 mm
11:01 AM 31.6°F-0.2°C -15.3°F-26.3°C 12% 7.5 mph NW12.1 kmh NW 13.4 mph21.6 kmh 30.42 in1030.1 mb 0.00 in0.0 mm 0.00 in0.0 mm 0.00 in0.0 mm
11:02 AM 31.1°F-0.5°C -15.7°F-26.5°C 12% 8.2 mph NW13.2 kmh NW 13.4 mph21.6 kmh 30.42 in1030.1 mb 0.00 in0.0 mm 0.00 in0.0 mm 0.00 in0.0 mm
11:03 AM 31.1°F-0.5°C -15.7°F-26.5°C 12% 8.1 mph NW13.0 kmh NW 13.4 mph21.6 kmh 30.42 in1030.1 mb 0.00 in0.0 mm 0.00 in0.0 mm 0.00 in0.0 mm
11:04 AM 31.1°F-0.5°C -15.7°F-26.5°C 12% 7.9 mph NW12.7 kmh NW 13.4 mph21.6 kmh 30.42 in1030.1 mb 0.00 in0.0 mm 0.00 in0.0 mm 0.00 in0.0 mm
11:05 AM 31.1°F-0.5°C -15.7°F-26.5°C 12% 8.2 mph NW13.2 kmh NW 13.4 mph21.6 kmh 30.42 in1030.1 mb 0.00 in0.0 mm 0.00 in0.0 mm 0.00 in0.0 mm
11:06 AM 31.1°F-0.5°C -15.7°F-26.5°C 12% 8.1 mph NW13.0 kmh NW 13.4 mph21.6 kmh 30.42 in1030.1 mb 0.00 in0.0 mm 0.00 in0.0 mm 0.00 in0.0 mm
11:07 AM 31.1°F-0.5°C -15.7°F-26.5°C 12% 7.7 mph NW12.4 kmh NW 13.4 mph21.6 kmh 30.42 in1030.1 mb 0.00 in0.0 mm 0.00 in0.0 mm 0.00 in0.0 mm
11:08 AM 31.1°F-0.5°C -15.7°F-26.5°C 12% 7.7 mph NW12.4 kmh NW 13.4 mph21.6 kmh 30.42 in1030.1 mb 0.00 in0.0 mm 0.00 in0.0 mm 0.00 in0.0 mm
11:09 AM 31.3°F-0.4°C -15.6°F-26.4°C 12% 7.7 mph NW12.4 kmh NW 13.4 mph21.6 kmh 30.42 in1030.1 mb 0.00 in0.0 mm 0.00 in0.0 mm 0.00 in0.0 mm
11:10 AM 31.3°F-0.4°C -15.6°F-26.4°C 12% 7.6 mph NW12.2 kmh NW 13.4 mph21.6 kmh 30.42 in1030.1 mb 0.00 in0.0 mm 0.00 in0.0 mm 0.00 in0.0 mm
11:11 AM 31.3°F-0.4°C -15.6°F-26.4°C 12% 8.4 mph NW13.5 kmh NW 13.4 mph21.6 kmh 30.42 in1030.1 mb 0.00 in0.0 mm 0.00 in0.0 mm 0.00 in0.0 mm
11:12 AM 31.3°F-0.4°C -15.6°F-26.4°C 12% 8.4 mph NW13.5 kmh NW 13.4 mph21.6 kmh 30.42 in1030.1 mb 0.00 in0.0 mm 0.00 in0.0 mm 0.00 in0.0 mm
11:13 AM 31.3°F-0.4°C -15.6°F-26.4°C 12% 8.4 mph NW13.5 kmh NW 13.4 mph21.6 kmh 30.42 in1030.1 mb 0.00 in0.0 mm 0.00 in0.0 mm 0.00 in0.0 mm
11:14 AM 31.6°F-0.2°C -15.3°F-26.3°C 12% 8.4 mph NW13.5 kmh NW 12.8 mph20.6 kmh 30.42 in1030.1 mb 0.00 in0.0 mm 0.00 in0.0 mm 0.00 in0.0 mm
11:15 AM 31.6°F-0.2°C -15.3°F-26.3°C 12% 8.1 mph NW13.0 kmh NW 12.8 mph20.6 kmh 30.42 in1030.1 mb 0.00 in0.0 mm 0.00 in0.0 mm 0.00 in0.0 mm
11:16 AM 31.1°F-0.5°C -15.7°F-26.5°C 12% 7.8 mph NW12.6 kmh NW 12.8 mph20.6 kmh 30.42 in1030.1 mb 0.00 in0.0 mm 0.00 in0.0 mm 0.00 in0.0 mm
11:17 AM 31.1°F-0.5°C -15.7°F-26.5°C 12% 7.8 mph NW12.6 kmh NW 12.8 mph20.6 kmh 30.42 in1030.1 mb 0.00 in0.0 mm 0.00 in0.0 mm 0.00 in0.0 mm
11:18 AM 31.1°F-0.5°C -15.7°F-26.5°C 12% 7.6 mph NW12.2 kmh NW 12.8 mph20.6 kmh 30.42 in1030.1 mb 0.00 in0.0 mm 0.00 in0.0 mm 0.00 in0.0 mm
11:19 AM 31.1°F-0.5°C -15.7°F-26.5°C 12% 7.6 mph NW12.2 kmh NW 12.8 mph20.6 kmh 30.42 in1030.1 mb 0.00 in0.0 mm 0.00 in0.0 mm 0.00 in0.0 mm
11:20 AM 31.5°F-0.3°C -15.4°F-26.3°C 12% 7.5 mph NW12.1 kmh NW 12.8 mph20.6 kmh 30.42 in1030.1 mb 0.00 in0.0 mm 0.00 in0.0 mm 0.00 in0.0 mm
11:21 AM 31.5°F-0.3°C -15.4°F-26.3°C 12% 6.1 mph NW9.8 kmh NW 12.8 mph20.6 kmh 30.42 in1030.1 mb 0.00 in0.0 mm 0.00 in0.0 mm 0.00 in0.0 mm
11:22 AM 31.6°F-0.2°C -15.3°F-26.3°C 12% 6.7 mph NW10.8 kmh NW 13.2 mph21.2 kmh 30.42 in1030.1 mb 0.00 in0.0 mm 0.00 in0.0 mm 0.00 in0.0 mm
11:23 AM 31.3°F-0.4°C -15.6°F-26.4°C 12% 7.2 mph NW11.6 kmh NW 13.2 mph21.2 kmh 30.42 in1030.1 mb 0.00 in0.0 mm 0.00 in0.0 mm 0.00 in0.0 mm
11:24 AM 31.3°F-0.4°C -15.6°F-26.4°C 12% 7.3 mph NW11.7 kmh NW 13.2 mph21.2 kmh 30.42 in1030.1 mb 0.00 in0.0 mm 0.00 in0.0 mm 0.00 in0.0 mm
11:25 AM 30.9°F-0.6°C -15.9°F-26.6°C 12% 7.4 mph NW11.9 kmh NW 13.2 mph21.2 kmh 30.42 in1030.1 mb 0.00 in0.0 mm 0.00 in0.0 mm 0.00 in0.0 mm
11:26 AM 30.9°F-0.6°C -15.9°F-26.6°C 12% 7.7 mph NW12.4 kmh NW 13.2 mph21.2 kmh 30.42 in1030.1 mb 0.00 in0.0 mm 0.00 in0.0 mm 0.00 in0.0 mm
11:27 AM 31.1°F-0.5°C -15.7°F-26.5°C 12% 8.3 mph NW13.4 kmh NW 13.2 mph21.2 kmh 30.42 in1030.1 mb 0.00 in0.0 mm 0.00 in0.0 mm 0.00 in0.0 mm
11:28 AM 31.1°F-0.5°C -15.7°F-26.5°C 12% 8.6 mph NW13.8 kmh NW 13.2 mph21.2 kmh 30.42 in1030.1 mb 0.00 in0.0 mm 0.00 in0.0 mm 0.00 in0.0 mm
11:29 AM 31.1°F-0.5°C -15.7°F-26.5°C 12% 8.6 mph NW13.8 kmh NW 13.2 mph21.2 kmh 30.42 in1030.1 mb 0.00 in0.0 mm 0.00 in0.0 mm 0.00 in0.0 mm
11:30 AM 31.5°F-0.3°C -15.4°F-26.3°C 12% 8.5 mph NW13.7 kmh NW 13.2 mph21.2 kmh 30.42 in1030.1 mb 0.00 in0.0 mm 0.00 in0.0 mm 0.00 in0.0 mm
11:31 AM 31.5°F-0.3°C -15.4°F-26.3°C 12% 8.8 mph NW14.2 kmh NW 13.2 mph21.2 kmh 30.42 in1030.1 mb 0.00 in0.0 mm 0.00 in0.0 mm 0.00 in0.0 mm
11:32 AM 31.1°F-0.5°C -15.7°F-26.5°C 12% 8.7 mph NW14.0 kmh NW 13.2 mph21.2 kmh 30.42 in1030.1 mb 0.00 in0.0 mm 0.00 in0.0 mm 0.00 in0.0 mm
11:33 AM 31.1°F-0.5°C -15.7°F-26.5°C 12% 8.3 mph NW13.4 kmh NW 13.2 mph21.2 kmh 30.42 in1030.1 mb 0.00 in0.0 mm 0.00 in0.0 mm 0.00 in0.0 mm
11:34 AM 31.6°F-0.2°C -15.3°F-26.3°C 12% 7.5 mph NW12.1 kmh NW 13.2 mph21.2 kmh 30.42 in1030.1 mb 0.00 in0.0 mm 0.00 in0.0 mm 0.00 in0.0 mm
11:35 AM 31.6°F-0.2°C -15.3°F-26.3°C 12% 7.5 mph NW12.1 kmh NW 13.2 mph21.2 kmh 30.42 in1030.1 mb 0.00 in0.0 mm 0.00 in0.0 mm 0.00 in0.0 mm
11:36 AM 31.1°F-0.5°C -15.7°F-26.5°C 12% 8.2 mph NW13.2 kmh NW 13.2 mph21.2 kmh 30.42 in1030.1 mb 0.00 in0.0 mm 0.00 in0.0 mm 0.00 in0.0 mm
11:37 AM 31.5°F-0.3°C -15.4°F-26.3°C 12% 7.4 mph NW11.9 kmh NW 13.2 mph21.2 kmh 30.42 in1030.1 mb 0.00 in0.0 mm 0.00 in0.0 mm 0.00 in0.0 mm
11:38 AM 31.5°F-0.3°C -15.4°F-26.3°C 12% 6.9 mph NW11.1 kmh NW 13.2 mph21.2 kmh 30.42 in1030.1 mb 0.00 in0.0 mm 0.00 in0.0 mm 0.00 in0.0 mm
11:39 AM 31.5°F-0.3°C -15.4°F-26.3°C 12% 6.8 mph NW10.9 kmh NW 13.2 mph21.2 kmh 30.42 in1030.1 mb 0.00 in0.0 mm 0.00 in0.0 mm 0.00 in0.0 mm
11:40 AM 31.5°F-0.3°C -15.4°F-26.3°C 12% 7.3 mph NW11.7 kmh NW 13.2 mph21.2 kmh 30.42 in1030.1 mb 0.00 in0.0 mm 0.00 in0.0 mm 0.00 in0.0 mm
11:41 AM 31.5°F-0.3°C -15.4°F-26.3°C 12% 6.8 mph NNW10.9 kmh NNW 12.5 mph20.1 kmh 30.42 in1030.1 mb 0.00 in0.0 mm 0.00 in0.0 mm 0.00 in0.0 mm
11:42 AM 31.5°F-0.3°C -15.4°F-26.3°C 12% 6.8 mph NNW10.9 kmh NNW 12.5 mph20.1 kmh 30.42 in1030.1 mb 0.00 in0.0 mm 0.00 in0.0 mm 0.00 in0.0 mm
11:43 AM 32.0°F0.0°C -15.0°F-26.1°C 12% 7.3 mph NNW11.7 kmh NNW 12.5 mph20.1 kmh 30.42 in1030.1 mb 0.00 in0.0 mm 0.00 in0.0 mm 0.00 in0.0 mm
11:44 AM 31.5°F-0.3°C -15.4°F-26.3°C 12% 8.2 mph NNW13.2 kmh NNW 12.5 mph20.1 kmh 30.45 in1031.2 mb 0.00 in0.0 mm 0.00 in0.0 mm 0.00 in0.0 mm
11:45 AM 31.5°F-0.3°C -15.4°F-26.3°C 12% 7.9 mph NW12.7 kmh NW 12.5 mph20.1 kmh 30.45 in1031.2 mb 0.00 in0.0 mm 0.00 in0.0 mm 0.00 in0.0 mm
11:46 AM 32.2°F0.1°C -14.9°F-26.1°C 12% 6.9 mph NNW11.1 kmh NNW 12.1 mph19.5 kmh 30.45 in1031.2 mb 0.00 in0.0 mm 0.00 in0.0 mm 0.00 in0.0 mm
11:47 AM 32.2°F0.1°C -14.9°F-26.1°C 12% 7.1 mph NW11.4 kmh NW 12.1 mph19.5 kmh 30.45 in1031.2 mb 0.00 in0.0 mm 0.00 in0.0 mm 0.00 in0.0 mm
11:48 AM 32.7°F0.4°C -14.4°F-25.8°C 12% 7.0 mph NNW11.3 kmh NNW 12.1 mph19.5 kmh 30.45 in1031.2 mb 0.00 in0.0 mm 0.00 in0.0 mm 0.00 in0.0 mm
11:49 AM 32.7°F0.4°C -14.4°F-25.8°C 12% 7.0 mph NNW11.3 kmh NNW 12.1 mph19.5 kmh 30.45 in1031.2 mb 0.00 in0.0 mm 0.00 in0.0 mm 0.00 in0.0 mm
11:50 AM 32.2°F0.1°C -14.9°F-26.1°C 12% 6.7 mph NNW10.8 kmh NNW 12.1 mph19.5 kmh 30.45 in1031.2 mb 0.00 in0.0 mm 0.00 in0.0 mm 0.00 in0.0 mm
11:51 AM 32.2°F0.1°C -14.9°F-26.1°C 12% 6.7 mph NW10.8 kmh NW 12.1 mph19.5 kmh 30.45 in1031.2 mb 0.00 in0.0 mm 0.00 in0.0 mm 0.00 in0.0 mm
11:52 AM 32.4°F0.2°C -14.7°F-25.9°C 12% 6.9 mph NW11.1 kmh NW 12.1 mph19.5 kmh 30.45 in1031.2 mb 0.00 in0.0 mm 0.00 in0.0 mm 0.00 in0.0 mm
11:53 AM 32.5°F0.3°C -14.6°F-25.9°C 12% 6.2 mph NW10.0 kmh NW 12.1 mph19.5 kmh 30.45 in1031.2 mb 0.00 in0.0 mm 0.00 in0.0 mm 0.00 in0.0 mm
11:54 AM 32.5°F0.3°C -14.6°F-25.9°C 12% 6.3 mph NW10.1 kmh NW 12.1 mph19.5 kmh 30.45 in1031.2 mb 0.00 in0.0 mm 0.00 in0.0 mm 0.00 in0.0 mm
11:55 AM 32.7°F0.4°C -14.4°F-25.8°C 12% 5.3 mph N8.5 kmh N 11.0 mph17.7 kmh 30.45 in1031.2 mb 0.00 in0.0 mm 0.00 in0.0 mm 0.00 in0.0 mm
11:56 AM 32.7°F0.4°C -14.4°F-25.8°C 12% 5.5 mph NNW8.9 kmh NNW 11.0 mph17.7 kmh 30.45 in1031.2 mb 0.00 in0.0 mm 0.00 in0.0 mm 0.00 in0.0 mm
11:57 AM 32.7°F0.4°C -14.4°F-25.8°C 12% 5.5 mph NNW8.9 kmh NNW 11.0 mph17.7 kmh 30.45 in1031.2 mb 0.00 in0.0 mm 0.00 in0.0 mm 0.00 in0.0 mm
11:58 AM 32.7°F0.4°C -14.4°F-25.8°C 12% 5.6 mph NNW9.0 kmh NNW 10.3 mph16.6 kmh 30.45 in1031.2 mb 0.00 in0.0 mm 0.00 in0.0 mm 0.00 in0.0 mm
11:59 AM 32.4°F0.2°C -14.7°F-25.9°C 12% 5.8 mph NNW9.3 kmh NNW 10.3 mph16.6 kmh 30.45 in1031.2 mb 0.00 in0.0 mm 0.00 in0.0 mm 0.00 in0.0 mm
12:00 PM 32.5°F0.3°C -14.6°F-25.9°C 12% 6.2 mph NNW10.0 kmh NNW 10.3 mph16.6 kmh 30.45 in1031.2 mb 0.00 in0.0 mm 0.00 in0.0 mm 0.00 in0.0 mm
12:01 PM 32.5°F0.3°C -14.6°F-25.9°C 12% 6.1 mph NNW9.8 kmh NNW 10.3 mph16.6 kmh 30.45 in1031.2 mb 0.00 in0.0 mm 0.00 in0.0 mm 0.00 in0.0 mm
12:02 PM 32.2°F0.1°C -14.9°F-26.1°C 12% 6.8 mph NW10.9 kmh NW 12.8 mph20.6 kmh 30.45 in1031.2 mb 0.00 in0.0 mm 0.00 in0.0 mm 0.00 in0.0 mm
12:03 PM 32.2°F0.1°C -14.9°F-26.1°C 12% 7.2 mph NW11.6 kmh NW 12.8 mph20.6 kmh 30.45 in1031.2 mb 0.00 in0.0 mm 0.00 in0.0 mm 0.00 in0.0 mm
12:04 PM 31.6°F-0.2°C -15.3°F-26.3°C 12% 7.8 mph NW12.6 kmh NW 12.8 mph20.6 kmh 30.45 in1031.2 mb 0.00 in0.0 mm 0.00 in0.0 mm 0.00 in0.0 mm
12:05 PM 31.6°F-0.2°C -15.3°F-26.3°C 12% 8.0 mph NW12.9 kmh NW 12.8 mph20.6 kmh 30.45 in1031.2 mb 0.00 in0.0 mm 0.00 in0.0 mm 0.00 in0.0 mm
12:06 PM 31.8°F-0.1°C -15.1°F-26.2°C 12% 8.8 mph NW14.2 kmh NW 12.8 mph20.6 kmh 30.45 in1031.2 mb 0.00 in0.0 mm 0.00 in0.0 mm 0.00 in0.0 mm
12:07 PM 31.8°F-0.1°C -15.1°F-26.2°C 12% 8.4 mph NW13.5 kmh NW 12.8 mph20.6 kmh 30.45 in1031.2 mb 0.00 in0.0 mm 0.00 in0.0 mm 0.00 in0.0 mm
12:08 PM 31.8°F-0.1°C -15.1°F-26.2°C 12% 8.4 mph NW13.5 kmh NW 12.8 mph20.6 kmh 30.45 in1031.2 mb 0.00 in0.0 mm 0.00 in0.0 mm 0.00 in0.0 mm
12:09 PM 32.0°F0.0°C -15.0°F-26.1°C 12% 8.6 mph NW13.8 kmh NW 15.2 mph24.5 kmh 30.45 in1031.2 mb 0.00 in0.0 mm 0.00 in0.0 mm 0.00 in0.0 mm
12:10 PM 32.0°F0.0°C -15.0°F-26.1°C 12% 8.7 mph NW14.0 kmh NW 15.2 mph24.5 kmh 30.45 in1031.2 mb 0.00 in0.0 mm 0.00 in0.0 mm 0.00 in0.0 mm
12:11 PM 31.6°F-0.2°C -15.3°F-26.3°C 12% 8.9 mph NW14.3 kmh NW 15.2 mph24.5 kmh 30.45 in1031.2 mb 0.00 in0.0 mm 0.00 in0.0 mm 0.00 in0.0 mm
12:12 PM 31.6°F-0.2°C -15.3°F-26.3°C 12% 8.3 mph NW13.4 kmh NW 15.2 mph24.5 kmh 30.45 in1031.2 mb 0.00 in0.0 mm 0.00 in0.0 mm 0.00 in0.0 mm
12:13 PM 32.2°F0.1°C -14.9°F-26.1°C 12% 7.8 mph NW12.6 kmh NW 15.2 mph24.5 kmh 30.45 in1031.2 mb 0.00 in0.0 mm 0.00 in0.0 mm 0.00 in0.0 mm
12:14 PM 32.2°F0.1°C -14.9°F-26.1°C 12% 7.7 mph NW12.4 kmh NW 15.2 mph24.5 kmh 30.45 in1031.2 mb 0.00 in0.0 mm 0.00 in0.0 mm 0.00 in0.0 mm
12:15 PM 32.2°F0.1°C -14.9°F-26.1°C 12% 8.0 mph NW12.9 kmh NW 15.2 mph24.5 kmh 30.45 in1031.2 mb 0.00 in0.0 mm 0.00 in0.0 mm 0.00 in0.0 mm
12:16 PM 31.8°F-0.1°C -15.1°F-26.2°C 12% 8.6 mph NW13.8 kmh NW 15.2 mph24.5 kmh 30.45 in1031.2 mb 0.00 in0.0 mm 0.00 in0.0 mm 0.00 in0.0 mm
12:17 PM 31.8°F-0.1°C -15.1°F-26.2°C 12% 8.6 mph NW13.8 kmh NW 15.2 mph24.5 kmh 30.45 in1031.2 mb 0.00 in0.0 mm 0.00 in0.0 mm 0.00 in0.0 mm
12:18 PM 32.0°F0.0°C -15.0°F-26.1°C 12% 10.0 mph NW16.1 kmh NW 15.2 mph24.5 kmh 30.45 in1031.2 mb 0.00 in0.0 mm 0.00 in0.0 mm 0.00 in0.0 mm
12:19 PM 32.0°F0.0°C -15.0°F-26.1°C 12% 9.8 mph NW15.8 kmh NW 15.2 mph24.5 kmh 30.45 in1031.2 mb 0.00 in0.0 mm 0.00 in0.0 mm 0.00 in0.0 mm
12:20 PM 32.5°F0.3°C -14.6°F-25.9°C 12% 8.7 mph NW14.0 kmh NW 14.5 mph23.3 kmh 30.45 in1031.2 mb 0.00 in0.0 mm 0.00 in0.0 mm 0.00 in0.0 mm
12:21 PM 32.5°F0.3°C -14.6°F-25.9°C 12% 8.7 mph NW14.0 kmh NW 14.5 mph23.3 kmh 30.45 in1031.2 mb 0.00 in0.0 mm 0.00 in0.0 mm 0.00 in0.0 mm
12:22 PM 32.2°F0.1°C -14.9°F-26.1°C 12% 8.9 mph NW14.3 kmh NW 14.5 mph23.3 kmh 30.45 in1031.2 mb 0.00 in0.0 mm 0.00 in0.0 mm 0.00 in0.0 mm
12:23 PM 32.2°F0.1°C -14.9°F-26.1°C 12% 9.2 mph NW14.8 kmh NW 14.5 mph23.3 kmh 30.45 in1031.2 mb 0.00 in0.0 mm 0.00 in0.0 mm 0.00 in0.0 mm
12:24 PM 32.2°F0.1°C -14.9°F-26.1°C 12% 9.2 mph NW14.8 kmh NW 14.5 mph23.3 kmh 30.45 in1031.2 mb 0.00 in0.0 mm 0.00 in0.0 mm 0.00 in0.0 mm
12:25 PM 32.0°F0.0°C -15.0°F-26.1°C 12% 9.1 mph NW14.6 kmh NW 14.5 mph23.3 kmh 30.45 in1031.2 mb 0.00 in0.0 mm 0.00 in0.0 mm 0.00 in0.0 mm
12:26 PM 32.0°F0.0°C -15.0°F-26.1°C 12% 8.4 mph NW13.5 kmh NW 14.5 mph23.3 kmh 30.45 in1031.2 mb 0.00 in0.0 mm 0.00 in0.0 mm 0.00 in0.0 mm
12:27 PM 32.4°F0.2°C -14.7°F-25.9°C 12% 7.8 mph NW12.6 kmh NW 14.5 mph23.3 kmh 30.45 in1031.2 mb 0.00 in0.0 mm 0.00 in0.0 mm 0.00 in0.0 mm
12:28 PM 32.4°F0.2°C -14.7°F-25.9°C 12% 7.8 mph NW12.6 kmh NW 14.5 mph23.3 kmh 30.45 in1031.2 mb 0.00 in0.0 mm 0.00 in0.0 mm 0.00 in0.0 mm
12:29 PM 32.5°F0.3°C -14.6°F-25.9°C 12% 7.5 mph NW12.1 kmh NW 12.8 mph20.6 kmh 30.45 in1031.2 mb 0.00 in0.0 mm 0.00 in0.0 mm 0.00 in0.0 mm
12:30 PM 32.5°F0.3°C -14.6°F-25.9°C 12% 7.9 mph NW12.7 kmh NW 12.8 mph20.6 kmh 30.45 in1031.2 mb 0.00 in0.0 mm 0.00 in0.0 mm 0.00 in0.0 mm
12:31 PM 32.5°F0.3°C -14.6°F-25.9°C 12% 7.6 mph NW12.2 kmh NW 12.8 mph20.6 kmh 30.45 in1031.2 mb 0.00 in0.0 mm 0.00 in0.0 mm 0.00 in0.0 mm
12:32 PM 33.1°F0.6°C -14.1°F-25.6°C 12% 7.1 mph WNW11.4 kmh WNW 12.8 mph20.6 kmh 30.45 in1031.2 mb 0.00 in0.0 mm 0.00 in0.0 mm 0.00 in0.0 mm
12:33 PM 33.1°F0.6°C -14.1°F-25.6°C 12% 6.9 mph WNW11.1 kmh WNW 12.8 mph20.6 kmh 30.45 in1031.2 mb 0.00 in0.0 mm 0.00 in0.0 mm 0.00 in0.0 mm
12:34 PM 33.4°F0.8°C -13.9°F-25.5°C 12% 6.6 mph W10.6 kmh W 12.8 mph20.6 kmh 30.45 in1031.2 mb 0.00 in0.0 mm 0.00 in0.0 mm 0.00 in0.0 mm
12:35 PM 33.4°F0.8°C -13.9°F-25.5°C 12% 6.0 mph W9.7 kmh W 12.8 mph20.6 kmh 30.45 in1031.2 mb 0.00 in0.0 mm 0.00 in0.0 mm 0.00 in0.0 mm
12:36 PM 33.8°F1.0°C -15.3°F-26.3°C 11% 5.6 mph W9.0 kmh W 11.0 mph17.7 kmh 30.45 in1031.2 mb 0.00 in0.0 mm 0.00 in0.0 mm 0.00 in0.0 mm
12:37 PM 33.8°F1.0°C -15.3°F-26.3°C 11% 5.3 mph NW8.5 kmh NW 11.0 mph17.7 kmh 30.45 in1031.2 mb 0.00 in0.0 mm 0.00 in0.0 mm 0.00 in0.0 mm
12:38 PM 33.8°F1.0°C -15.3°F-26.3°C 11% 5.3 mph NW8.5 kmh NW 11.0 mph17.7 kmh 30.45 in1031.2 mb 0.00 in0.0 mm 0.00 in0.0 mm 0.00 in0.0 mm
12:39 PM 33.1°F0.6°C -14.1°F-25.6°C 12% 5.4 mph N8.7 kmh N 10.1 mph16.3 kmh 30.45 in1031.2 mb 0.00 in0.0 mm 0.00 in0.0 mm 0.00 in0.0 mm
12:40 PM 33.1°F0.6°C -14.1°F-25.6°C 12% 5.6 mph N9.0 kmh N 10.1 mph16.3 kmh 30.45 in1031.2 mb 0.00 in0.0 mm 0.00 in0.0 mm 0.00 in0.0 mm
12:41 PM 33.3°F0.7°C -14.0°F-25.6°C 12% 5.9 mph N9.5 kmh N 10.1 mph16.3 kmh 30.45 in1031.2 mb 0.00 in0.0 mm 0.00 in0.0 mm 0.00 in0.0 mm
12:42 PM 33.3°F0.7°C -14.0°F-25.6°C 12% 5.8 mph N9.3 kmh N 10.1 mph16.3 kmh 30.45 in1031.2 mb 0.00 in0.0 mm 0.00 in0.0 mm 0.00 in0.0 mm
12:43 PM 34.2°F1.2°C -15.0°F-26.1°C 11% 5.6 mph N9.0 kmh N 10.1 mph16.3 kmh 30.45 in1031.2 mb 0.00 in0.0 mm 0.00 in0.0 mm 0.00 in0.0 mm
12:44 PM 34.2°F1.2°C -15.0°F-26.1°C 11% 5.4 mph N8.7 kmh N 10.1 mph16.3 kmh 30.45 in1031.2 mb 0.00 in0.0 mm 0.00 in0.0 mm 0.00 in0.0 mm
12:45 PM 33.8°F1.0°C -15.3°F-26.3°C 11% 5.2 mph N8.4 kmh N 10.1 mph16.3 kmh 30.45 in1031.2 mb 0.00 in0.0 mm 0.00 in0.0 mm 0.00 in0.0 mm
12:46 PM 33.8°F1.0°C -15.3°F-26.3°C 11% 5.9 mph NNW9.5 kmh NNW 10.1 mph16.3 kmh 30.45 in1031.2 mb 0.00 in0.0 mm 0.00 in0.0 mm 0.00 in0.0 mm
12:47 PM 33.8°F1.0°C -15.3°F-26.3°C 11% 5.7 mph NNW9.2 kmh NNW 10.1 mph16.3 kmh 30.45 in1031.2 mb 0.00 in0.0 mm 0.00 in0.0 mm 0.00 in0.0 mm
12:48 PM 33.6°F0.9°C -13.7°F-25.4°C 12% 6.0 mph NW9.7 kmh NW 10.1 mph16.3 kmh 30.45 in1031.2 mb 0.00 in0.0 mm 0.00 in0.0 mm 0.00 in0.0 mm
12:49 PM 33.6°F0.9°C -13.7°F-25.4°C 12% 6.0 mph NW9.7 kmh NW 10.1 mph16.3 kmh 30.45 in1031.2 mb 0.00 in0.0 mm 0.00 in0.0 mm 0.00 in0.0 mm
12:50 PM 33.3°F0.7°C -14.0°F-25.6°C 12% 6.0 mph NW9.7 kmh NW 8.7 mph14.0 kmh 30.45 in1031.2 mb 0.00 in0.0 mm 0.00 in0.0 mm 0.00 in0.0 mm
12:51 PM 33.3°F0.7°C -14.0°F-25.6°C 12% 5.9 mph WNW9.5 kmh WNW 9.8 mph15.8 kmh 30.45 in1031.2 mb 0.00 in0.0 mm 0.00 in0.0 mm 0.00 in0.0 mm
12:52 PM 33.4°F0.8°C -13.9°F-25.5°C 12% 6.4 mph WNW10.3 kmh WNW 9.8 mph15.8 kmh 30.45 in1031.2 mb 0.00 in0.0 mm 0.00 in0.0 mm 0.00 in0.0 mm
12:53 PM 33.6°F0.9°C -13.7°F-25.4°C 12% 6.3 mph W10.1 kmh W 9.8 mph15.8 kmh 30.45 in1031.2 mb 0.00 in0.0 mm 0.00 in0.0 mm 0.00 in0.0 mm
12:54 PM 33.6°F0.9°C -13.7°F-25.4°C 12% 6.6 mph W10.6 kmh W 9.8 mph15.8 kmh 30.45 in1031.2 mb 0.00 in0.0 mm 0.00 in0.0 mm 0.00 in0.0 mm
12:55 PM 33.6°F0.9°C -13.7°F-25.4°C 12% 6.6 mph W10.6 kmh W 9.8 mph15.8 kmh 30.45 in1031.2 mb 0.00 in0.0 mm 0.00 in0.0 mm 0.00 in0.0 mm
12:56 PM 33.6°F0.9°C -13.7°F-25.4°C 12% 6.9 mph WNW11.1 kmh WNW 9.8 mph15.8 kmh 30.45 in1031.2 mb 0.00 in0.0 mm 0.00 in0.0 mm 0.00 in0.0 mm
12:57 PM 33.8°F1.0°C -15.3°F-26.3°C 11% 6.6 mph WNW10.6 kmh WNW 9.8 mph15.8 kmh 30.45 in1031.2 mb 0.00 in0.0 mm 0.00 in0.0 mm 0.00 in0.0 mm
12:58 PM 33.8°F1.0°C -15.3°F-26.3°C 11% 6.9 mph WNW11.1 kmh WNW 11.9 mph19.2 kmh 30.45 in1031.2 mb 0.00 in0.0 mm 0.00 in0.0 mm 0.00 in0.0 mm
12:59 PM 33.8°F1.0°C -15.3°F-26.3°C 11% 7.2 mph NW11.6 kmh NW 11.9 mph19.2 kmh 30.45 in1031.2 mb 0.00 in0.0 mm 0.00 in0.0 mm 0.00 in0.0 mm
01:00 PM 33.6°F0.9°C -13.7°F-25.4°C 12% 7.8 mph NW12.6 kmh NW 12.3 mph19.8 kmh 30.45 in1031.2 mb 0.00 in0.0 mm 0.00 in0.0 mm 0.00 in0.0 mm
01:01 PM 33.6°F0.9°C -13.7°F-25.4°C 12% 7.4 mph NW11.9 kmh NW 12.3 mph19.8 kmh 30.45 in1031.2 mb 0.00 in0.0 mm 0.00 in0.0 mm 0.00 in0.0 mm
01:02 PM 33.8°F1.0°C -15.3°F-26.3°C 11% 7.1 mph NW11.4 kmh NW 12.3 mph19.8 kmh 30.45 in1031.2 mb 0.00 in0.0 mm 0.00 in0.0 mm 0.00 in0.0 mm
01:03 PM 33.8°F1.0°C -15.3°F-26.3°C 11% 7.3 mph NW11.7 kmh NW 12.3 mph19.8 kmh 30.45 in1031.2 mb 0.00 in0.0 mm 0.00 in0.0 mm 0.00 in0.0 mm
01:04 PM 33.8°F1.0°C -15.3°F-26.3°C 11% 8.3 mph NW13.4 kmh NW 12.3 mph19.8 kmh 30.45 in1031.2 mb 0.00 in0.0 mm 0.00 in0.0 mm 0.00 in0.0 mm
01:05 PM 33.8°F1.0°C -15.3°F-26.3°C 11% 8.1 mph NW13.0 kmh NW 12.3 mph19.8 kmh 30.45 in1031.2 mb 0.00 in0.0 mm 0.00 in0.0 mm 0.00 in0.0 mm
01:06 PM 34.0°F1.1°C -15.2°F-26.2°C 11% 7.8 mph NW12.6 kmh NW 12.3 mph19.8 kmh 30.45 in1031.2 mb 0.00 in0.0 mm 0.00 in0.0 mm 0.00 in0.0 mm
01:07 PM 34.0°F1.1°C -15.2°F-26.2°C 11% 8.1 mph NW13.0 kmh NW 12.3 mph19.8 kmh 30.45 in1031.2 mb 0.00 in0.0 mm 0.00 in0.0 mm 0.00 in0.0 mm
01:08 PM 34.3°F1.3°C -14.9°F-26.1°C 11% 7.2 mph NW11.6 kmh NW 12.3 mph19.8 kmh 30.45 in1031.2 mb 0.00 in0.0 mm 0.00 in0.0 mm 0.00 in0.0 mm
01:09 PM 34.7°F1.5°C -14.6°F-25.9°C 11% 6.5 mph NW10.5 kmh NW 12.3 mph19.8 kmh 30.45 in1031.2 mb 0.00 in0.0 mm 0.00 in0.0 mm 0.00 in0.0 mm
01:10 PM 34.7°F1.5°C -14.6°F-25.9°C 11% 5.9 mph NW9.5 kmh NW 12.3 mph19.8 kmh 30.45 in1031.2 mb 0.00 in0.0 mm 0.00 in0.0 mm 0.00 in0.0 mm
01:11 PM 35.1°F1.7°C -14.3°F-25.7°C 11% 5.7 mph NW9.2 kmh NW 10.5 mph16.9 kmh 30.45 in1031.2 mb 0.00 in0.0 mm 0.00 in0.0 mm 0.00 in0.0 mm
01:12 PM 35.1°F1.7°C -14.3°F-25.7°C 11% 5.5 mph NW8.9 kmh NW 10.5 mph16.9 kmh 30.45 in1031.2 mb 0.00 in0.0 mm 0.00 in0.0 mm 0.00 in0.0 mm
01:13 PM 34.7°F1.5°C -14.6°F-25.9°C 11% 5.1 mph NW8.2 kmh NW 10.5 mph16.9 kmh 30.45 in1031.2 mb 0.00 in0.0 mm 0.00 in0.0 mm 0.00 in0.0 mm
01:14 PM 34.7°F1.5°C -14.6°F-25.9°C 11% 4.4 mph NW7.1 kmh NW 9.8 mph15.8 kmh 30.42 in1030.1 mb 0.00 in0.0 mm 0.00 in0.0 mm 0.00 in0.0 mm
01:15 PM 34.5°F1.4°C -14.7°F-25.9°C 11% 4.2 mph NW6.8 kmh NW 9.8 mph15.8 kmh 30.42 in1030.1 mb 0.00 in0.0 mm 0.00 in0.0 mm 0.00 in0.0 mm
01:16 PM 34.3°F1.3°C -14.9°F-26.1°C 11% 4.7 mph NW7.6 kmh NW 9.8 mph15.8 kmh 30.42 in1030.1 mb 0.00 in0.0 mm 0.00 in0.0 mm 0.00 in0.0 mm
01:17 PM 34.3°F1.3°C -14.9°F-26.1°C 11% 4.8 mph NW7.7 kmh NW 9.8 mph15.8 kmh 30.42 in1030.1 mb 0.00 in0.0 mm 0.00 in0.0 mm 0.00 in0.0 mm
01:18 PM 34.5°F1.4°C -14.7°F-25.9°C 11% 4.8 mph NNW7.7 kmh NNW 9.8 mph15.8 kmh 30.42 in1030.1 mb 0.00 in0.0 mm 0.00 in0.0 mm 0.00 in0.0 mm
01:19 PM 34.5°F1.4°C -14.7°F-25.9°C 11% 4.9 mph NNW7.9 kmh NNW 9.8 mph15.8 kmh 30.42 in1030.1 mb 0.00 in0.0 mm 0.00 in0.0 mm 0.00 in0.0 mm
01:20 PM 35.1°F1.7°C -14.3°F-25.7°C 11% 4.6 mph NNW7.4 kmh NNW 9.8 mph15.8 kmh 30.42 in1030.1 mb 0.00 in0.0 mm 0.00 in0.0 mm 0.00 in0.0 mm
01:21 PM 35.1°F1.7°C -14.3°F-25.7°C 11% 4.7 mph NNW7.6 kmh NNW 9.8 mph15.8 kmh 30.42 in1030.1 mb 0.00 in0.0 mm 0.00 in0.0 mm 0.00 in0.0 mm
01:22 PM 35.1°F1.7°C -14.3°F-25.7°C 11% 4.6 mph NNW7.4 kmh NNW 7.6 mph12.2 kmh 30.42 in1030.1 mb 0.00 in0.0 mm 0.00 in0.0 mm 0.00 in0.0 mm
01:23 PM 35.1°F1.7°C -14.3°F-25.7°C 11% 4.4 mph NNW7.1 kmh NNW 7.6 mph12.2 kmh 30.42 in1030.1 mb 0.00 in0.0 mm 0.00 in0.0 mm 0.00 in0.0 mm
01:24 PM 35.1°F1.7°C -14.3°F-25.7°C 11% 4.3 mph N6.9 kmh N 7.6 mph12.2 kmh 30.42 in1030.1 mb 0.00 in0.0 mm 0.00 in0.0 mm 0.00 in0.0 mm
01:25 PM 35.6°F2.0°C -13.9°F-25.5°C 11% 4.0 mph NE6.4 kmh NE 7.6 mph12.2 kmh 30.42 in1030.1 mb 0.00 in0.0 mm 0.00 in0.0 mm 0.00 in0.0 mm
01:26 PM 35.6°F2.0°C -13.9°F-25.5°C 11% 3.6 mph ENE5.8 kmh ENE 7.6 mph12.2 kmh 30.42 in1030.1 mb 0.00 in0.0 mm 0.00 in0.0 mm 0.00 in0.0 mm
01:27 PM 35.6°F2.0°C -13.9°F-25.5°C 11% 3.4 mph NE5.5 kmh NE 8.1 mph13.0 kmh 30.42 in1030.1 mb 0.00 in0.0 mm 0.00 in0.0 mm 0.00 in0.0 mm
01:28 PM 35.6°F2.0°C -13.9°F-25.5°C 11% 3.5 mph NNE5.6 kmh NNE 8.1 mph13.0 kmh 30.42 in1030.1 mb 0.00 in0.0 mm 0.00 in0.0 mm 0.00 in0.0 mm
01:29 PM 35.1°F1.7°C -14.3°F-25.7°C 11% 3.3 mph NNW5.3 kmh NNW 8.1 mph13.0 kmh 30.45 in1031.2 mb 0.00 in0.0 mm 0.00 in0.0 mm 0.00 in0.0 mm
01:30 PM 35.1°F1.7°C -14.3°F-25.7°C 11% 3.4 mph NNW5.5 kmh NNW 8.1 mph13.0 kmh 30.45 in1031.2 mb 0.00 in0.0 mm 0.00 in0.0 mm 0.00 in0.0 mm
01:31 PM 35.4°F1.9°C -14.0°F-25.6°C 11% 3.2 mph NNW5.1 kmh NNW 8.1 mph13.0 kmh 30.45 in1031.2 mb 0.00 in0.0 mm 0.00 in0.0 mm 0.00 in0.0 mm
01:32 PM 35.2°F1.8°C -14.2°F-25.7°C 11% 3.4 mph NW5.5 kmh NW 8.1 mph13.0 kmh 30.45 in1031.2 mb 0.00 in0.0 mm 0.00 in0.0 mm 0.00 in0.0 mm
01:33 PM 35.2°F1.8°C -14.2°F-25.7°C 11% 3.5 mph NW5.6 kmh NW 8.1 mph13.0 kmh 30.45 in1031.2 mb 0.00 in0.0 mm 0.00 in0.0 mm 0.00 in0.0 mm
01:34 PM 35.1°F1.7°C -14.3°F-25.7°C 11% 3.9 mph NW6.3 kmh NW 8.1 mph13.0 kmh 30.45 in1031.2 mb 0.00 in0.0 mm 0.00 in0.0 mm 0.00 in0.0 mm
01:35 PM 35.1°F1.7°C -14.3°F-25.7°C 11% 4.1 mph WNW6.6 kmh WNW 8.1 mph13.0 kmh 30.45 in1031.2 mb 0.00 in0.0 mm 0.00 in0.0 mm 0.00 in0.0 mm
01:36 PM 35.1°F1.7°C -14.3°F-25.7°C 11% 4.3 mph WNW6.9 kmh WNW 8.1 mph13.0 kmh 30.45 in1031.2 mb 0.00 in0.0 mm 0.00 in0.0 mm 0.00 in0.0 mm
01:37 PM 35.1°F1.7°C -14.3°F-25.7°C 11% 4.4 mph W7.1 kmh W 6.7 mph10.8 kmh 30.45 in1031.2 mb 0.00 in0.0 mm 0.00 in0.0 mm 0.00 in0.0 mm
01:38 PM 35.1°F1.7°C -14.3°F-25.7°C 11% 4.3 mph W6.9 kmh W 6.7 mph10.8 kmh 30.45 in1031.2 mb 0.00 in0.0 mm 0.00 in0.0 mm 0.00 in0.0 mm
01:39 PM 35.1°F1.7°C -14.3°F-25.7°C 11% 4.9 mph W7.9 kmh W 7.4 mph11.9 kmh 30.45 in1031.2 mb 0.00 in0.0 mm 0.00 in0.0 mm 0.00 in0.0 mm
01:40 PM 35.1°F1.7°C -14.3°F-25.7°C 11% 5.1 mph W8.2 kmh W 7.4 mph11.9 kmh 30.45 in1031.2 mb 0.00 in0.0 mm 0.00 in0.0 mm 0.00 in0.0 mm
01:41 PM 34.7°F1.5°C -14.6°F-25.9°C 11% 5.7 mph NW9.2 kmh NW 8.5 mph13.7 kmh 30.45 in1031.2 mb 0.00 in0.0 mm 0.00 in0.0 mm 0.00 in0.0 mm
01:42 PM 34.7°F1.5°C -14.6°F-25.9°C 11% 5.8 mph NW9.3 kmh NW 8.7 mph14.0 kmh 30.45 in1031.2 mb 0.00 in0.0 mm 0.00 in0.0 mm 0.00 in0.0 mm
01:43 PM 34.3°F1.3°C -14.9°F-26.1°C 11% 5.8 mph NW9.3 kmh NW 8.7 mph14.0 kmh 30.45 in1031.2 mb 0.00 in0.0 mm 0.00 in0.0 mm 0.00 in0.0 mm
01:44 PM 34.3°F1.3°C -14.9°F-26.1°C 11% 6.0 mph NW9.7 kmh NW 10.5 mph16.9 kmh 30.42 in1030.1 mb 0.00 in0.0 mm 0.00 in0.0 mm 0.00 in0.0 mm
01:45 PM 34.5°F1.4°C -14.7°F-25.9°C 11% 6.2 mph NW10.0 kmh NW 10.5 mph16.9 kmh 30.42 in1030.1 mb 0.00 in0.0 mm 0.00 in0.0 mm 0.00 in0.0 mm
01:46 PM 34.7°F1.5°C -14.6°F-25.9°C 11% 6.2 mph NW10.0 kmh NW 10.5 mph16.9 kmh 30.42 in1030.1 mb 0.00 in0.0 mm 0.00 in0.0 mm 0.00 in0.0 mm
01:47 PM 34.7°F1.5°C -14.6°F-25.9°C 11% 6.1 mph NW9.8 kmh NW 10.5 mph16.9 kmh 30.42 in1030.1 mb 0.00 in0.0 mm 0.00 in0.0 mm 0.00 in0.0 mm
01:48 PM 35.1°F1.7°C -14.3°F-25.7°C 11% 6.1 mph NW9.8 kmh NW 10.5 mph16.9 kmh 30.42 in1030.1 mb 0.00 in0.0 mm 0.00 in0.0 mm 0.00 in0.0 mm
01:49 PM 35.1°F1.7°C -14.3°F-25.7°C 11% 6.2 mph NNW10.0 kmh NNW 10.5 mph16.9 kmh 30.42 in1030.1 mb 0.00 in0.0 mm 0.00 in0.0 mm 0.00 in0.0 mm
01:50 PM 35.4°F1.9°C -14.0°F-25.6°C 11% 6.1 mph NW9.8 kmh NW 10.5 mph16.9 kmh 30.42 in1030.1 mb 0.00 in0.0 mm 0.00 in0.0 mm 0.00 in0.0 mm
01:51 PM 35.4°F1.9°C -14.0°F-25.6°C 11% 5.8 mph NW9.3 kmh NW 10.5 mph16.9 kmh 30.42 in1030.1 mb 0.00 in0.0 mm 0.00 in0.0 mm 0.00 in0.0 mm
01:52 PM 34.9°F1.6°C -14.4°F-25.8°C 11% 5.9 mph NW9.5 kmh NW 13.2 mph21.2 kmh 30.42 in1030.1 mb 0.00 in0.0 mm 0.00 in0.0 mm 0.00 in0.0 mm
01:53 PM 34.9°F1.6°C -14.4°F-25.8°C 11% 6.0 mph NW9.7 kmh NW 13.2 mph21.2 kmh 30.42 in1030.1 mb 0.00 in0.0 mm 0.00 in0.0 mm 0.00 in0.0 mm
01:54 PM 34.7°F1.5°C -14.6°F-25.9°C 11% 5.9 mph WNW9.5 kmh WNW 13.2 mph21.2 kmh 30.42 in1030.1 mb 0.00 in0.0 mm 0.00 in0.0 mm 0.00 in0.0 mm
01:55 PM 34.7°F1.5°C -14.6°F-25.9°C 11% 6.0 mph NW9.7 kmh NW 13.2 mph21.2 kmh 30.42 in1030.1 mb 0.00 in0.0 mm 0.00 in0.0 mm 0.00 in0.0 mm
01:56 PM 34.7°F1.5°C -14.6°F-25.9°C 11% 6.0 mph NW9.7 kmh NW 13.2 mph21.2 kmh 30.42 in1030.1 mb 0.00 in0.0 mm 0.00 in0.0 mm 0.00 in0.0 mm
01:57 PM 34.3°F1.3°C -14.9°F-26.1°C 11% 6.6 mph NW10.6 kmh NW 13.2 mph21.2 kmh 30.42 in1030.1 mb 0.00 in0.0 mm 0.00 in0.0 mm 0.00 in0.0 mm
01:58 PM 34.3°F1.3°C -14.9°F-26.1°C 11% 7.0 mph NW11.3 kmh NW 13.2 mph21.2 kmh 30.42 in1030.1 mb 0.00 in0.0 mm 0.00 in0.0 mm 0.00 in0.0 mm
01:59 PM 34.3°F1.3°C -14.9°F-26.1°C 11% 7.7 mph NW12.4 kmh NW 13.2 mph21.2 kmh 30.42 in1030.1 mb 0.00 in0.0 mm 0.00 in0.0 mm 0.00 in0.0 mm
02:00 PM 34.3°F1.3°C -14.9°F-26.1°C 11% 7.7 mph NW12.4 kmh NW 13.2 mph21.2 kmh 30.42 in1030.1 mb 0.00 in0.0 mm 0.00 in0.0 mm 0.00 in0.0 mm
02:01 PM 34.3°F1.3°C -14.9°F-26.1°C 11% 8.1 mph NW13.0 kmh NW 13.2 mph21.2 kmh 30.42 in1030.1 mb 0.00 in0.0 mm 0.00 in0.0 mm 0.00 in0.0 mm
02:02 PM 34.3°F1.3°C -14.9°F-26.1°C 11% 8.7 mph NW14.0 kmh NW 12.1 mph19.5 kmh 30.42 in1030.1 mb 0.00 in0.0 mm 0.00 in0.0 mm 0.00 in0.0 mm
02:03 PM 34.3°F1.3°C -14.9°F-26.1°C 11% 8.8 mph NW14.2 kmh NW 12.1 mph19.5 kmh 30.42 in1030.1 mb 0.00 in0.0 mm 0.00 in0.0 mm 0.00 in0.0 mm
02:04 PM 34.3°F1.3°C -14.9°F-26.1°C 11% 8.7 mph NW14.0 kmh NW 12.1 mph19.5 kmh 30.42 in1030.1 mb 0.00 in0.0 mm 0.00 in0.0 mm 0.00 in0.0 mm
02:05 PM 34.3°F1.3°C -14.9°F-26.1°C 11% 8.6 mph NW13.8 kmh NW 12.1 mph19.5 kmh 30.42 in1030.1 mb 0.00 in0.0 mm 0.00 in0.0 mm 0.00 in0.0 mm
02:06 PM 35.1°F1.7°C -14.3°F-25.7°C 11% 8.4 mph NW13.5 kmh NW 12.1 mph19.5 kmh 30.42 in1030.1 mb 0.00 in0.0 mm 0.00 in0.0 mm 0.00 in0.0 mm
02:07 PM 35.1°F1.7°C -14.3°F-25.7°C 11% 8.0 mph NW12.9 kmh NW 12.1 mph19.5 kmh 30.42 in1030.1 mb 0.00 in0.0 mm 0.00 in0.0 mm 0.00 in0.0 mm
02:08 PM 35.4°F1.9°C -14.0°F-25.6°C 11% 7.5 mph NW12.1 kmh NW 12.1 mph19.5 kmh 30.42 in1030.1 mb 0.00 in0.0 mm 0.00 in0.0 mm 0.00 in0.0 mm
02:09 PM 35.4°F1.9°C -14.0°F-25.6°C 11% 7.0 mph NW11.3 kmh NW 11.0 mph17.7 kmh 30.42 in1030.1 mb 0.00 in0.0 mm 0.00 in0.0 mm 0.00 in0.0 mm
02:10 PM 35.4°F1.9°C -14.0°F-25.6°C 11% 6.7 mph NW10.8 kmh NW 11.0 mph17.7 kmh 30.42 in1030.1 mb 0.00 in0.0 mm 0.00 in0.0 mm 0.00 in0.0 mm
02:11 PM 35.2°F1.8°C -14.2°F-25.7°C 11% 6.2 mph NW10.0 kmh NW 11.0 mph17.7 kmh 30.42 in1030.1 mb 0.00 in0.0 mm 0.00 in0.0 mm 0.00 in0.0 mm
02:12 PM 35.2°F1.8°C -14.2°F-25.7°C 11% 5.7 mph NW9.2 kmh NW 11.0 mph17.7 kmh 30.42 in1030.1 mb 0.00 in0.0 mm 0.00 in0.0 mm 0.00 in0.0 mm
02:13 PM 34.9°F1.6°C -14.4°F-25.8°C 11% 5.2 mph NW8.4 kmh NW 7.6 mph12.2 kmh 30.42 in1030.1 mb 0.00 in0.0 mm 0.00 in0.0 mm 0.00 in0.0 mm
02:14 PM 34.9°F1.6°C -14.4°F-25.8°C 11% 5.0 mph NW8.0 kmh NW 7.6 mph12.2 kmh 30.45 in1031.2 mb 0.00 in0.0 mm 0.00 in0.0 mm 0.00 in0.0 mm
02:15 PM 35.2°F1.8°C -14.2°F-25.7°C 11% 4.8 mph NNW7.7 kmh NNW 6.7 mph10.8 kmh 30.45 in1031.2 mb 0.00 in0.0 mm 0.00 in0.0 mm 0.00 in0.0 mm
02:16 PM 36.0°F2.2°C -13.6°F-25.3°C 11% 4.2 mph NNW6.8 kmh NNW 6.7 mph10.8 kmh 30.45 in1031.2 mb 0.00 in0.0 mm 0.00 in0.0 mm 0.00 in0.0 mm
02:17 PM 36.0°F2.2°C -13.6°F-25.3°C 11% 4.1 mph NNW6.6 kmh NNW 6.7 mph10.8 kmh 30.45 in1031.2 mb 0.00 in0.0 mm 0.00 in0.0 mm 0.00 in0.0 mm
02:18 PM 35.8°F2.1°C -13.7°F-25.4°C 11% 3.9 mph NW6.3 kmh NW 6.7 mph10.8 kmh 30.45 in1031.2 mb 0.00 in0.0 mm 0.00 in0.0 mm 0.00 in0.0 mm
02:19 PM 35.8°F2.1°C -13.7°F-25.4°C 11% 4.1 mph NNW6.6 kmh NNW 10.1 mph16.3 kmh 30.45 in1031.2 mb 0.00 in0.0 mm 0.00 in0.0 mm 0.00 in0.0 mm
02:20 PM 35.2°F1.8°C -14.2°F-25.7°C 11% 4.6 mph N7.4 kmh N 10.1 mph16.3 kmh 30.45 in1031.2 mb 0.00 in0.0 mm 0.00 in0.0 mm 0.00 in0.0 mm
02:21 PM 35.2°F1.8°C -14.2°F-25.7°C 11% 4.4 mph N7.1 kmh N 10.1 mph16.3 kmh 30.45 in1031.2 mb 0.00 in0.0 mm 0.00 in0.0 mm 0.00 in0.0 mm
02:22 PM 35.1°F1.7°C -14.3°F-25.7°C 11% 4.4 mph N7.1 kmh N 10.1 mph16.3 kmh 30.45 in1031.2 mb 0.00 in0.0 mm 0.00 in0.0 mm 0.00 in0.0 mm
02:23 PM 35.1°F1.7°C -14.3°F-25.7°C 11% 3.9 mph NNE6.3 kmh NNE 10.1 mph16.3 kmh 30.45 in1031.2 mb 0.00 in0.0 mm 0.00 in0.0 mm 0.00 in0.0 mm
02:24 PM 35.2°F1.8°C -14.2°F-25.7°C 11% 4.1 mph N6.6 kmh N 10.1 mph16.3 kmh 30.45 in1031.2 mb 0.00 in0.0 mm 0.00 in0.0 mm 0.00 in0.0 mm
02:25 PM 34.9°F1.6°C -14.4°F-25.8°C 11% 4.3 mph N6.9 kmh N 10.1 mph16.3 kmh 30.45 in1031.2 mb 0.00 in0.0 mm 0.00 in0.0 mm 0.00 in0.0 mm
02:26 PM 34.9°F1.6°C -14.4°F-25.8°C 11% 4.3 mph NNW6.9 kmh NNW 10.1 mph16.3 kmh 30.45 in1031.2 mb 0.00 in0.0 mm 0.00 in0.0 mm 0.00 in0.0 mm
02:27 PM 35.6°F2.0°C -13.9°F-25.5°C 11% 4.1 mph NNW6.6 kmh NNW 10.1 mph16.3 kmh 30.45 in1031.2 mb 0.00 in0.0 mm 0.00 in0.0 mm 0.00 in0.0 mm
02:28 PM 35.6°F2.0°C -13.9°F-25.5°C 11% 4.3 mph N6.9 kmh N 10.1 mph16.3 kmh 30.45 in1031.2 mb 0.00 in0.0 mm 0.00 in0.0 mm 0.00 in0.0 mm
02:29 PM 35.6°F2.0°C -13.9°F-25.5°C 11% 4.5 mph NNW7.2 kmh NNW 10.1 mph16.3 kmh 30.45 in1031.2 mb 0.00 in0.0 mm 0.00 in0.0 mm 0.00 in0.0 mm
02:30 PM 35.6°F2.0°C -13.9°F-25.5°C 11% 4.2 mph NW6.8 kmh NW 10.1 mph16.3 kmh 30.45 in1031.2 mb 0.00 in0.0 mm 0.00 in0.0 mm 0.00 in0.0 mm
02:31 PM 35.6°F2.0°C -13.9°F-25.5°C 11% 3.9 mph NW6.3 kmh NW 9.6 mph15.4 kmh 30.45 in1031.2 mb 0.00 in0.0 mm 0.00 in0.0 mm 0.00 in0.0 mm
02:32 PM 35.4°F1.9°C -14.0°F-25.6°C 11% 4.1 mph NW6.6 kmh NW 9.6 mph15.4 kmh 30.45 in1031.2 mb 0.00 in0.0 mm 0.00 in0.0 mm 0.00 in0.0 mm
02:33 PM 35.4°F1.9°C -14.0°F-25.6°C 11% 4.5 mph NW7.2 kmh NW 9.6 mph15.4 kmh 30.45 in1031.2 mb 0.00 in0.0 mm 0.00 in0.0 mm 0.00 in0.0 mm
02:34 PM 35.6°F2.0°C -13.9°F-25.5°C 11% 4.6 mph NW7.4 kmh NW 9.2 mph14.8 kmh 30.45 in1031.2 mb 0.00 in0.0 mm 0.00 in0.0 mm 0.00 in0.0 mm
02:35 PM 35.6°F2.0°C -13.9°F-25.5°C 11% 4.6 mph NW7.4 kmh NW 9.2 mph14.8 kmh 30.45 in1031.2 mb 0.00 in0.0 mm 0.00 in0.0 mm 0.00 in0.0 mm
02:36 PM 35.2°F1.8°C -14.2°F-25.7°C 11% 4.6 mph NW7.4 kmh NW 9.2 mph14.8 kmh 30.45 in1031.2 mb 0.00 in0.0 mm 0.00 in0.0 mm 0.00 in0.0 mm
02:37 PM 35.2°F1.8°C -14.2°F-25.7°C 11% 5.5 mph NW8.9 kmh NW 9.2 mph14.8 kmh 30.45 in1031.2 mb 0.00 in0.0 mm 0.00 in0.0 mm 0.00 in0.0 mm
02:38 PM 34.9°F1.6°C -14.4°F-25.8°C 11% 5.2 mph NW8.4 kmh NW 9.2 mph14.8 kmh 30.45 in1031.2 mb 0.00 in0.0 mm 0.00 in0.0 mm 0.00 in0.0 mm
02:39 PM 35.1°F1.7°C -14.3°F-25.7°C 11% 5.2 mph NW8.4 kmh NW 9.2 mph14.8 kmh 30.45 in1031.2 mb 0.00 in0.0 mm 0.00 in0.0 mm 0.00 in0.0 mm
02:40 PM 35.1°F1.7°C -14.3°F-25.7°C 11% 4.9 mph NW7.9 kmh NW 9.2 mph14.8 kmh 30.45 in1031.2 mb 0.00 in0.0 mm 0.00 in0.0 mm 0.00 in0.0 mm
02:41 PM 35.2°F1.8°C -14.2°F-25.7°C 11% 4.8 mph NNW7.7 kmh NNW 9.2 mph14.8 kmh 30.45 in1031.2 mb 0.00 in0.0 mm 0.00 in0.0 mm 0.00 in0.0 mm
02:42 PM 35.2°F1.8°C -14.2°F-25.7°C 11% 4.8 mph NNW7.7 kmh NNW 9.2 mph14.8 kmh 30.45 in1031.2 mb 0.00 in0.0 mm 0.00 in0.0 mm 0.00 in0.0 mm
02:43 PM 35.4°F1.9°C -14.0°F-25.6°C 11% 4.5 mph NW7.2 kmh NW 9.2 mph14.8 kmh 30.45 in1031.2 mb 0.00 in0.0 mm 0.00 in0.0 mm 0.00 in0.0 mm
02:44 PM 35.4°F1.9°C -14.0°F-25.6°C 11% 4.1 mph NW6.6 kmh NW 9.2 mph14.8 kmh 30.45 in1031.2 mb 0.00 in0.0 mm 0.00 in0.0 mm 0.00 in0.0 mm
02:45 PM 35.6°F2.0°C -13.9°F-25.5°C 11% 3.6 mph NNW5.8 kmh NNW 7.8 mph12.6 kmh 30.45 in1031.2 mb 0.00 in0.0 mm 0.00 in0.0 mm 0.00 in0.0 mm
02:46 PM 35.6°F2.0°C -13.9°F-25.5°C 11% 3.6 mph NNW5.8 kmh NNW 7.8 mph12.6 kmh 30.45 in1031.2 mb 0.00 in0.0 mm 0.00 in0.0 mm 0.00 in0.0 mm
02:47 PM 35.6°F2.0°C -13.9°F-25.5°C 11% 3.6 mph NNW5.8 kmh NNW 7.8 mph12.6 kmh 30.45 in1031.2 mb 0.00 in0.0 mm 0.00 in0.0 mm 0.00 in0.0 mm
02:48 PM 35.6°F2.0°C -13.9°F-25.5°C 11% 3.3 mph NNW5.3 kmh NNW 7.4 mph11.9 kmh 30.45 in1031.2 mb 0.00 in0.0 mm 0.00 in0.0 mm 0.00 in0.0 mm
02:49 PM 35.6°F2.0°C -13.9°F-25.5°C 11% 3.3 mph N5.3 kmh N 7.4 mph11.9 kmh 30.45 in1031.2 mb 0.00 in0.0 mm 0.00 in0.0 mm 0.00 in0.0 mm
02:50 PM 35.4°F1.9°C -14.0°F-25.6°C 11% 3.5 mph NNW5.6 kmh NNW 7.4 mph11.9 kmh 30.45 in1031.2 mb 0.00 in0.0 mm 0.00 in0.0 mm 0.00 in0.0 mm
02:51 PM 35.4°F1.9°C -14.0°F-25.6°C 11% 3.6 mph NNW5.8 kmh NNW 7.4 mph11.9 kmh 30.45 in1031.2 mb 0.00 in0.0 mm 0.00 in0.0 mm 0.00 in0.0 mm
02:52 PM 35.2°F1.8°C -14.2°F-25.7°C 11% 3.8 mph NNW6.1 kmh NNW 7.4 mph11.9 kmh 30.45 in1031.2 mb 0.00 in0.0 mm 0.00 in0.0 mm 0.00 in0.0 mm
02:53 PM 35.2°F1.8°C -14.2°F-25.7°C 11% 4.0 mph N6.4 kmh N 7.4 mph11.9 kmh 30.45 in1031.2 mb 0.00 in0.0 mm 0.00 in0.0 mm 0.00 in0.0 mm
02:54 PM 35.4°F1.9°C -14.0°F-25.6°C 11% 4.2 mph NNW6.8 kmh NNW 7.4 mph11.9 kmh 30.45 in1031.2 mb 0.00 in0.0 mm 0.00 in0.0 mm 0.00 in0.0 mm
02:55 PM 34.9°F1.6°C -14.4°F-25.8°C 11% 5.2 mph NNW8.4 kmh NNW 10.3 mph16.6 kmh 30.45 in1031.2 mb 0.00 in0.0 mm 0.00 in0.0 mm 0.00 in0.0 mm
02:56 PM 34.9°F1.6°C -14.4°F-25.8°C 11% 5.2 mph NNW8.4 kmh NNW 10.3 mph16.6 kmh 30.45 in1031.2 mb 0.00 in0.0 mm 0.00 in0.0 mm 0.00 in0.0 mm
02:57 PM 34.9°F1.6°C -14.4°F-25.8°C 11% 5.0 mph NW8.0 kmh NW 10.3 mph16.6 kmh 30.45 in1031.2 mb 0.00 in0.0 mm 0.00 in0.0 mm 0.00 in0.0 mm
02:58 PM 34.9°F1.6°C -14.4°F-25.8°C 11% 4.9 mph NW7.9 kmh NW 10.3 mph16.6 kmh 30.45 in1031.2 mb 0.00 in0.0 mm 0.00 in0.0 mm 0.00 in0.0 mm
02:59 PM 35.1°F1.7°C -14.3°F-25.7°C 11% 5.0 mph NNW8.0 kmh NNW 10.3 mph16.6 kmh 30.45 in1031.2 mb 0.00 in0.0 mm 0.00 in0.0 mm 0.00 in0.0 mm
03:00 PM 35.1°F1.7°C -14.3°F-25.7°C 11% 5.1 mph NNW8.2 kmh NNW 10.3 mph16.6 kmh 30.45 in1031.2 mb 0.00 in0.0 mm 0.00 in0.0 mm 0.00 in0.0 mm
03:01 PM 35.4°F1.9°C -14.0°F-25.6°C 11% 5.0 mph NNW8.0 kmh NNW 10.3 mph16.6 kmh 30.45 in1031.2 mb 0.00 in0.0 mm 0.00 in0.0 mm 0.00 in0.0 mm
03:02 PM 35.2°F1.8°C -14.2°F-25.7°C 11% 5.3 mph NNW8.5 kmh NNW 10.3 mph16.6 kmh 30.45 in1031.2 mb 0.00 in0.0 mm 0.00 in0.0 mm 0.00 in0.0 mm
03:03 PM 35.2°F1.8°C -14.2°F-25.7°C 11% 5.3 mph NNW8.5 kmh NNW 10.3 mph16.6 kmh 30.45 in1031.2 mb 0.00 in0.0 mm 0.00 in0.0 mm 0.00 in0.0 mm
03:04 PM 34.9°F1.6°C -14.4°F-25.8°C 11% 5.4 mph NNW8.7 kmh NNW 10.3 mph16.6 kmh 30.45 in1031.2 mb 0.00 in0.0 mm 0.00 in0.0 mm 0.00 in0.0 mm
03:05 PM 34.9°F1.6°C -14.4°F-25.8°C 11% 5.0 mph NNW8.0 kmh NNW 10.3 mph16.6 kmh 30.45 in1031.2 mb 0.00 in0.0 mm 0.00 in0.0 mm 0.00 in0.0 mm
03:06 PM 35.1°F1.7°C -14.3°F-25.7°C 11% 4.4 mph NNW7.1 kmh NNW 8.1 mph13.0 kmh 30.45 in1031.2 mb 0.00 in0.0 mm 0.00 in0.0 mm 0.00 in0.0 mm
03:07 PM 35.1°F1.7°C -14.3°F-25.7°C 11% 4.6 mph NNW7.4 kmh NNW 8.1 mph13.0 kmh 30.45 in1031.2 mb 0.00 in0.0 mm 0.00 in0.0 mm 0.00 in0.0 mm
03:08 PM 34.5°F1.4°C -14.7°F-25.9°C 11% 4.8 mph NW7.7 kmh NW 8.1 mph13.0 kmh 30.45 in1031.2 mb 0.00 in0.0 mm 0.00 in0.0 mm 0.00 in0.0 mm
03:09 PM 34.5°F1.4°C -14.7°F-25.9°C 11% 4.8 mph NW7.7 kmh NW 8.1 mph13.0 kmh 30.45 in1031.2 mb 0.00 in0.0 mm 0.00 in0.0 mm 0.00 in0.0 mm
03:10 PM 34.9°F1.6°C -14.4°F-25.8°C 11% 4.6 mph NW7.4 kmh NW 8.1 mph13.0 kmh 30.45 in1031.2 mb 0.00 in0.0 mm 0.00 in0.0 mm 0.00 in0.0 mm
03:11 PM 35.1°F1.7°C -14.3°F-25.7°C 11% 4.7 mph NW7.6 kmh NW 8.1 mph13.0 kmh 30.45 in1031.2 mb 0.00 in0.0 mm 0.00 in0.0 mm 0.00 in0.0 mm
03:12 PM 35.1°F1.7°C -14.3°F-25.7°C 11% 4.7 mph NW7.6 kmh NW 8.1 mph13.0 kmh 30.45 in1031.2 mb 0.00 in0.0 mm 0.00 in0.0 mm 0.00 in0.0 mm
03:13 PM 34.9°F1.6°C -14.4°F-25.8°C 11% 4.7 mph WNW7.6 kmh WNW 8.1 mph13.0 kmh 30.45 in1031.2 mb 0.00 in0.0 mm 0.00 in0.0 mm 0.00 in0.0 mm
03:14 PM 34.9°F1.6°C -14.4°F-25.8°C 11% 4.6 mph W7.4 kmh W 8.1 mph13.0 kmh 30.45 in1031.2 mb 0.00 in0.0 mm 0.00 in0.0 mm 0.00 in0.0 mm
03:15 PM 34.9°F1.6°C -14.4°F-25.8°C 11% 5.1 mph WNW8.2 kmh WNW 10.7 mph17.2 kmh 30.45 in1031.2 mb 0.00 in0.0 mm 0.00 in0.0 mm 0.00 in0.0 mm
03:16 PM 34.9°F1.6°C -14.4°F-25.8°C 11% 5.5 mph NW8.9 kmh NW 10.7 mph17.2 kmh 30.45 in1031.2 mb 0.00 in0.0 mm 0.00 in0.0 mm 0.00 in0.0 mm
03:17 PM 34.3°F1.3°C -14.9°F-26.1°C 11% 5.6 mph NW9.0 kmh NW 10.7 mph17.2 kmh 30.45 in1031.2 mb 0.00 in0.0 mm 0.00 in0.0 mm 0.00 in0.0 mm
03:18 PM 34.5°F1.4°C -14.7°F-25.9°C 11% 5.1 mph NW8.2 kmh NW 10.7 mph17.2 kmh 30.45 in1031.2 mb 0.00 in0.0 mm 0.00 in0.0 mm 0.00 in0.0 mm
03:19 PM 34.5°F1.4°C -14.7°F-25.9°C 11% 5.0 mph NW8.0 kmh NW 10.7 mph17.2 kmh 30.45 in1031.2 mb 0.00 in0.0 mm 0.00 in0.0 mm 0.00 in0.0 mm
03:20 PM 34.9°F1.6°C -14.4°F-25.8°C 11% 5.5 mph NW8.9 kmh NW 10.7 mph17.2 kmh 30.45 in1031.2 mb 0.00 in0.0 mm 0.00 in0.0 mm 0.00 in0.0 mm
03:21 PM 34.9°F1.6°C -14.4°F-25.8°C 11% 5.7 mph NW9.2 kmh NW 10.7 mph17.2 kmh 30.45 in1031.2 mb 0.00 in0.0 mm 0.00 in0.0 mm 0.00 in0.0 mm
03:22 PM 34.5°F1.4°C -14.7°F-25.9°C 11% 6.0 mph NW9.7 kmh NW 10.7 mph17.2 kmh 30.45 in1031.2 mb 0.00 in0.0 mm 0.00 in0.0 mm 0.00 in0.0 mm
03:23 PM 34.5°F1.4°C -14.7°F-25.9°C 11% 5.7 mph NW9.2 kmh NW 10.7 mph17.2 kmh 30.45 in1031.2 mb 0.00 in0.0 mm 0.00 in0.0 mm 0.00 in0.0 mm
03:24 PM 34.3°F1.3°C -14.9°F-26.1°C 11% 5.5 mph NNW8.9 kmh NNW 10.7 mph17.2 kmh 30.45 in1031.2 mb 0.00 in0.0 mm 0.00 in0.0 mm 0.00 in0.0 mm
03:25 PM 35.1°F1.7°C -14.3°F-25.7°C 11% 5.0 mph NW8.0 kmh NW 10.7 mph17.2 kmh 30.45 in1031.2 mb 0.00 in0.0 mm 0.00 in0.0 mm 0.00 in0.0 mm
03:26 PM 35.1°F1.7°C -14.3°F-25.7°C 11% 5.0 mph NW8.0 kmh NW 9.8 mph15.8 kmh 30.45 in1031.2 mb 0.00 in0.0 mm 0.00 in0.0 mm 0.00 in0.0 mm
03:27 PM 34.5°F1.4°C -14.7°F-25.9°C 11% 4.3 mph NW6.9 kmh NW 9.8 mph15.8 kmh 30.45 in1031.2 mb 0.00 in0.0 mm 0.00 in0.0 mm 0.00 in0.0 mm
03:28 PM 34.5°F1.4°C -14.7°F-25.9°C 11% 4.7 mph NW7.6 kmh NW 9.8 mph15.8 kmh 30.45 in1031.2 mb 0.00 in0.0 mm 0.00 in0.0 mm 0.00 in0.0 mm
03:29 PM 34.3°F1.3°C -14.9°F-26.1°C 11% 4.9 mph WNW7.9 kmh WNW 9.8 mph15.8 kmh 30.45 in1031.2 mb 0.00 in0.0 mm 0.00 in0.0 mm 0.00 in0.0 mm
03:30 PM 34.3°F1.3°C -14.9°F-26.1°C 11% 4.6 mph WNW7.4 kmh WNW 9.8 mph15.8 kmh 30.45 in1031.2 mb 0.00 in0.0 mm 0.00 in0.0 mm 0.00 in0.0 mm
03:31 PM 34.7°F1.5°C -14.6°F-25.9°C 11% 4.6 mph WNW7.4 kmh WNW 9.8 mph15.8 kmh 30.45 in1031.2 mb 0.00 in0.0 mm 0.00 in0.0 mm 0.00 in0.0 mm
03:32 PM 34.5°F1.4°C -14.7°F-25.9°C 11% 4.1 mph W6.6 kmh W 9.8 mph15.8 kmh 30.45 in1031.2 mb 0.00 in0.0 mm 0.00 in0.0 mm 0.00 in0.0 mm
03:33 PM 34.5°F1.4°C -14.7°F-25.9°C 11% 4.0 mph W6.4 kmh W 9.8 mph15.8 kmh 30.45 in1031.2 mb 0.00 in0.0 mm 0.00 in0.0 mm 0.00 in0.0 mm
03:34 PM 35.1°F1.7°C -14.3°F-25.7°C 11% 4.0 mph W6.4 kmh W 9.8 mph15.8 kmh 30.45 in1031.2 mb 0.00 in0.0 mm 0.00 in0.0 mm 0.00 in0.0 mm
03:35 PM 35.1°F1.7°C -14.3°F-25.7°C 11% 4.3 mph W6.9 kmh W 9.8 mph15.8 kmh 30.45 in1031.2 mb 0.00 in0.0 mm 0.00 in0.0 mm 0.00 in0.0 mm
03:36 PM 35.1°F1.7°C -14.3°F-25.7°C 11% 4.1 mph W6.6 kmh W 7.4 mph11.9 kmh 30.45 in1031.2 mb 0.00 in0.0 mm 0.00 in0.0 mm 0.00 in0.0 mm
03:37 PM 35.1°F1.7°C -14.3°F-25.7°C 11% 4.1 mph W6.6 kmh W 7.4 mph11.9 kmh 30.45 in1031.2 mb 0.00 in0.0 mm 0.00 in0.0 mm 0.00 in0.0 mm
03:38 PM 35.1°F1.7°C -14.3°F-25.7°C 11% 3.9 mph W6.3 kmh W 6.5 mph10.5 kmh 30.45 in1031.2 mb 0.00 in0.0 mm 0.00 in0.0 mm 0.00 in0.0 mm
03:39 PM 35.1°F1.7°C -14.3°F-25.7°C 11% 3.9 mph WNW6.3 kmh WNW 6.5 mph10.5 kmh 30.45 in1031.2 mb 0.00 in0.0 mm 0.00 in0.0 mm 0.00 in0.0 mm
03:40 PM 34.7°F1.5°C -14.6°F-25.9°C 11% 3.9 mph NW6.3 kmh NW 6.5 mph10.5 kmh 30.45 in1031.2 mb 0.00 in0.0 mm 0.00 in0.0 mm 0.00 in0.0 mm
03:41 PM 34.7°F1.5°C -14.6°F-25.9°C 11% 3.6 mph NNW5.8 kmh NNW 5.8 mph9.3 kmh 30.45 in1031.2 mb 0.00 in0.0 mm 0.00 in0.0 mm 0.00 in0.0 mm
03:42 PM 34.7°F1.5°C -14.6°F-25.9°C 11% 3.8 mph N6.1 kmh N 5.8 mph9.3 kmh 30.45 in1031.2 mb 0.00 in0.0 mm 0.00 in0.0 mm 0.00 in0.0 mm
03:43 PM 34.5°F1.4°C -14.7°F-25.9°C 11% 3.9 mph NNW6.3 kmh NNW 5.8 mph9.3 kmh 30.45 in1031.2 mb 0.00 in0.0 mm 0.00 in0.0 mm 0.00 in0.0 mm
03:44 PM 34.5°F1.4°C -14.7°F-25.9°C 11% 4.3 mph NNW6.9 kmh NNW 7.8 mph12.6 kmh 30.45 in1031.2 mb 0.00 in0.0 mm 0.00 in0.0 mm 0.00 in0.0 mm
03:45 PM 34.5°F1.4°C -14.7°F-25.9°C 11% 4.4 mph N7.1 kmh N 7.8 mph12.6 kmh 30.45 in1031.2 mb 0.00 in0.0 mm 0.00 in0.0 mm 0.00 in0.0 mm
03:46 PM 34.5°F1.4°C -14.7°F-25.9°C 11% 4.3 mph NNW6.9 kmh NNW 7.8 mph12.6 kmh 30.45 in1031.2 mb 0.00 in0.0 mm 0.00 in0.0 mm 0.00 in0.0 mm
03:47 PM 34.5°F1.4°C -14.7°F-25.9°C 11% 4.3 mph NNW6.9 kmh NNW 7.8 mph12.6 kmh 30.45 in1031.2 mb 0.00 in0.0 mm 0.00 in0.0 mm 0.00 in0.0 mm
03:48 PM 34.3°F1.3°C -14.9°F-26.1°C 11% 4.3 mph NNW6.9 kmh NNW 7.8 mph12.6 kmh 30.45 in1031.2 mb 0.00 in0.0 mm 0.00 in0.0 mm 0.00 in0.0 mm
03:49 PM 34.3°F1.3°C -14.9°F-26.1°C 11% 4.0 mph NNW6.4 kmh NNW 7.8 mph12.6 kmh 30.45 in1031.2 mb 0.00 in0.0 mm 0.00 in0.0 mm 0.00 in0.0 mm
03:50 PM 34.7°F1.5°C -14.6°F-25.9°C 11% 3.5 mph N5.6 kmh N 7.8 mph12.6 kmh 30.45 in1031.2 mb 0.00 in0.0 mm 0.00 in0.0 mm 0.00 in0.0 mm
03:51 PM 34.7°F1.5°C -14.6°F-25.9°C 11% 3.4 mph NNW5.5 kmh NNW 7.8 mph12.6 kmh 30.45 in1031.2 mb 0.00 in0.0 mm 0.00 in0.0 mm 0.00 in0.0 mm
03:52 PM 34.7°F1.5°C -14.6°F-25.9°C 11% 3.7 mph NW6.0 kmh NW 7.8 mph12.6 kmh 30.45 in1031.2 mb 0.00 in0.0 mm 0.00 in0.0 mm 0.00 in0.0 mm
03:53 PM 34.7°F1.5°C -14.6°F-25.9°C 11% 3.6 mph NW5.8 kmh NW 7.8 mph12.6 kmh 30.45 in1031.2 mb 0.00 in0.0 mm 0.00 in0.0 mm 0.00 in0.0 mm
03:54 PM 34.3°F1.3°C -14.9°F-26.1°C 11% 3.6 mph NW5.8 kmh NW 7.8 mph12.6 kmh 30.45 in1031.2 mb 0.00 in0.0 mm 0.00 in0.0 mm 0.00 in0.0 mm
03:55 PM 34.0°F1.1°C -15.2°F-26.2°C 11% 3.1 mph NNW5.0 kmh NNW 6.5 mph10.5 kmh 30.45 in1031.2 mb 0.00 in0.0 mm 0.00 in0.0 mm 0.00 in0.0 mm
03:56 PM 34.0°F1.1°C -15.2°F-26.2°C 11% 3.3 mph NNW5.3 kmh NNW 6.5 mph10.5 kmh 30.45 in1031.2 mb 0.00 in0.0 mm 0.00 in0.0 mm 0.00 in0.0 mm
03:57 PM 34.2°F1.2°C -15.0°F-26.1°C 11% 3.5 mph NNW5.6 kmh NNW 6.5 mph10.5 kmh 30.45 in1031.2 mb 0.00 in0.0 mm 0.00 in0.0 mm 0.00 in0.0 mm
03:58 PM 34.2°F1.2°C -15.0°F-26.1°C 11% 3.4 mph NW5.5 kmh NW 6.5 mph10.5 kmh 30.45 in1031.2 mb 0.00 in0.0 mm 0.00 in0.0 mm 0.00 in0.0 mm
03:59 PM 33.8°F1.0°C -15.3°F-26.3°C 11% 3.3 mph NW5.3 kmh NW 6.5 mph10.5 kmh 30.45 in1031.2 mb 0.00 in0.0 mm 0.00 in0.0 mm 0.00 in0.0 mm
04:00 PM 33.8°F1.0°C -15.3°F-26.3°C 11% 3.9 mph NW6.3 kmh NW 6.5 mph10.5 kmh 30.45 in1031.2 mb 0.00 in0.0 mm 0.00 in0.0 mm 0.00 in0.0 mm
04:01 PM 33.6°F0.9°C -13.7°F-25.4°C 12% 4.1 mph NW6.6 kmh NW 6.5 mph10.5 kmh 30.45 in1031.2 mb 0.00 in0.0 mm 0.00 in0.0 mm 0.00 in0.0 mm
04:02 PM 33.6°F0.9°C -13.7°F-25.4°C 12% 3.8 mph NNW6.1 kmh NNW 5.8 mph9.3 kmh 30.45 in1031.2 mb 0.00 in0.0 mm 0.00 in0.0 mm 0.00 in0.0 mm
04:03 PM 33.6°F0.9°C -13.7°F-25.4°C 12% 3.9 mph NNW6.3 kmh NNW 5.8 mph9.3 kmh 30.45 in1031.2 mb 0.00 in0.0 mm 0.00 in0.0 mm 0.00 in0.0 mm
04:04 PM 33.6°F0.9°C -13.7°F-25.4°C 12% 4.2 mph NW6.8 kmh NW 6.5 mph10.5 kmh 30.45 in1031.2 mb 0.00 in0.0 mm 0.00 in0.0 mm 0.00 in0.0 mm
04:05 PM 33.6°F0.9°C -13.7°F-25.4°C 12% 4.4 mph NW7.1 kmh NW 8.1 mph13.0 kmh 30.45 in1031.2 mb 0.00 in0.0 mm 0.00 in0.0 mm 0.00 in0.0 mm
04:06 PM 33.4°F0.8°C -13.9°F-25.5°C 12% 4.5 mph NW7.2 kmh NW 8.1 mph13.0 kmh 30.45 in1031.2 mb 0.00 in0.0 mm 0.00 in0.0 mm 0.00 in0.0 mm
04:07 PM 33.4°F0.8°C -13.9°F-25.5°C 12% 4.6 mph NW7.4 kmh NW 8.1 mph13.0 kmh 30.45 in1031.2 mb 0.00 in0.0 mm 0.00 in0.0 mm 0.00 in0.0 mm
04:08 PM 33.4°F0.8°C -13.9°F-25.5°C 12% 4.8 mph NW7.7 kmh NW 8.1 mph13.0 kmh 30.45 in1031.2 mb 0.00 in0.0 mm 0.00 in0.0 mm 0.00 in0.0 mm
04:09 PM 33.4°F0.8°C -13.9°F-25.5°C 12% 5.1 mph NW8.2 kmh NW 8.1 mph13.0 kmh 30.45 in1031.2 mb 0.00 in0.0 mm 0.00 in0.0 mm 0.00 in0.0 mm
04:10 PM 33.3°F0.7°C -14.0°F-25.6°C 12% 5.2 mph NW8.4 kmh NW 8.1 mph13.0 kmh 30.45 in1031.2 mb 0.00 in0.0 mm 0.00 in0.0 mm 0.00 in0.0 mm
04:11 PM 33.6°F0.9°C -13.7°F-25.4°C 12% 5.1 mph NW8.2 kmh NW 8.1 mph13.0 kmh 30.45 in1031.2 mb 0.00 in0.0 mm 0.00 in0.0 mm 0.00 in0.0 mm
04:12 PM 33.6°F0.9°C -13.7°F-25.4°C 12% 5.1 mph NW8.2 kmh NW 8.1 mph13.0 kmh 30.45 in1031.2 mb 0.00 in0.0 mm 0.00 in0.0 mm 0.00 in0.0 mm
04:13 PM 33.4°F0.8°C -13.9°F-25.5°C 12% 4.9 mph NW7.9 kmh NW 8.1 mph13.0 kmh 30.45 in1031.2 mb 0.00 in0.0 mm 0.00 in0.0 mm 0.00 in0.0 mm
04:14 PM 33.4°F0.8°C -13.9°F-25.5°C 12% 4.8 mph NW7.7 kmh NW 8.1 mph13.0 kmh 30.48 in1032.2 mb 0.00 in0.0 mm 0.00 in0.0 mm 0.00 in0.0 mm
04:15 PM 33.6°F0.9°C -13.7°F-25.4°C 12% 4.5 mph NW7.2 kmh NW 6.7 mph10.8 kmh 30.48 in1032.2 mb 0.00 in0.0 mm 0.00 in0.0 mm 0.00 in0.0 mm
04:16 PM 33.6°F0.9°C -13.7°F-25.4°C 12% 4.7 mph NW7.6 kmh NW 8.7 mph14.0 kmh 30.48 in1032.2 mb 0.00 in0.0 mm 0.00 in0.0 mm 0.00 in0.0 mm
04:17 PM 33.3°F0.7°C -14.0°F-25.6°C 12% 4.8 mph NW7.7 kmh NW 8.7 mph14.0 kmh 30.48 in1032.2 mb 0.00 in0.0 mm 0.00 in0.0 mm 0.00 in0.0 mm
04:18 PM 33.1°F0.6°C -14.1°F-25.6°C 12% 4.9 mph NW7.9 kmh NW 8.7 mph14.0 kmh 30.48 in1032.2 mb 0.00 in0.0 mm 0.00 in0.0 mm 0.00 in0.0 mm
04:19 PM 33.1°F0.6°C -14.1°F-25.6°C 12% 4.9 mph NW7.9 kmh NW 8.7 mph14.0 kmh 30.48 in1032.2 mb 0.00 in0.0 mm 0.00 in0.0 mm 0.00 in0.0 mm
04:20 PM 33.1°F0.6°C -14.1°F-25.6°C 12% 4.7 mph NW7.6 kmh NW 8.7 mph14.0 kmh 30.48 in1032.2 mb 0.00 in0.0 mm 0.00 in0.0 mm 0.00 in0.0 mm
04:21 PM 33.1°F0.6°C -14.1°F-25.6°C 12% 4.8 mph NW7.7 kmh NW 8.7 mph14.0 kmh 30.48 in1032.2 mb 0.00 in0.0 mm 0.00 in0.0 mm 0.00 in0.0 mm
04:22 PM 33.1°F0.6°C -14.1°F-25.6°C 12% 4.7 mph NW7.6 kmh NW 8.7 mph14.0 kmh 30.48 in1032.2 mb 0.00 in0.0 mm 0.00 in0.0 mm 0.00 in0.0 mm
04:23 PM 33.1°F0.6°C -14.1°F-25.6°C 12% 4.6 mph NW7.4 kmh NW 8.7 mph14.0 kmh 30.48 in1032.2 mb 0.00 in0.0 mm 0.00 in0.0 mm 0.00 in0.0 mm
04:24 PM 32.9°F0.5°C -14.3°F-25.7°C 12% 4.8 mph NW7.7 kmh NW 8.7 mph14.0 kmh 30.48 in1032.2 mb 0.00 in0.0 mm 0.00 in0.0 mm 0.00 in0.0 mm
04:25 PM 32.9°F0.5°C -14.3°F-25.7°C 12% 5.1 mph NW8.2 kmh NW 8.7 mph14.0 kmh 30.48 in1032.2 mb 0.00 in0.0 mm 0.00 in0.0 mm 0.00 in0.0 mm
04:26 PM 32.9°F0.5°C -14.3°F-25.7°C 12% 4.9 mph NW7.9 kmh NW 8.7 mph14.0 kmh 30.48 in1032.2 mb 0.00 in0.0 mm 0.00 in0.0 mm 0.00 in0.0 mm
04:27 PM 32.5°F0.3°C -14.6°F-25.9°C 12% 5.0 mph NW8.0 kmh NW 8.7 mph14.0 kmh 30.48 in1032.2 mb 0.00 in0.0 mm 0.00 in0.0 mm 0.00 in0.0 mm
04:28 PM 32.5°F0.3°C -14.6°F-25.9°C 12% 4.7 mph NW7.6 kmh NW 8.7 mph14.0 kmh 30.48 in1032.2 mb 0.00 in0.0 mm 0.00 in0.0 mm 0.00 in0.0 mm
04:29 PM 32.5°F0.3°C -14.6°F-25.9°C 12% 4.4 mph NW7.1 kmh NW 8.7 mph14.0 kmh 30.45 in1031.2 mb 0.00 in0.0 mm 0.00 in0.0 mm 0.00 in0.0 mm
04:30 PM 32.5°F0.3°C -14.6°F-25.9°C 12% 4.5 mph NW7.2 kmh NW 8.7 mph14.0 kmh 30.45 in1031.2 mb 0.00 in0.0 mm 0.00 in0.0 mm 0.00 in0.0 mm
04:31 PM 32.4°F0.2°C -14.7°F-25.9°C 12% 4.5 mph NW7.2 kmh NW 8.7 mph14.0 kmh 30.45 in1031.2 mb 0.00 in0.0 mm 0.00 in0.0 mm 0.00 in0.0 mm
04:32 PM 32.4°F0.2°C -14.7°F-25.9°C 12% 4.7 mph WNW7.6 kmh WNW 8.7 mph14.0 kmh 30.45 in1031.2 mb 0.00 in0.0 mm 0.00 in0.0 mm 0.00 in0.0 mm
04:33 PM 32.5°F0.3°C -14.6°F-25.9°C 12% 5.1 mph WNW8.2 kmh WNW 8.7 mph14.0 kmh 30.45 in1031.2 mb 0.00 in0.0 mm 0.00 in0.0 mm 0.00 in0.0 mm
04:34 PM 32.5°F0.3°C -14.6°F-25.9°C 12% 4.9 mph WNW7.9 kmh WNW 8.7 mph14.0 kmh 30.45 in1031.2 mb 0.00 in0.0 mm 0.00 in0.0 mm 0.00 in0.0 mm
04:35 PM 32.5°F0.3°C -14.6°F-25.9°C 12% 4.8 mph WNW7.7 kmh WNW 8.7 mph14.0 kmh 30.45 in1031.2 mb 0.00 in0.0 mm 0.00 in0.0 mm 0.00 in0.0 mm
04:36 PM 32.2°F0.1°C -14.9°F-26.1°C 12% 4.5 mph W7.2 kmh W 8.7 mph14.0 kmh 30.45 in1031.2 mb 0.00 in0.0 mm 0.00 in0.0 mm 0.00 in0.0 mm
04:37 PM 32.2°F0.1°C -14.9°F-26.1°C 12% 4.4 mph W7.1 kmh W 8.7 mph14.0 kmh 30.45 in1031.2 mb 0.00 in0.0 mm 0.00 in0.0 mm 0.00 in0.0 mm
04:38 PM 32.0°F0.0°C -15.0°F-26.1°C 12% 3.9 mph W6.3 kmh W 6.3 mph10.1 kmh 30.45 in1031.2 mb 0.00 in0.0 mm 0.00 in0.0 mm 0.00 in0.0 mm
04:39 PM 32.0°F0.0°C -15.0°F-26.1°C 12% 3.6 mph W5.8 kmh W 6.3 mph10.1 kmh 30.45 in1031.2 mb 0.00 in0.0 mm 0.00 in0.0 mm 0.00 in0.0 mm
04:40 PM 31.8°F-0.1°C -15.1°F-26.2°C 12% 3.6 mph W5.8 kmh W 6.3 mph10.1 kmh 30.45 in1031.2 mb 0.00 in0.0 mm 0.00 in0.0 mm 0.00 in0.0 mm
04:41 PM 31.8°F-0.1°C -15.1°F-26.2°C 12% 4.2 mph WNW6.8 kmh WNW 7.6 mph12.2 kmh 30.45 in1031.2 mb 0.00 in0.0 mm 0.00 in0.0 mm 0.00 in0.0 mm
04:42 PM 31.8°F-0.1°C -15.1°F-26.2°C 12% 4.1 mph WNW6.6 kmh WNW 7.6 mph12.2 kmh 30.45 in1031.2 mb 0.00 in0.0 mm 0.00 in0.0 mm 0.00 in0.0 mm
04:43 PM 31.5°F-0.3°C -15.4°F-26.3°C 12% 3.9 mph WNW6.3 kmh WNW 7.6 mph12.2 kmh 30.45 in1031.2 mb 0.00 in0.0 mm 0.00 in0.0 mm 0.00 in0.0 mm
04:44 PM 31.5°F-0.3°C -15.4°F-26.3°C 12% 4.1 mph WNW6.6 kmh WNW 7.6 mph12.2 kmh 30.48 in1032.2 mb 0.00 in0.0 mm 0.00 in0.0 mm 0.00 in0.0 mm
04:45 PM 31.1°F-0.5°C -15.7°F-26.5°C 12% 4.2 mph WNW6.8 kmh WNW 7.6 mph12.2 kmh 30.48 in1032.2 mb 0.00 in0.0 mm 0.00 in0.0 mm 0.00 in0.0 mm
04:46 PM 31.1°F-0.5°C -15.7°F-26.5°C 12% 4.2 mph WNW6.8 kmh WNW 7.6 mph12.2 kmh 30.48 in1032.2 mb 0.00 in0.0 mm 0.00 in0.0 mm 0.00 in0.0 mm
04:47 PM 30.9°F-0.6°C -15.9°F-26.6°C 12% 4.2 mph NW6.8 kmh NW 7.6 mph12.2 kmh 30.48 in1032.2 mb 0.00 in0.0 mm 0.00 in0.0 mm 0.00 in0.0 mm
04:48 PM 30.7°F-0.7°C -16.0°F-26.7°C 12% 3.9 mph NW6.3 kmh NW 7.6 mph12.2 kmh 30.48 in1032.2 mb 0.00 in0.0 mm 0.00 in0.0 mm 0.00 in0.0 mm
04:49 PM 30.7°F-0.7°C -16.0°F-26.7°C 12% 3.9 mph NW6.3 kmh NW 7.6 mph12.2 kmh 30.48 in1032.2 mb 0.00 in0.0 mm 0.00 in0.0 mm 0.00 in0.0 mm
04:50 PM 30.2°F-1.0°C -16.4°F-26.9°C 12% 4.4 mph NW7.1 kmh NW 7.6 mph12.2 kmh 30.48 in1032.2 mb 0.00 in0.0 mm 0.00 in0.0 mm 0.00 in0.0 mm
04:51 PM 30.2°F-1.0°C -16.4°F-26.9°C 12% 4.4 mph NW7.1 kmh NW 7.6 mph12.2 kmh 30.48 in1032.2 mb 0.00 in0.0 mm 0.00 in0.0 mm 0.00 in0.0 mm
04:52 PM 30.2°F-1.0°C -16.4°F-26.9°C 12% 4.2 mph NW6.8 kmh NW 6.5 mph10.5 kmh 30.48 in1032.2 mb 0.00 in0.0 mm 0.00 in0.0 mm 0.00 in0.0 mm
04:53 PM 30.2°F-1.0°C -16.4°F-26.9°C 12% 3.8 mph NW6.1 kmh NW 6.5 mph10.5 kmh 30.48 in1032.2 mb 0.00 in0.0 mm 0.00 in0.0 mm 0.00 in0.0 mm
04:54 PM 29.7°F-1.3°C -16.9°F-27.2°C 12% 3.2 mph NW5.1 kmh NW 6.5 mph10.5 kmh 30.48 in1032.2 mb 0.00 in0.0 mm 0.00 in0.0 mm 0.00 in0.0 mm
04:55 PM 29.7°F-1.3°C -16.9°F-27.2°C 12% 3.0 mph NW4.8 kmh NW 6.5 mph10.5 kmh 30.48 in1032.2 mb 0.00 in0.0 mm 0.00 in0.0 mm 0.00 in0.0 mm
04:56 PM 29.7°F-1.3°C -16.9°F-27.2°C 12% 3.0 mph NW4.8 kmh NW 6.5 mph10.5 kmh 30.48 in1032.2 mb 0.00 in0.0 mm 0.00 in0.0 mm 0.00 in0.0 mm
04:57 PM 29.5°F-1.4°C -17.0°F-27.2°C 12% 2.6 mph NW4.2 kmh NW 6.5 mph10.5 kmh 30.48 in1032.2 mb 0.00 in0.0 mm 0.00 in0.0 mm 0.00 in0.0 mm
04:58 PM 29.5°F-1.4°C -17.0°F-27.2°C 12% 2.7 mph NW4.3 kmh NW 6.5 mph10.5 kmh 30.48 in1032.2 mb 0.00 in0.0 mm 0.00 in0.0 mm 0.00 in0.0 mm
04:59 PM 29.3°F-1.5°C -17.2°F-27.3°C 12% 2.4 mph NW3.9 kmh NW 6.5 mph10.5 kmh 30.48 in1032.2 mb 0.00 in0.0 mm 0.00 in0.0 mm 0.00 in0.0 mm
05:00 PM 29.3°F-1.5°C -17.2°F-27.3°C 12% 2.2 mph NW3.5 kmh NW 6.5 mph10.5 kmh 30.48 in1032.2 mb 0.00 in0.0 mm 0.00 in0.0 mm 0.00 in0.0 mm
05:01 PM 29.3°F-1.5°C -17.2°F-27.3°C 12% 1.7 mph NW2.7 kmh NW 6.5 mph10.5 kmh 30.48 in1032.2 mb 0.00 in0.0 mm 0.00 in0.0 mm 0.00 in0.0 mm
05:02 PM 29.3°F-1.5°C -17.2°F-27.3°C 12% 1.3 mph NW2.1 kmh NW 6.5 mph10.5 kmh 30.48 in1032.2 mb 0.00 in0.0 mm 0.00 in0.0 mm 0.00 in0.0 mm
05:03 PM 29.3°F-1.5°C -17.2°F-27.3°C 12% 1.0 mph NNW1.6 kmh NNW 4.3 mph6.9 kmh 30.48 in1032.2 mb 0.00 in0.0 mm 0.00 in0.0 mm 0.00 in0.0 mm
05:04 PM 29.3°F-1.5°C -17.2°F-27.3°C 12% 1.4 mph NW2.3 kmh NW 4.3 mph6.9 kmh 30.48 in1032.2 mb 0.00 in0.0 mm 0.00 in0.0 mm 0.00 in0.0 mm
05:05 PM 29.3°F-1.5°C -17.2°F-27.3°C 12% 1.4 mph NW2.3 kmh NW 4.3 mph6.9 kmh 30.48 in1032.2 mb 0.00 in0.0 mm 0.00 in0.0 mm 0.00 in0.0 mm
05:06 PM 28.9°F-1.7°C -17.4°F-27.4°C 12% 1.4 mph NW2.3 kmh NW 4.0 mph6.4 kmh 30.48 in1032.2 mb 0.00 in0.0 mm 0.00 in0.0 mm 0.00 in0.0 mm
05:07 PM 28.9°F-1.7°C -17.4°F-27.4°C 12% 1.4 mph NW2.3 kmh NW 4.0 mph6.4 kmh 30.48 in1032.2 mb 0.00 in0.0 mm 0.00 in0.0 mm 0.00 in0.0 mm
05:08 PM 28.9°F-1.7°C -17.4°F-27.4°C 12% 1.5 mph NW2.4 kmh NW 4.9 mph7.9 kmh 30.48 in1032.2 mb 0.00 in0.0 mm 0.00 in0.0 mm 0.00 in0.0 mm
05:09 PM 28.9°F-1.7°C -17.4°F-27.4°C 12% 1.8 mph NW2.9 kmh NW 4.9 mph7.9 kmh 30.48 in1032.2 mb 0.00 in0.0 mm 0.00 in0.0 mm 0.00 in0.0 mm
05:10 PM 28.8°F-1.8°C -17.6°F-27.6°C 12% 1.8 mph NW2.9 kmh NW 4.9 mph7.9 kmh 30.48 in1032.2 mb 0.00 in0.0 mm 0.00 in0.0 mm 0.00 in0.0 mm
05:11 PM 28.6°F-1.9°C -17.7°F-27.6°C 12% 2.2 mph NW3.5 kmh NW 4.9 mph7.9 kmh 30.48 in1032.2 mb 0.00 in0.0 mm 0.00 in0.0 mm 0.00 in0.0 mm
05:12 PM 28.6°F-1.9°C -17.7°F-27.6°C 12% 2.5 mph NW4.0 kmh NW 4.9 mph7.9 kmh 30.48 in1032.2 mb 0.00 in0.0 mm 0.00 in0.0 mm 0.00 in0.0 mm
05:13 PM 28.6°F-1.9°C -17.7°F-27.6°C 12% 2.6 mph NW4.2 kmh NW 4.9 mph7.9 kmh 30.48 in1032.2 mb 0.00 in0.0 mm 0.00 in0.0 mm 0.00 in0.0 mm
05:14 PM 28.6°F-1.9°C -17.7°F-27.6°C 12% 2.7 mph NW4.3 kmh NW 4.9 mph7.9 kmh 30.48 in1032.2 mb 0.00 in0.0 mm 0.00 in0.0 mm 0.00 in0.0 mm
05:15 PM 28.9°F-1.7°C -17.4°F-27.4°C 12% 3.0 mph NW4.8 kmh NW 5.6 mph9.0 kmh 30.48 in1032.2 mb 0.00 in0.0 mm 0.00 in0.0 mm 0.00 in0.0 mm
05:16 PM 28.9°F-1.7°C -17.4°F-27.4°C 12% 3.1 mph NW5.0 kmh NW 5.6 mph9.0 kmh 30.48 in1032.2 mb 0.00 in0.0 mm 0.00 in0.0 mm 0.00 in0.0 mm
05:17 PM 28.6°F-1.9°C -17.7°F-27.6°C 12% 3.4 mph NW5.5 kmh NW 5.6 mph9.0 kmh 30.48 in1032.2 mb 0.00 in0.0 mm 0.00 in0.0 mm 0.00 in0.0 mm
05:18 PM 28.6°F-1.9°C -17.7°F-27.6°C 12% 3.5 mph NW5.6 kmh NW 5.6 mph9.0 kmh 30.48 in1032.2 mb 0.00 in0.0 mm 0.00 in0.0 mm 0.00 in0.0 mm
05:19 PM 28.8°F-1.8°C -17.6°F-27.6°C 12% 3.7 mph NW6.0 kmh NW 5.6 mph9.0 kmh 30.48 in1032.2 mb 0.00 in0.0 mm 0.00 in0.0 mm 0.00 in0.0 mm
05:20 PM 28.8°F-1.8°C -17.6°F-27.6°C 12% 4.3 mph NW6.9 kmh NW 5.6 mph9.0 kmh 30.48 in1032.2 mb 0.00 in0.0 mm 0.00 in0.0 mm 0.00 in0.0 mm
05:21 PM 28.8°F-1.8°C -17.6°F-27.6°C 12% 4.4 mph NW7.1 kmh NW 5.6 mph9.0 kmh 30.48 in1032.2 mb 0.00 in0.0 mm 0.00 in0.0 mm 0.00 in0.0 mm
05:22 PM 28.4°F-2.0°C -17.9°F-27.7°C 12% 4.3 mph NW6.9 kmh NW 5.6 mph9.0 kmh 30.48 in1032.2 mb 0.00 in0.0 mm 0.00 in0.0 mm 0.00 in0.0 mm
05:23 PM 28.4°F-2.0°C -17.9°F-27.7°C 12% 4.4 mph NW7.1 kmh NW 5.6 mph9.0 kmh 30.48 in1032.2 mb 0.00 in0.0 mm 0.00 in0.0 mm 0.00 in0.0 mm
05:24 PM 28.6°F-1.9°C -17.7°F-27.6°C 12% 4.2 mph NW6.8 kmh NW 5.6 mph9.0 kmh 30.48 in1032.2 mb 0.00 in0.0 mm 0.00 in0.0 mm 0.00 in0.0 mm
05:25 PM 28.6°F-1.9°C -17.7°F-27.6°C 12% 4.1 mph NW6.6 kmh NW 5.4 mph8.7 kmh 30.48 in1032.2 mb 0.00 in0.0 mm 0.00 in0.0 mm 0.00 in0.0 mm
05:26 PM 28.4°F-2.0°C -17.9°F-27.7°C 12% 4.0 mph NW6.4 kmh NW 5.4 mph8.7 kmh 30.48 in1032.2 mb 0.00 in0.0 mm 0.00 in0.0 mm 0.00 in0.0 mm
05:27 PM 28.4°F-2.0°C -17.9°F-27.7°C 12% 3.8 mph NW6.1 kmh NW 5.4 mph8.7 kmh 30.48 in1032.2 mb 0.00 in0.0 mm 0.00 in0.0 mm 0.00 in0.0 mm
05:28 PM 28.4°F-2.0°C -17.9°F-27.7°C 12% 3.9 mph NW6.3 kmh NW 5.4 mph8.7 kmh 30.48 in1032.2 mb 0.00 in0.0 mm 0.00 in0.0 mm 0.00 in0.0 mm
05:29 PM 28.4°F-2.0°C -17.9°F-27.7°C 12% 3.9 mph NW6.3 kmh NW 6.5 mph10.5 kmh 30.48 in1032.2 mb 0.00 in0.0 mm 0.00 in0.0 mm 0.00 in0.0 mm
05:30 PM 28.4°F-2.0°C -17.9°F-27.7°C 12% 3.7 mph NW6.0 kmh NW 6.5 mph10.5 kmh 30.48 in1032.2 mb 0.00 in0.0 mm 0.00 in0.0 mm 0.00 in0.0 mm
05:31 PM 28.2°F-2.1°C -18.0°F-27.8°C 12% 3.6 mph NW5.8 kmh NW 6.5 mph10.5 kmh 30.48 in1032.2 mb 0.00 in0.0 mm 0.00 in0.0 mm 0.00 in0.0 mm
05:32 PM 28.2°F-2.1°C -18.0°F-27.8°C 12% 3.4 mph NW5.5 kmh NW 6.5 mph10.5 kmh 30.48 in1032.2 mb 0.00 in0.0 mm 0.00 in0.0 mm 0.00 in0.0 mm
05:33 PM 27.9°F-2.3°C -18.3°F-27.9°C 12% 3.4 mph NW5.5 kmh NW 6.5 mph10.5 kmh 30.48 in1032.2 mb 0.00 in0.0 mm 0.00 in0.0 mm 0.00 in0.0 mm
05:34 PM 28.0°F-2.2°C -18.2°F-27.9°C 12% 3.4 mph NW5.5 kmh NW 6.5 mph10.5 kmh 30.48 in1032.2 mb 0.00 in0.0 mm 0.00 in0.0 mm 0.00 in0.0 mm
05:35 PM 28.0°F-2.2°C -18.2°F-27.9°C 12% 3.3 mph NW5.3 kmh NW 6.5 mph10.5 kmh 30.48 in1032.2 mb 0.00 in0.0 mm 0.00 in0.0 mm 0.00 in0.0 mm
05:36 PM 28.0°F-2.2°C -18.2°F-27.9°C 12% 3.2 mph NW5.1 kmh NW 6.5 mph10.5 kmh 30.48 in1032.2 mb 0.00 in0.0 mm 0.00 in0.0 mm 0.00 in0.0 mm
05:37 PM 28.0°F-2.2°C -18.2°F-27.9°C 12% 3.2 mph NW5.1 kmh NW 6.5 mph10.5 kmh 30.48 in1032.2 mb 0.00 in0.0 mm 0.00 in0.0 mm 0.00 in0.0 mm
05:38 PM 27.9°F-2.3°C -18.3°F-27.9°C 12% 3.4 mph NW5.5 kmh NW 6.5 mph10.5 kmh 30.48 in1032.2 mb 0.00 in0.0 mm 0.00 in0.0 mm 0.00 in0.0 mm
05:39 PM 27.9°F-2.3°C -18.3°F-27.9°C 12% 3.2 mph NW5.1 kmh NW 5.4 mph8.7 kmh 30.48 in1032.2 mb 0.00 in0.0 mm 0.00 in0.0 mm 0.00 in0.0 mm
05:40 PM 27.9°F-2.3°C -18.3°F-27.9°C 12% 3.0 mph NW4.8 kmh NW 5.4 mph8.7 kmh 30.48 in1032.2 mb 0.00 in0.0 mm 0.00 in0.0 mm 0.00 in0.0 mm
05:41 PM 27.9°F-2.3°C -18.3°F-27.9°C 12% 2.9 mph NNW4.7 kmh NNW 4.9 mph7.9 kmh 30.48 in1032.2 mb 0.00 in0.0 mm 0.00 in0.0 mm 0.00 in0.0 mm
05:42 PM 27.7°F-2.4°C -18.4°F-28.0°C 12% 2.8 mph NNW4.5 kmh NNW 4.9 mph7.9 kmh 30.48 in1032.2 mb 0.00 in0.0 mm 0.00 in0.0 mm 0.00 in0.0 mm
05:43 PM 27.5°F-2.5°C -18.6°F-28.1°C 12% 2.6 mph NNW4.2 kmh NNW 4.9 mph7.9 kmh 30.48 in1032.2 mb 0.00 in0.0 mm 0.00 in0.0 mm 0.00 in0.0 mm
05:44 PM 27.5°F-2.5°C -18.6°F-28.1°C 12% 2.5 mph NNW4.0 kmh NNW 4.9 mph7.9 kmh 30.48 in1032.2 mb 0.00 in0.0 mm 0.00 in0.0 mm 0.00 in0.0 mm
05:45 PM 27.5°F-2.5°C -18.6°F-28.1°C 12% 2.4 mph NNW3.9 kmh NNW 4.9 mph7.9 kmh 30.48 in1032.2 mb 0.00 in0.0 mm 0.00 in0.0 mm 0.00 in0.0 mm
05:46 PM 27.5°F-2.5°C -18.6°F-28.1°C 12% 2.3 mph NNW3.7 kmh NNW 4.9 mph7.9 kmh 30.48 in1032.2 mb 0.00 in0.0 mm 0.00 in0.0 mm 0.00 in0.0 mm
05:47 PM 27.5°F-2.5°C -18.6°F-28.1°C 12% 2.2 mph NNW3.5 kmh NNW 5.4 mph8.7 kmh 30.48 in1032.2 mb 0.00 in0.0 mm 0.00 in0.0 mm 0.00 in0.0 mm
05:48 PM 27.5°F-2.5°C -18.6°F-28.1°C 12% 2.0 mph NNW3.2 kmh NNW 5.4 mph8.7 kmh 30.48 in1032.2 mb 0.00 in0.0 mm 0.00 in0.0 mm 0.00 in0.0 mm
05:49 PM 27.1°F-2.7°C -18.9°F-28.3°C 12% 1.7 mph NNW2.7 kmh NNW 5.4 mph8.7 kmh 30.48 in1032.2 mb 0.00 in0.0 mm 0.00 in0.0 mm 0.00 in0.0 mm
05:50 PM 27.1°F-2.7°C -18.9°F-28.3°C 12% 1.8 mph NNW2.9 kmh NNW 5.4 mph8.7 kmh 30.48 in1032.2 mb 0.00 in0.0 mm 0.00 in0.0 mm 0.00 in0.0 mm
05:51 PM 27.1°F-2.7°C -18.9°F-28.3°C 12% 1.9 mph NNW3.1 kmh NNW 5.4 mph8.7 kmh 30.48 in1032.2 mb 0.00 in0.0 mm 0.00 in0.0 mm 0.00 in0.0 mm
05:52 PM 27.0°F-2.8°C -19.0°F-28.3°C 12% 1.7 mph NNW2.7 kmh NNW 5.4 mph8.7 kmh 30.48 in1032.2 mb 0.00 in0.0 mm 0.00 in0.0 mm 0.00 in0.0 mm
05:53 PM 27.0°F-2.8°C -19.0°F-28.3°C 12% 1.8 mph NNW2.9 kmh NNW 5.4 mph8.7 kmh 30.48 in1032.2 mb 0.00 in0.0 mm 0.00 in0.0 mm 0.00 in0.0 mm
05:54 PM 27.0°F-2.8°C -19.0°F-28.3°C 12% 1.6 mph NW2.6 kmh NW 5.4 mph8.7 kmh 30.48 in1032.2 mb 0.00 in0.0 mm 0.00 in0.0 mm 0.00 in0.0 mm
05:55 PM 27.0°F-2.8°C -19.0°F-28.3°C 12% 1.5 mph NW2.4 kmh NW 5.4 mph8.7 kmh 30.48 in1032.2 mb 0.00 in0.0 mm 0.00 in0.0 mm 0.00 in0.0 mm
05:56 PM 27.0°F-2.8°C -19.0°F-28.3°C 12% 1.6 mph NW2.6 kmh NW 5.4 mph8.7 kmh 30.48 in1032.2 mb 0.00 in0.0 mm 0.00 in0.0 mm 0.00 in0.0 mm
05:57 PM 27.0°F-2.8°C -19.0°F-28.3°C 12% 1.2 mph NW1.9 kmh NW 3.4 mph5.5 kmh 30.48 in1032.2 mb 0.00 in0.0 mm 0.00 in0.0 mm 0.00 in0.0 mm
05:58 PM 27.0°F-2.8°C -19.0°F-28.3°C 12% 1.2 mph NW1.9 kmh NW 3.4 mph5.5 kmh 30.48 in1032.2 mb 0.00 in0.0 mm 0.00 in0.0 mm 0.00 in0.0 mm
05:59 PM 27.0°F-2.8°C -19.0°F-28.3°C 12% 1.4 mph NW2.3 kmh NW 3.4 mph5.5 kmh 30.48 in1032.2 mb 0.00 in0.0 mm 0.00 in0.0 mm 0.00 in0.0 mm
06:00 PM 27.0°F-2.8°C -19.0°F-28.3°C 12% 1.5 mph NW2.4 kmh NW 3.6 mph5.8 kmh 30.48 in1032.2 mb 0.00 in0.0 mm 0.00 in0.0 mm 0.00 in0.0 mm
06:01 PM 27.0°F-2.8°C -19.0°F-28.3°C 12% 1.7 mph NW2.7 kmh NW 4.0 mph6.4 kmh 30.48 in1032.2 mb 0.00 in0.0 mm 0.00 in0.0 mm 0.00 in0.0 mm
06:02 PM 27.0°F-2.8°C -19.0°F-28.3°C 12% 1.6 mph NW2.6 kmh NW 4.0 mph6.4 kmh 30.48 in1032.2 mb 0.00 in0.0 mm 0.00 in0.0 mm 0.00 in0.0 mm
06:03 PM 27.0°F-2.8°C -19.0°F-28.3°C 12% 1.7 mph NW2.7 kmh NW 4.0 mph6.4 kmh 30.48 in1032.2 mb 0.00 in0.0 mm 0.00 in0.0 mm 0.00 in0.0 mm
06:04 PM 27.0°F-2.8°C -19.0°F-28.3°C 12% 2.1 mph NW3.4 kmh NW 4.0 mph6.4 kmh 30.48 in1032.2 mb 0.00 in0.0 mm 0.00 in0.0 mm 0.00 in0.0 mm
06:05 PM 27.0°F-2.8°C -19.0°F-28.3°C 12% 2.1 mph NW3.4 kmh NW 4.0 mph6.4 kmh 30.48 in1032.2 mb 0.00 in0.0 mm 0.00 in0.0 mm 0.00 in0.0 mm
06:06 PM 26.6°F-3.0°C -17.8°F-27.7°C 13% 2.3 mph NW3.7 kmh NW 4.0 mph6.4 kmh 30.48 in1032.2 mb 0.00 in0.0 mm 0.00 in0.0 mm 0.00 in0.0 mm
06:07 PM 26.6°F-3.0°C -17.8°F-27.7°C 13% 2.5 mph NW4.0 kmh NW 4.0 mph6.4 kmh 30.48 in1032.2 mb 0.00 in0.0 mm 0.00 in0.0 mm 0.00 in0.0 mm
06:08 PM 26.8°F-2.9°C -19.2°F-28.4°C 12% 2.6 mph NW4.2 kmh NW 4.0 mph6.4 kmh 30.48 in1032.2 mb 0.00 in0.0 mm 0.00 in0.0 mm 0.00 in0.0 mm
06:09 PM 26.8°F-2.9°C -19.2°F-28.4°C 12% 2.4 mph NW3.9 kmh NW 4.0 mph6.4 kmh 30.48 in1032.2 mb 0.00 in0.0 mm 0.00 in0.0 mm 0.00 in0.0 mm
06:10 PM 26.4°F-3.1°C -17.9°F-27.7°C 13% 2.2 mph NW3.5 kmh NW 4.0 mph6.4 kmh 30.48 in1032.2 mb 0.00 in0.0 mm 0.00 in0.0 mm 0.00 in0.0 mm
06:11 PM 26.4°F-3.1°C -17.9°F-27.7°C 13% 1.9 mph NNW3.1 kmh NNW 3.6 mph5.8 kmh 30.48 in1032.2 mb 0.00 in0.0 mm 0.00 in0.0 mm 0.00 in0.0 mm
06:12 PM 26.4°F-3.1°C -17.9°F-27.7°C 13% 2.0 mph NNW3.2 kmh NNW 3.8 mph6.1 kmh 30.48 in1032.2 mb 0.00 in0.0 mm 0.00 in0.0 mm 0.00 in0.0 mm
06:13 PM 26.6°F-3.0°C -17.8°F-27.7°C 13% 1.9 mph NNW3.1 kmh NNW 3.8 mph6.1 kmh 30.48 in1032.2 mb 0.00 in0.0 mm 0.00 in0.0 mm 0.00 in0.0 mm
06:14 PM 26.6°F-3.0°C -17.8°F-27.7°C 13% 1.8 mph NNW2.9 kmh NNW 3.8 mph6.1 kmh 30.51 in1033.2 mb 0.00 in0.0 mm 0.00 in0.0 mm 0.00 in0.0 mm
06:15 PM 26.4°F-3.1°C -17.9°F-27.7°C 13% 1.4 mph NNW2.3 kmh NNW 3.8 mph6.1 kmh 30.51 in1033.2 mb 0.00 in0.0 mm 0.00 in0.0 mm 0.00 in0.0 mm
06:16 PM 26.4°F-3.1°C -17.9°F-27.7°C 13% 1.4 mph NW2.3 kmh NW 3.8 mph6.1 kmh 30.51 in1033.2 mb 0.00 in0.0 mm 0.00 in0.0 mm 0.00 in0.0 mm
06:17 PM 26.4°F-3.1°C -17.9°F-27.7°C 13% 1.6 mph NW2.6 kmh NW 4.0 mph6.4 kmh 30.51 in1033.2 mb 0.00 in0.0 mm 0.00 in0.0 mm 0.00 in0.0 mm
06:18 PM 26.4°F-3.1°C -17.9°F-27.7°C 13% 1.6 mph NW2.6 kmh NW 4.0 mph6.4 kmh 30.51 in1033.2 mb 0.00 in0.0 mm 0.00 in0.0 mm 0.00 in0.0 mm
06:19 PM 26.4°F-3.1°C -17.9°F-27.7°C 13% 1.7 mph NW2.7 kmh NW 4.0 mph6.4 kmh 30.51 in1033.2 mb 0.00 in0.0 mm 0.00 in0.0 mm 0.00 in0.0 mm
06:20 PM 26.6°F-3.0°C -17.8°F-27.7°C 13% 2.0 mph NW3.2 kmh NW 4.0 mph6.4 kmh 30.51 in1033.2 mb 0.00 in0.0 mm 0.00 in0.0 mm 0.00 in0.0 mm
06:21 PM 26.6°F-3.0°C -17.8°F-27.7°C 13% 2.1 mph NW3.4 kmh NW 4.0 mph6.4 kmh 30.51 in1033.2 mb 0.00 in0.0 mm 0.00 in0.0 mm 0.00 in0.0 mm
06:22 PM 26.4°F-3.1°C -17.9°F-27.7°C 13% 2.0 mph NW3.2 kmh NW 4.0 mph6.4 kmh 30.51 in1033.2 mb 0.00 in0.0 mm 0.00 in0.0 mm 0.00 in0.0 mm
06:23 PM 26.4°F-3.1°C -17.9°F-27.7°C 13% 2.2 mph NW3.5 kmh NW 4.5 mph7.2 kmh 30.51 in1033.2 mb 0.00 in0.0 mm 0.00 in0.0 mm 0.00 in0.0 mm
06:24 PM 26.4°F-3.1°C -17.9°F-27.7°C 13% 2.7 mph NW4.3 kmh NW 4.7 mph7.6 kmh 30.51 in1033.2 mb 0.00 in0.0 mm 0.00 in0.0 mm 0.00 in0.0 mm
06:25 PM 26.4°F-3.1°C -17.9°F-27.7°C 13% 3.0 mph NW4.8 kmh NW 4.7 mph7.6 kmh 30.51 in1033.2 mb 0.00 in0.0 mm 0.00 in0.0 mm 0.00 in0.0 mm
06:26 PM 26.4°F-3.1°C -17.9°F-27.7°C 13% 3.0 mph NW4.8 kmh NW 4.7 mph7.6 kmh 30.51 in1033.2 mb 0.00 in0.0 mm 0.00 in0.0 mm 0.00 in0.0 mm
06:27 PM 26.4°F-3.1°C -17.9°F-27.7°C 13% 2.7 mph NW4.3 kmh NW 4.7 mph7.6 kmh 30.51 in1033.2 mb 0.00 in0.0 mm 0.00 in0.0 mm 0.00 in0.0 mm
06:28 PM 26.4°F-3.1°C -17.9°F-27.7°C 13% 2.7 mph NW4.3 kmh NW 4.7 mph7.6 kmh 30.51 in1033.2 mb 0.00 in0.0 mm 0.00 in0.0 mm 0.00 in0.0 mm
06:29 PM 26.4°F-3.1°C -17.9°F-27.7°C 13% 2.7 mph NW4.3 kmh NW 4.7 mph7.6 kmh 30.51 in1033.2 mb 0.00 in0.0 mm 0.00 in0.0 mm 0.00 in0.0 mm
06:30 PM 26.4°F-3.1°C -17.9°F-27.7°C 13% 2.7 mph NW4.3 kmh NW 4.7 mph7.6 kmh 30.51 in1033.2 mb 0.00 in0.0 mm 0.00 in0.0 mm 0.00 in0.0 mm
06:31 PM 26.1°F-3.3°C -18.2°F-27.9°C 13% 2.4 mph NW3.9 kmh NW 4.7 mph7.6 kmh 30.51 in1033.2 mb 0.00 in0.0 mm 0.00 in0.0 mm 0.00 in0.0 mm
06:32 PM 26.1°F-3.3°C -18.2°F-27.9°C 13% 2.2 mph NW3.5 kmh NW 4.7 mph7.6 kmh 30.51 in1033.2 mb 0.00 in0.0 mm 0.00 in0.0 mm 0.00 in0.0 mm
06:33 PM 26.1°F-3.3°C -18.2°F-27.9°C 13% 2.3 mph NW3.7 kmh NW 4.7 mph7.6 kmh 30.51 in1033.2 mb 0.00 in0.0 mm 0.00 in0.0 mm 0.00 in0.0 mm
06:34 PM 26.1°F-3.3°C -18.2°F-27.9°C 13% 1.6 mph NNW2.6 kmh NNW 3.8 mph6.1 kmh 30.51 in1033.2 mb 0.00 in0.0 mm 0.00 in0.0 mm 0.00 in0.0 mm
06:35 PM 25.7°F-3.5°C -18.5°F-28.1°C 13% 1.4 mph NNW2.3 kmh NNW 3.8 mph6.1 kmh 30.51 in1033.2 mb 0.00 in0.0 mm 0.00 in0.0 mm 0.00 in0.0 mm
06:36 PM 25.7°F-3.5°C -18.5°F-28.1°C 13% 1.1 mph NW1.8 kmh NW 3.8 mph6.1 kmh 30.51 in1033.2 mb 0.00 in0.0 mm 0.00 in0.0 mm 0.00 in0.0 mm
06:37 PM 25.7°F-3.5°C -18.5°F-28.1°C 13% 1.1 mph NW1.8 kmh NW 3.8 mph6.1 kmh 30.51 in1033.2 mb 0.00 in0.0 mm 0.00 in0.0 mm 0.00 in0.0 mm
06:38 PM 25.7°F-3.5°C -18.5°F-28.1°C 13% 0.9 mph NNW1.4 kmh NNW 3.1 mph5.0 kmh 30.51 in1033.2 mb 0.00 in0.0 mm 0.00 in0.0 mm 0.00 in0.0 mm
06:39 PM 25.7°F-3.5°C -18.5°F-28.1°C 13% 0.9 mph NNW1.4 kmh NNW 3.1 mph5.0 kmh 30.51 in1033.2 mb 0.00 in0.0 mm 0.00 in0.0 mm 0.00 in0.0 mm
06:40 PM 25.7°F-3.5°C -18.5°F-28.1°C 13% 0.8 mph NNW1.3 kmh NNW 3.4 mph5.5 kmh 30.51 in1033.2 mb 0.00 in0.0 mm 0.00 in0.0 mm 0.00 in0.0 mm
06:41 PM 25.7°F-3.5°C -18.5°F-28.1°C 13% 0.8 mph NW1.3 kmh NW 3.4 mph5.5 kmh 30.51 in1033.2 mb 0.00 in0.0 mm 0.00 in0.0 mm 0.00 in0.0 mm
06:42 PM 25.9°F-3.4°C -18.3°F-27.9°C 13% 0.9 mph NW1.4 kmh NW 3.4 mph5.5 kmh 30.51 in1033.2 mb 0.00 in0.0 mm 0.00 in0.0 mm 0.00 in0.0 mm
06:43 PM 25.7°F-3.5°C -18.5°F-28.1°C 13% 0.7 mph NW1.1 kmh NW 3.4 mph5.5 kmh 30.51 in1033.2 mb 0.00 in0.0 mm 0.00 in0.0 mm 0.00 in0.0 mm
06:44 PM 25.7°F-3.5°C -18.5°F-28.1°C 13% 0.9 mph NW1.4 kmh NW 3.4 mph5.5 kmh 30.51 in1033.2 mb 0.00 in0.0 mm 0.00 in0.0 mm 0.00 in0.0 mm
06:45 PM 25.7°F-3.5°C -18.5°F-28.1°C 13% 1.3 mph NW2.1 kmh NW 3.4 mph5.5 kmh 30.51 in1033.2 mb 0.00 in0.0 mm 0.00 in0.0 mm 0.00 in0.0 mm
06:46 PM 25.7°F-3.5°C -18.5°F-28.1°C 13% 1.5 mph NW2.4 kmh NW 3.4 mph5.5 kmh 30.51 in1033.2 mb 0.00 in0.0 mm 0.00 in0.0 mm 0.00 in0.0 mm
06:47 PM 25.9°F-3.4°C -18.3°F-27.9°C 13% 2.2 mph WNW3.5 kmh WNW 5.8 mph9.3 kmh 30.51 in1033.2 mb 0.00 in0.0 mm 0.00 in0.0 mm 0.00 in0.0 mm
06:48 PM 25.9°F-3.4°C -18.3°F-27.9°C 13% 2.4 mph WNW3.9 kmh WNW 5.8 mph9.3 kmh 30.51 in1033.2 mb 0.00 in0.0 mm 0.00 in0.0 mm 0.00 in0.0 mm
06:49 PM 25.9°F-3.4°C -18.3°F-27.9°C 13% 2.8 mph NW4.5 kmh NW 5.8 mph9.3 kmh 30.51 in1033.2 mb 0.00 in0.0 mm 0.00 in0.0 mm 0.00 in0.0 mm
06:50 PM 25.7°F-3.5°C -18.5°F-28.1°C 13% 2.9 mph NW4.7 kmh NW 5.8 mph9.3 kmh 30.51 in1033.2 mb 0.00 in0.0 mm 0.00 in0.0 mm 0.00 in0.0 mm
06:51 PM 25.7°F-3.5°C -18.5°F-28.1°C 13% 3.0 mph NW4.8 kmh NW 5.8 mph9.3 kmh 30.51 in1033.2 mb 0.00 in0.0 mm 0.00 in0.0 mm 0.00 in0.0 mm
06:52 PM 25.7°F-3.5°C -18.5°F-28.1°C 13% 3.4 mph NW5.5 kmh NW 5.8 mph9.3 kmh 30.51 in1033.2 mb 0.00 in0.0 mm 0.00 in0.0 mm 0.00 in0.0 mm
06:53 PM 25.7°F-3.5°C -18.5°F-28.1°C 13% 3.2 mph NW5.1 kmh NW 5.8 mph9.3 kmh 30.51 in1033.2 mb 0.00 in0.0 mm 0.00 in0.0 mm 0.00 in0.0 mm
06:54 PM 25.3°F-3.7°C -18.8°F-28.2°C 13% 3.1 mph NW5.0 kmh NW 5.8 mph9.3 kmh 30.51 in1033.2 mb 0.00 in0.0 mm 0.00 in0.0 mm 0.00 in0.0 mm
06:55 PM 25.3°F-3.7°C -18.8°F-28.2°C 13% 2.9 mph WNW4.7 kmh WNW 5.8 mph9.3 kmh 30.51 in1033.2 mb 0.00 in0.0 mm 0.00 in0.0 mm 0.00 in0.0 mm
06:56 PM 25.2°F-3.8°C -18.9°F-28.3°C 13% 2.5 mph WNW4.0 kmh WNW 5.8 mph9.3 kmh 30.51 in1033.2 mb 0.00 in0.0 mm 0.00 in0.0 mm 0.00 in0.0 mm
06:57 PM 25.0°F-3.9°C -19.1°F-28.4°C 13% 2.1 mph NW3.4 kmh NW 4.3 mph6.9 kmh 30.51 in1033.2 mb 0.00 in0.0 mm 0.00 in0.0 mm 0.00 in0.0 mm
06:58 PM 25.0°F-3.9°C -19.1°F-28.4°C 13% 2.0 mph NW3.2 kmh NW 4.3 mph6.9 kmh 30.51 in1033.2 mb 0.00 in0.0 mm 0.00 in0.0 mm 0.00 in0.0 mm
06:59 PM 24.8°F-4.0°C -19.2°F-28.4°C 13% 1.5 mph NW2.4 kmh NW 4.3 mph6.9 kmh 30.51 in1033.2 mb 0.00 in0.0 mm 0.00 in0.0 mm 0.00 in0.0 mm
07:00 PM 24.8°F-4.0°C -19.2°F-28.4°C 13% 1.2 mph NW1.9 kmh NW 3.8 mph6.1 kmh 30.51 in1033.2 mb 0.00 in0.0 mm 0.00 in0.0 mm 0.00 in0.0 mm
07:01 PM 24.6°F-4.1°C -19.4°F-28.6°C 13% 0.7 mph NW1.1 kmh NW 3.8 mph6.1 kmh 30.51 in1033.2 mb 0.00 in0.0 mm 0.00 in0.0 mm 0.00 in0.0 mm
07:02 PM 24.6°F-4.1°C -19.4°F-28.6°C 13% 0.5 mph NW0.8 kmh NW 2.5 mph4.0 kmh 30.51 in1033.2 mb 0.00 in0.0 mm 0.00 in0.0 mm 0.00 in0.0 mm
07:03 PM 24.8°F-4.0°C -19.2°F-28.4°C 13% 0.5 mph NNW0.8 kmh NNW 2.5 mph4.0 kmh 30.51 in1033.2 mb 0.00 in0.0 mm 0.00 in0.0 mm 0.00 in0.0 mm
07:04 PM 24.8°F-4.0°C -19.2°F-28.4°C 13% 0.7 mph NW1.1 kmh NW 4.3 mph6.9 kmh 30.51 in1033.2 mb 0.00 in0.0 mm 0.00 in0.0 mm 0.00 in0.0 mm
07:05 PM 24.8°F-4.0°C -19.2°F-28.4°C 13% 0.9 mph NW1.4 kmh NW 4.3 mph6.9 kmh 30.51 in1033.2 mb 0.00 in0.0 mm 0.00 in0.0 mm 0.00 in0.0 mm
07:06 PM 24.8°F-4.0°C -19.2°F-28.4°C 13% 0.9 mph NW1.4 kmh NW 4.3 mph6.9 kmh 30.51 in1033.2 mb 0.00 in0.0 mm 0.00 in0.0 mm 0.00 in0.0 mm
07:07 PM 24.8°F-4.0°C -19.2°F-28.4°C 13% 1.1 mph NW1.8 kmh NW 5.4 mph8.7 kmh 30.51 in1033.2 mb 0.00 in0.0 mm 0.00 in0.0 mm 0.00 in0.0 mm
07:08 PM 25.0°F-3.9°C -19.1°F-28.4°C 13% 1.1 mph WNW1.8 kmh WNW 5.4 mph8.7 kmh 30.51 in1033.2 mb 0.00 in0.0 mm 0.00 in0.0 mm 0.00 in0.0 mm
07:09 PM 25.0°F-3.9°C -19.1°F-28.4°C 13% 1.3 mph WNW2.1 kmh WNW 5.4 mph8.7 kmh 30.51 in1033.2 mb 0.00 in0.0 mm 0.00 in0.0 mm 0.00 in0.0 mm
07:10 PM 25.2°F-3.8°C -18.9°F-28.3°C 13% 1.6 mph NW2.6 kmh NW 5.4 mph8.7 kmh 30.51 in1033.2 mb 0.00 in0.0 mm 0.00 in0.0 mm 0.00 in0.0 mm
07:11 PM 25.2°F-3.8°C -18.9°F-28.3°C 13% 1.7 mph NW2.7 kmh NW 5.4 mph8.7 kmh 30.51 in1033.2 mb 0.00 in0.0 mm 0.00 in0.0 mm 0.00 in0.0 mm
07:12 PM 25.2°F-3.8°C -18.9°F-28.3°C 13% 2.1 mph NW3.4 kmh NW 5.4 mph8.7 kmh 30.51 in1033.2 mb 0.00 in0.0 mm 0.00 in0.0 mm 0.00 in0.0 mm
07:13 PM 25.0°F-3.9°C -19.1°F-28.4°C 13% 2.3 mph NW3.7 kmh NW 5.4 mph8.7 kmh 30.51 in1033.2 mb 0.00 in0.0 mm 0.00 in0.0 mm 0.00 in0.0 mm
07:14 PM 25.0°F-3.9°C -19.1°F-28.4°C 13% 2.1 mph NW3.4 kmh NW 5.4 mph8.7 kmh 30.51 in1033.2 mb 0.00 in0.0 mm 0.00 in0.0 mm 0.00 in0.0 mm
07:15 PM 24.8°F-4.0°C -19.2°F-28.4°C 13% 1.9 mph NW3.1 kmh NW 5.4 mph8.7 kmh 30.51 in1033.2 mb 0.00 in0.0 mm 0.00 in0.0 mm 0.00 in0.0 mm
07:16 PM 24.8°F-4.0°C -19.2°F-28.4°C 13% 2.1 mph NW3.4 kmh NW 5.4 mph8.7 kmh 30.51 in1033.2 mb 0.00 in0.0 mm 0.00 in0.0 mm 0.00 in0.0 mm
07:17 PM 24.8°F-4.0°C -19.2°F-28.4°C 13% 1.7 mph NW2.7 kmh NW 3.1 mph5.0 kmh 30.51 in1033.2 mb 0.00 in0.0 mm 0.00 in0.0 mm 0.00 in0.0 mm
07:18 PM 24.8°F-4.0°C -19.2°F-28.4°C 13% 1.6 mph NW2.6 kmh NW 3.1 mph5.0 kmh 30.51 in1033.2 mb 0.00 in0.0 mm 0.00 in0.0 mm 0.00 in0.0 mm
07:19 PM 24.8°F-4.0°C -19.2°F-28.4°C 13% 1.4 mph NW2.3 kmh NW 3.1 mph5.0 kmh 30.51 in1033.2 mb 0.00 in0.0 mm 0.00 in0.0 mm 0.00 in0.0 mm
07:20 PM 24.4°F-4.2°C -19.5°F-28.6°C 13% 1.1 mph NW1.8 kmh NW 3.1 mph5.0 kmh 30.51 in1033.2 mb 0.00 in0.0 mm 0.00 in0.0 mm 0.00 in0.0 mm
07:21 PM 24.4°F-4.2°C -19.5°F-28.6°C 13% 0.9 mph NW1.4 kmh NW 3.1 mph5.0 kmh 30.51 in1033.2 mb 0.00 in0.0 mm 0.00 in0.0 mm 0.00 in0.0 mm
07:22 PM 24.4°F-4.2°C -19.5°F-28.6°C 13% 0.9 mph NW1.4 kmh NW 2.9 mph4.7 kmh 30.51 in1033.2 mb 0.00 in0.0 mm 0.00 in0.0 mm 0.00 in0.0 mm
07:23 PM 24.4°F-4.2°C -19.5°F-28.6°C 13% 0.8 mph NW1.3 kmh NW 2.9 mph4.7 kmh 30.51 in1033.2 mb 0.00 in0.0 mm 0.00 in0.0 mm 0.00 in0.0 mm
07:24 PM 24.6°F-4.1°C -19.4°F-28.6°C 13% 0.8 mph NW1.3 kmh NW 2.9 mph4.7 kmh 30.51 in1033.2 mb 0.00 in0.0 mm 0.00 in0.0 mm 0.00 in0.0 mm
07:25 PM 24.6°F-4.1°C -19.4°F-28.6°C 13% 0.7 mph NW1.1 kmh NW 2.9 mph4.7 kmh 30.51 in1033.2 mb 0.00 in0.0 mm 0.00 in0.0 mm 0.00 in0.0 mm
07:26 PM 24.4°F-4.2°C -19.5°F-28.6°C 13% 0.6 mph NNW1.0 kmh NNW 2.9 mph4.7 kmh 30.51 in1033.2 mb 0.00 in0.0 mm 0.00 in0.0 mm 0.00 in0.0 mm
07:27 PM 24.4°F-4.2°C -19.5°F-28.6°C 13% 0.9 mph NW1.4 kmh NW 4.7 mph7.6 kmh 30.51 in1033.2 mb 0.00 in0.0 mm 0.00 in0.0 mm 0.00 in0.0 mm
07:28 PM 24.4°F-4.2°C -19.5°F-28.6°C 13% 1.2 mph NW1.9 kmh NW 4.7 mph7.6 kmh 30.51 in1033.2 mb 0.00 in0.0 mm 0.00 in0.0 mm 0.00 in0.0 mm
07:29 PM 24.4°F-4.2°C -19.5°F-28.6°C 13% 1.5 mph NW2.4 kmh NW 4.7 mph7.6 kmh 30.51 in1033.2 mb 0.00 in0.0 mm 0.00 in0.0 mm 0.00 in0.0 mm
07:30 PM 24.4°F-4.2°C -19.5°F-28.6°C 13% 1.8 mph NW2.9 kmh NW 4.7 mph7.6 kmh 30.51 in1033.2 mb 0.00 in0.0 mm 0.00 in0.0 mm 0.00 in0.0 mm
07:31 PM 24.4°F-4.2°C -19.5°F-28.6°C 13% 1.9 mph NW3.1 kmh NW 4.7 mph7.6 kmh 30.51 in1033.2 mb 0.00 in0.0 mm 0.00 in0.0 mm 0.00 in0.0 mm